U26075 / G-EZTR 7700 Squawk Report (3rd of July, 2022)

Aircraft A320 Reg No. G-EZTR Age 12 years old
Model A320 Jet engines 2 First flight 21-01-10
Registered 09-02-10 Rollout 01-10 Delivered 09-02-10
Construction No. 4179 Line No. N/A Series 214
ADSHEX 406229 Airline name easyJet Owner N/A
Airfield based Luton~Beds~G First tracked N/A
Time Lat Lon Altitude Heading Speed Vertical Rate
2022-07-03 21:13:34 GMT 38.285408 -0.552750 0 11 0 0
2022-07-03 21:13:30 GMT 38.285412 -0.552750 0 11 0 0
2022-07-03 21:13:24 GMT 38.285526 -0.552720 0 11 0 0
2022-07-03 21:13:19 GMT 38.285408 -0.552750 0 11 0 0
2022-07-03 21:13:11 GMT 38.285477 -0.552735 0 11 2 0
2022-07-03 21:13:04 GMT 38.285469 -0.552735 0 8 3 0
2022-07-03 21:12:56 GMT 38.285084 -0.552839 0 8 6 0
2022-07-03 21:12:45 GMT 38.284847 -0.552896 0 0 5 0
2022-07-03 21:12:42 GMT 38.284760 -0.552929 0 343 5 0
2022-07-03 21:12:27 GMT 38.284538 -0.552779 0 278 9 0
2022-07-03 21:12:23 GMT 38.284504 -0.552574 0 278 9 0
2022-07-03 21:12:12 GMT 38.284424 -0.551961 0 295 10 0
2022-07-03 21:11:58 GMT 38.283932 -0.551552 0 39 13 0
2022-07-03 21:11:51 GMT 38.283691 -0.551902 0 56 17 0
2022-07-03 21:11:38 GMT 38.283047 -0.553362 0 70 20 0
2022-07-03 21:11:35 GMT 38.282970 -0.553612 0 70 20 0
2022-07-03 21:11:11 GMT 38.282234 -0.556526 0 81 26 0
2022-07-03 21:10:58 GMT 38.282234 -0.558541 0 98 32 0
2022-07-03 21:10:49 GMT 38.282455 -0.560273 0 98 51 0
2022-07-03 21:10:40 GMT 38.282970 -0.563838 -25 101 90 0
2022-07-03 21:10:29 GMT 38.284000 -0.571170 -25 100 132 -320
2022-07-03 21:10:22 GMT 38.284840 -0.577140 75 100 132 -640
2022-07-03 21:10:18 GMT 38.285213 -0.579589 125 100 132 -704
2022-07-03 21:10:10 GMT 38.286049 -0.585619 200 100 132 -640
2022-07-03 21:10:08 GMT 38.286255 -0.587126 225 100 132 -640
2022-07-03 21:10:06 GMT 38.286377 -0.587888 250 100 132 -640
2022-07-03 21:10:05 GMT 38.286484 -0.588704 250 100 132 -640
2022-07-03 21:10:04 GMT 38.286667 -0.590106 275 100 132 -640
2022-07-03 21:10:02 GMT 38.286888 -0.591590 300 100 132 -704
2022-07-03 21:09:55 GMT 38.287540 -0.596187 350 99 131 -704
2022-07-03 21:09:54 GMT 38.287857 -0.598638 400 100 132 -704
2022-07-03 21:09:51 GMT 38.288143 -0.600845 425 100 132 -704
2022-07-03 21:09:48 GMT 38.288269 -0.601677 450 100 132 -704
2022-07-03 21:09:47 GMT 38.288406 -0.602495 450 100 132 -704
2022-07-03 21:09:45 GMT 38.288589 -0.604014 475 100 132 -640
2022-07-03 21:09:44 GMT 38.288727 -0.604774 475 100 132 -640
2022-07-03 21:09:43 GMT 38.288891 -0.606218 500 100 132 -640
2022-07-03 21:09:41 GMT 38.288982 -0.606935 525 100 131 -640
2022-07-03 21:09:39 GMT 38.289310 -0.609144 550 100 131 -640
2022-07-03 21:09:35 GMT 38.289680 -0.611592 575 100 131 -640
2022-07-03 21:09:33 GMT 38.289871 -0.613131 600 100 131 -640
2022-07-03 21:09:32 GMT 38.290009 -0.613861 625 100 131 -640
2022-07-03 21:09:30 GMT 38.290192 -0.615354 625 100 132 -640
2022-07-03 21:09:29 GMT 38.290604 -0.618273 675 100 132 -640
2022-07-03 21:09:27 GMT 38.290604 -0.618273 675 100 132 -640
2022-07-03 21:09:26 GMT 38.290741 -0.619091 700 100 132 -640
2022-07-03 21:09:24 GMT 38.290844 -0.619951 700 100 132 -640
2022-07-03 21:09:22 GMT 38.291077 -0.621444 725 100 132 -640
2022-07-03 21:09:21 GMT 38.291382 -0.623708 750 99 132 -640
2022-07-03 21:09:19 GMT 38.291451 -0.624370 750 99 132 -640
2022-07-03 21:09:17 GMT 38.291656 -0.625753 775 99 132 -640
2022-07-03 21:09:15 GMT 38.291870 -0.627355 800 99 133 -640
2022-07-03 21:09:13 GMT 38.292103 -0.628967 825 99 133 -640
2022-07-03 21:09:12 GMT 38.292194 -0.629743 850 100 133 -640
2022-07-03 21:09:11 GMT 38.292290 -0.630400 850 100 133 -640
2022-07-03 21:09:09 GMT 38.292526 -0.632064 875 100 134 -640
2022-07-03 21:09:08 GMT 38.292618 -0.632883 875 100 134 -640
2022-07-03 21:09:06 GMT 38.292847 -0.634460 900 100 134 -640
2022-07-03 21:09:05 GMT 38.292984 -0.635279 900 100 135 -640
2022-07-03 21:09:03 GMT 38.293175 -0.636610 925 100 135 -640
2022-07-03 21:09:02 GMT 38.293266 -0.637386 950 100 135 -640
2022-07-03 21:09:01 GMT 38.293404 -0.638282 950 100 136 -704
2022-07-03 21:08:59 GMT 38.293625 -0.639895 975 100 136 -704
2022-07-03 21:08:58 GMT 38.293762 -0.640655 1,000 100 136 -704
2022-07-03 21:08:57 GMT 38.293964 -0.642282 1,025 100 137 -704
2022-07-03 21:08:55 GMT 38.294128 -0.643109 1,025 100 137 -704
2022-07-03 21:08:53 GMT 38.294312 -0.644395 1,050 100 138 -768
2022-07-03 21:08:51 GMT 38.294521 -0.646044 1,075 100 139 -704
2022-07-03 21:08:50 GMT 38.294662 -0.646939 1,075 99 140 -768
2022-07-03 21:08:48 GMT 38.294861 -0.648486 1,100 99 141 -832
2022-07-03 21:08:45 GMT 38.295265 -0.651238 1,150 99 142 -832
2022-07-03 21:08:43 GMT 38.295452 -0.652970 1,200 99 143 -832
2022-07-03 21:08:42 GMT 38.295547 -0.653453 1,200 99 143 -832
2022-07-03 21:08:41 GMT 38.295872 -0.655955 1,225 99 143 -832
2022-07-03 21:08:39 GMT 38.295872 -0.655955 1,250 99 144 -832
2022-07-03 21:08:37 GMT 38.296143 -0.657952 1,275 99 145 -896
2022-07-03 21:08:36 GMT 38.296234 -0.658771 1,275 99 145 -896
2022-07-03 21:08:35 GMT 38.296387 -0.659657 1,300 99 146 -896
2022-07-03 21:08:33 GMT 38.296600 -0.661400 1,325 100 147 -896
2022-07-03 21:08:32 GMT 38.296783 -0.662686 1,350 100 148 -832
2022-07-03 21:08:30 GMT 38.296921 -0.663504 1,350 100 149 -832
2022-07-03 21:08:29 GMT 38.297085 -0.664792 1,375 99 150 -832
2022-07-03 21:08:26 GMT 38.297424 -0.667010 1,400 100 153 -832
2022-07-03 21:08:25 GMT 38.297836 -0.670049 1,450 99 156 -768
2022-07-03 21:08:23 GMT 38.297836 -0.670049 1,450 99 157 -768
2022-07-03 21:08:22 GMT 38.298203 -0.672737 1,475 99 159 -704
2022-07-03 21:08:20 GMT 38.298203 -0.672737 1,500 99 161 -640
2022-07-03 21:08:19 GMT 38.298294 -0.673672 1,500 99 162 -640
2022-07-03 21:08:16 GMT 38.298714 -0.676674 1,550 99 167 -832
2022-07-03 21:08:14 GMT 38.298992 -0.678585 1,575 99 168 -896
2022-07-03 21:08:13 GMT 38.299164 -0.679691 1,575 99 168 -896
2022-07-03 21:08:12 GMT 38.299412 -0.681511 1,600 99 170 -832
2022-07-03 21:08:10 GMT 38.299622 -0.683256 1,625 99 172 -832
2022-07-03 21:08:08 GMT 38.299805 -0.684600 1,650 99 174 -768
2022-07-03 21:08:07 GMT 38.299923 -0.685511 1,650 99 174 -768
2022-07-03 21:08:05 GMT 38.300247 -0.687661 1,675 99 176 -768
2022-07-03 21:08:04 GMT 38.300400 -0.688749 1,700 100 177 -832
2022-07-03 21:08:02 GMT 38.300621 -0.690347 1,725 100 180 -896
2022-07-03 21:08:01 GMT 38.300808 -0.691780 1,750 100 181 -896
2022-07-03 21:07:58 GMT 38.301228 -0.694646 1,775 100 183 -896
2022-07-03 21:07:57 GMT 38.301498 -0.696580 1,825 100 184 -1024
2022-07-03 21:07:54 GMT 38.302002 -0.700145 1,875 100 186 -1024
2022-07-03 21:07:52 GMT 38.302139 -0.701255 1,900 99 186 -1024
2022-07-03 21:07:51 GMT 38.302460 -0.703476 1,925 99 186 -1024
2022-07-03 21:07:49 GMT 38.302643 -0.704703 1,950 99 186 -1024
2022-07-03 21:07:48 GMT 38.302780 -0.705755 1,975 99 186 -1024
2022-07-03 21:07:42 GMT 38.303513 -0.711189 2,050 99 186 -960
2022-07-03 21:07:38 GMT 38.304207 -0.716321 2,125 99 186 -960
2022-07-03 21:07:33 GMT 38.305023 -0.722117 2,200 99 186 -960
2022-07-03 21:07:30 GMT 38.305462 -0.725277 2,250 99 186 -896
2022-07-03 21:07:27 GMT 38.305801 -0.727610 2,275 99 186 -896
2022-07-03 21:07:22 GMT 38.306580 -0.733337 2,350 100 187 -896
2022-07-03 21:07:18 GMT 38.307278 -0.738293 2,425 100 187 -896
2022-07-03 21:07:12 GMT 38.308117 -0.744264 2,500 100 188 -896
2022-07-03 21:07:08 GMT 38.308777 -0.748940 2,575 99 189 -960
2022-07-03 21:07:02 GMT 38.309647 -0.755661 2,675 99 190 -960
2022-07-03 21:06:58 GMT 38.310303 -0.760266 2,750 99 189 -960
2022-07-03 21:06:52 GMT 38.311096 -0.766177 2,825 99 189 -1024
2022-07-03 21:06:47 GMT 38.311840 -0.771790 2,925 99 189 -1024
2022-07-03 21:06:42 GMT 38.312630 -0.777641 3,000 100 187 -1024
2022-07-03 21:06:37 GMT 38.313377 -0.782836 3,100 100 185 -1024
2022-07-03 21:06:30 GMT 38.314445 -0.790359 3,200 100 183 -1024
2022-07-03 21:06:27 GMT 38.314865 -0.793523 3,250 100 183 -1024
2022-07-03 21:06:21 GMT 38.315735 -0.799548 3,350 100 183 -960
2022-07-03 21:06:17 GMT 38.316376 -0.804223 3,425 100 182 -960
2022-07-03 21:06:12 GMT 38.317146 -0.809883 3,500 100 182 -960
2022-07-03 21:06:09 GMT 38.317612 -0.813164 3,650 100 182 -960
2022-07-03 21:06:02 GMT 38.318619 -0.820527 3,650 100 183 -896
2022-07-03 21:05:58 GMT 38.319168 -0.824442 3,725 99 184 -896
2022-07-03 21:05:51 GMT 38.320175 -0.831572 3,825 100 186 -896
2022-07-03 21:05:47 GMT 38.320869 -0.836394 3,900 100 188 -960
2022-07-03 21:05:41 GMT 38.321777 -0.842908 3,975 100 189 -960
2022-07-03 21:05:36 GMT 38.322464 -0.848109 4,050 99 191 -896
2022-07-03 21:05:31 GMT 38.323242 -0.853778 4,150 99 192 -896
2022-07-03 21:05:28 GMT 38.323803 -0.857650 4,200 100 194 -896
2022-07-03 21:05:25 GMT 38.324081 -0.859740 4,225 100 194 -896
2022-07-03 21:05:21 GMT 38.324890 -0.865407 4,300 100 194 -896
2022-07-03 21:05:15 GMT 38.325760 -0.871562 4,400 100 194 -768
2022-07-03 21:05:11 GMT 38.326492 -0.876452 4,450 100 194 -768
2022-07-03 21:05:08 GMT 38.327087 -0.880659 4,500 99 196 -704
2022-07-03 21:05:04 GMT 38.328094 -0.888198 4,575 99 198 -704
2022-07-03 21:05:00 GMT 38.328094 -0.888198 4,575 99 202 -768
2022-07-03 21:04:54 GMT 38.329788 -0.900587 4,725 99 218 -1024
2022-07-03 21:04:50 GMT 38.329788 -0.900587 4,700 99 215 -896
2022-07-03 21:04:45 GMT 38.330841 -0.908008 4,800 100 221 -1024
2022-07-03 21:04:41 GMT 38.331577 -0.913119 4,900 100 222 -1280
2022-07-03 21:04:33 GMT 38.333019 -0.922613 5,075 100 222 -1600
2022-07-03 21:04:30 GMT 38.333580 -0.926374 5,150 100 222 -1536
2022-07-03 21:04:23 GMT 38.334915 -0.935474 5,325 101 222 -1536
2022-07-03 21:04:20 GMT 38.336517 -0.944415 5,425 103 222 -1600
2022-07-03 21:04:17 GMT 38.336517 -0.944415 5,500 104 221 -1600
2022-07-03 21:04:13 GMT 38.337353 -0.948228 5,575 107 220 -1600
2022-07-03 21:04:10 GMT 38.338375 -0.951870 5,725 114 218 -1728
2022-07-03 21:04:06 GMT 38.340004 -0.956467 5,825 128 214 -1216
2022-07-03 21:04:03 GMT 38.341633 -0.960110 5,850 125 216 -1472
2022-07-03 21:03:59 GMT 38.343822 -0.963931 5,925 132 213 -896
2022-07-03 21:03:56 GMT 38.348244 -0.969543 6,000 144 208 -128
2022-07-03 21:03:52 GMT 38.348244 -0.969543 6,000 144 208 -128
2022-07-03 21:03:48 GMT 38.351669 -0.972407 6,000 149 207 64
2022-07-03 21:03:44 GMT 38.355320 -0.974141 6,000 186 213 -576
2022-07-03 21:03:40 GMT 38.360535 -0.974857 6,000 183 214 -512
2022-07-03 21:03:31 GMT 38.367981 -0.973305 6,100 198 216 -640
2022-07-03 21:03:29 GMT 38.370346 -0.972407 6,125 198 216 -640
2022-07-03 21:03:22 GMT 38.380920 -0.967907 6,225 200 219 -640
2022-07-03 21:03:18 GMT 38.380920 -0.967907 6,250 200 220 -640
2022-07-03 21:03:14 GMT 38.384228 -0.966379 6,275 201 221 -704
2022-07-03 21:03:11 GMT 38.387375 -0.964868 6,325 201 223 -704
2022-07-03 21:03:08 GMT 38.390671 -0.963291 6,350 202 225 -704
2022-07-03 21:03:03 GMT 38.395775 -0.960647 6,425 204 229 -704
2022-07-03 21:02:58 GMT 38.400330 -0.958265 6,475 204 229 -704
2022-07-03 21:02:53 GMT 38.405083 -0.955572 6,500 205 232 -832
2022-07-03 21:02:49 GMT 38.412346 -0.951273 6,650 206 234 -896
2022-07-03 21:02:41 GMT 38.416489 -0.948730 6,775 207 237 -896
2022-07-03 21:02:36 GMT 38.421192 -0.945740 6,775 208 238 -832
2022-07-03 21:02:29 GMT 38.433701 -0.937062 6,925 210 237 -832
2022-07-03 21:02:24 GMT 38.433701 -0.937062 6,950 210 237 -832
2022-07-03 21:02:21 GMT 38.436043 -0.935364 7,000 211 236 -832
2022-07-03 21:02:18 GMT 38.439285 -0.932942 7,050 211 236 -768
2022-07-03 21:02:14 GMT 38.443069 -0.929993 7,100 212 236 -832
2022-07-03 21:02:11 GMT 38.445770 -0.927917 7,125 213 235 -768
2022-07-03 21:02:08 GMT 38.448193 -0.925964 7,175 213 236 -768
2022-07-03 21:02:03 GMT 38.453220 -0.921814 7,225 214 236 -768
2022-07-03 21:01:58 GMT 38.458145 -0.917597 7,300 216 235 -832
2022-07-03 21:01:53 GMT 38.463089 -0.913239 7,375 216 235 -768
2022-07-03 21:01:50 GMT 38.464020 -0.912415 7,400 216 235 -768
2022-07-03 21:01:47 GMT 38.467300 -0.909357 7,425 217 235 -768
2022-07-03 21:01:43 GMT 38.470676 -0.906128 7,500 219 235 -896
2022-07-03 21:01:40 GMT 38.472885 -0.904043 7,525 218 235 -896
2022-07-03 21:01:36 GMT 38.476776 -0.900162 7,725 220 234 -768
2022-07-03 21:01:30 GMT 38.481804 -0.895020 7,675 220 235 -768
2022-07-03 21:01:27 GMT 38.484604 -0.892042 7,725 220 234 -768
2022-07-03 21:01:24 GMT 38.486801 -0.889713 7,750 221 235 -832
2022-07-03 21:01:20 GMT 38.490227 -0.885925 7,825 222 234 -832
2022-07-03 21:01:17 GMT 38.495178 -0.880220 7,875 223 235 -832
2022-07-03 21:01:14 GMT 38.495178 -0.880220 7,925 223 234 -832
2022-07-03 21:01:10 GMT 38.498199 -0.876637 7,975 224 234 -832
2022-07-03 21:01:07 GMT 38.501312 -0.872816 8,025 225 233 -832
2022-07-03 21:01:03 GMT 38.503822 -0.869690 8,075 225 233 -896
2022-07-03 21:01:00 GMT 38.506027 -0.866845 8,100 226 233 -960
2022-07-03 21:00:57 GMT 38.507824 -0.864502 8,150 227 232 -1024
2022-07-03 21:00:53 GMT 38.511108 -0.860098 8,225 228 232 -1024
2022-07-03 21:00:50 GMT 38.513351 -0.856934 8,275 229 233 -1280
2022-07-03 21:00:47 GMT 38.515133 -0.854431 8,325 229 233 -1280
2022-07-03 21:00:41 GMT 38.519531 -0.847918 8,450 232 233 -1024
2022-07-03 21:00:38 GMT 38.522278 -0.843678 8,525 232 233 -1024
2022-07-03 21:00:29 GMT 38.527588 -0.835080 8,650 233 236 -832
2022-07-03 21:00:25 GMT 38.530060 -0.830960 8,725 232 238 -960
2022-07-03 21:00:22 GMT 38.532124 -0.827576 8,775 231 239 -1088
2022-07-03 21:00:19 GMT 38.534500 -0.823975 8,825 227 239 -1408
2022-07-03 21:00:16 GMT 38.536873 -0.820984 8,900 221 240 -1536
2022-07-03 21:00:10 GMT 38.543205 -0.815491 9,100 210 241 -1728
2022-07-03 21:00:06 GMT 38.546310 -0.813705 9,175 203 242 -1664
2022-07-03 21:00:02 GMT 38.550476 -0.811854 9,275 197 243 -1344
2022-07-03 20:59:59 GMT 38.554424 -0.810425 9,350 196 244 -1216
2022-07-03 20:59:56 GMT 38.557171 -0.809509 9,400 196 244 -1216
2022-07-03 20:59:52 GMT 38.561508 -0.807973 9,500 196 245 -1088
2022-07-03 20:59:49 GMT 38.565269 -0.806641 9,525 196 246 -1088
2022-07-03 20:59:46 GMT 38.572495 -0.804151 9,650 196 248 -960
2022-07-03 20:59:42 GMT 38.572495 -0.804151 9,650 196 248 -960
2022-07-03 20:59:36 GMT 38.579086 -0.801883 9,725 196 250 -704
2022-07-03 20:59:30 GMT 38.586639 -0.799255 9,800 196 253 -640
2022-07-03 20:59:26 GMT 38.590687 -0.797852 9,825 196 256 -576
2022-07-03 20:59:22 GMT 38.595795 -0.796091 9,900 195 262 -576
2022-07-03 20:59:16 GMT 38.602112 -0.793941 9,925 196 261 -640
2022-07-03 20:59:13 GMT 38.605728 -0.792687 10,000 196 264 -640
2022-07-03 20:59:10 GMT 38.608749 -0.791687 10,000 196 264 -640
2022-07-03 20:59:06 GMT 38.614334 -0.789734 10,050 196 267 -768
2022-07-03 20:59:00 GMT 38.622017 -0.787109 10,125 196 270 -832
2022-07-03 20:58:56 GMT 38.626160 -0.785645 10,175 196 273 -640
2022-07-03 20:58:51 GMT 38.631886 -0.783691 10,225 196 276 -576
2022-07-03 20:58:46 GMT 38.638962 -0.781189 10,275 196 278 -640
2022-07-03 20:58:42 GMT 38.644222 -0.779358 10,325 196 282 -640
2022-07-03 20:58:36 GMT 38.651440 -0.776855 10,400 196 285 -1152
2022-07-03 20:58:29 GMT 38.661728 -0.773193 11,225 196 285 -2112
2022-07-03 20:58:26 GMT 38.664322 -0.772267 10,725 196 284 -2048
2022-07-03 20:58:20 GMT 38.671131 -0.769897 10,875 196 283 -1792
2022-07-03 20:58:15 GMT 38.677551 -0.767729 11,025 196 283 -1472
2022-07-03 20:58:11 GMT 38.683136 -0.765759 11,100 196 286 -832
2022-07-03 20:58:06 GMT 38.690140 -0.763311 11,200 196 286 -1472
2022-07-03 20:57:58 GMT 38.698975 -0.760266 11,450 196 286 -1792
2022-07-03 20:57:55 GMT 38.703438 -0.758728 11,525 196 287 -1856
2022-07-03 20:57:50 GMT 38.709366 -0.756683 11,675 196 286 -2240
2022-07-03 20:57:45 GMT 38.716473 -0.754211 11,875 196 284 -2176
2022-07-03 20:57:39 GMT 38.725067 -0.751250 12,075 196 286 -1472
2022-07-03 20:57:35 GMT 38.729004 -0.749877 12,150 196 286 -1408
2022-07-03 20:57:31 GMT 38.735138 -0.747787 12,250 196 286 -1344
2022-07-03 20:57:28 GMT 38.737885 -0.746826 12,350 196 286 -1280
2022-07-03 20:57:25 GMT 38.741890 -0.745422 12,375 196 286 -1280
2022-07-03 20:57:20 GMT 38.747940 -0.743347 12,475 196 288 -1408
2022-07-03 20:57:14 GMT 38.755600 -0.740682 12,625 196 289 -1536
2022-07-03 20:57:10 GMT 38.761139 -0.738711 12,750 196 289 -1792
2022-07-03 20:57:06 GMT 38.765945 -0.737039 12,925 196 289 -1856
2022-07-03 20:57:03 GMT 38.769867 -0.735596 12,925 196 289 -1856
2022-07-03 20:56:57 GMT 38.777756 -0.732800 13,200 196 286 -1664
2022-07-03 20:56:54 GMT 38.782104 -0.731248 13,250 196 286 -1664
2022-07-03 20:56:51 GMT 38.785309 -0.730113 13,300 196 287 -1408
2022-07-03 20:56:48 GMT 38.790436 -0.728262 13,525 196 288 -1536
2022-07-03 20:56:45 GMT 38.794418 -0.726889 13,475 196 287 -1536
2022-07-03 20:56:39 GMT 38.800636 -0.724670 13,600 196 288 -1728
2022-07-03 20:56:32 GMT 38.816326 -0.719177 14,025 196 287 -2112
2022-07-03 20:56:24 GMT 38.820286 -0.717834 14,125 196 286 -1920
2022-07-03 20:56:18 GMT 38.827515 -0.715305 14,275 196 287 -1600
2022-07-03 20:56:15 GMT 38.831455 -0.713928 14,350 196 287 -1600
2022-07-03 20:56:12 GMT 38.835617 -0.712439 14,500 196 287 -1536
2022-07-03 20:56:02 GMT 38.855347 -0.705454 14,850 196 288 -1472
2022-07-03 20:55:57 GMT 38.856628 -0.704976 14,875 196 288 -1600
2022-07-03 20:55:54 GMT 38.859154 -0.704102 14,925 196 288 -1600
2022-07-03 20:55:49 GMT 38.865067 -0.702026 15,050 196 289 -1600
2022-07-03 20:55:44 GMT 38.872101 -0.699543 15,175 196 289 -1536
2022-07-03 20:55:38 GMT 38.878601 -0.697274 15,300 196 290 -1600
2022-07-03 20:55:33 GMT 38.885559 -0.694826 15,650 196 290 -1536
2022-07-03 20:55:29 GMT 38.892700 -0.692318 15,600 196 290 -1472
2022-07-03 20:55:23 GMT 38.899513 -0.689941 15,725 196 291 -1472
2022-07-03 20:55:19 GMT 38.904171 -0.688293 15,825 196 291 -1728
2022-07-03 20:55:16 GMT 38.911789 -0.685630 15,925 196 291 -1344
2022-07-03 20:55:13 GMT 38.911789 -0.685630 15,975 196 291 -1344
2022-07-03 20:55:08 GMT 38.918564 -0.683242 16,100 196 293 -1344
2022-07-03 20:55:03 GMT 38.924652 -0.681091 16,200 196 293 -1408
2022-07-03 20:54:58 GMT 38.931496 -0.678711 16,325 196 294 -1728
2022-07-03 20:54:53 GMT 38.938019 -0.676435 16,475 196 294 -1792
2022-07-03 20:54:48 GMT 38.944904 -0.674011 16,625 196 294 -1792
2022-07-03 20:54:44 GMT 38.949966 -0.672256 16,775 196 295 -1600
2022-07-03 20:54:41 GMT 38.953888 -0.670898 16,825 196 295 -1536
2022-07-03 20:54:38 GMT 38.958160 -0.669390 16,900 196 296 -1536
2022-07-03 20:54:33 GMT 38.965210 -0.666882 17,050 196 297 -1408
2022-07-03 20:54:28 GMT 38.970383 -0.665091 17,275 196 299 -1536
2022-07-03 20:54:22 GMT 38.979118 -0.661987 17,300 196 299 -1472
2022-07-03 20:54:17 GMT 38.985489 -0.659777 17,675 196 296 -2496
2022-07-03 20:54:12 GMT 38.992310 -0.657329 17,600 196 298 -2368
2022-07-03 20:54:07 GMT 38.999222 -0.654881 17,825 196 295 -2432
2022-07-03 20:54:02 GMT 39.006306 -0.652405 18,025 196 295 -2048
2022-07-03 20:53:56 GMT 39.013092 -0.649985 18,150 196 295 -1280
2022-07-03 20:53:52 GMT 39.018631 -0.648014 18,775 196 306 -2048
2022-07-03 20:53:46 GMT 39.026463 -0.645264 18,275 196 302 -512
2022-07-03 20:53:42 GMT 39.032043 -0.643238 18,325 196 304 -1024
2022-07-03 20:53:35 GMT 39.042198 -0.639587 18,475 196 306 -1344
2022-07-03 20:53:32 GMT 39.046371 -0.638103 18,575 196 307 -1600
2022-07-03 20:53:25 GMT 39.055115 -0.634998 18,775 196 306 -2176
2022-07-03 20:53:22 GMT 39.059738 -0.633326 18,900 196 305 -2304
2022-07-03 20:53:16 GMT 39.068779 -0.630127 19,150 196 303 -2176
2022-07-03 20:53:11 GMT 39.074085 -0.628235 19,275 196 303 -2176
2022-07-03 20:52:59 GMT 39.097137 -0.620130 19,750 196 304 -1024
2022-07-03 20:52:53 GMT 39.100761 -0.618835 19,800 196 306 -960
2022-07-03 20:52:50 GMT 39.102810 -0.618164 19,825 196 306 -960
2022-07-03 20:52:40 GMT 39.116959 -0.613145 20,025 196 312 -1408
2022-07-03 20:52:30 GMT 39.139214 -0.605347 20,350 196 318 -1216
2022-07-03 20:52:21 GMT 39.143372 -0.603830 21,375 196 327 -896
2022-07-03 20:52:18 GMT 39.147873 -0.602295 20,475 196 319 -1344
2022-07-03 20:52:11 GMT 39.156857 -0.599121 20,625 196 319 -1088
2022-07-03 20:52:08 GMT 39.162369 -0.597202 20,675 196 319 -1088
2022-07-03 20:51:59 GMT 39.182510 -0.590097 20,900 196 322 -1024
2022-07-03 20:51:51 GMT 39.202423 -0.583052 21,375 196 327 -896
2022-07-03 20:51:40 GMT 39.202423 -0.583052 21,125 196 324 -960
2022-07-03 20:51:27 GMT 39.227875 -0.574036 21,400 196 326 -896
2022-07-03 20:51:21 GMT 39.248337 -0.566751 21,500 196 327 -960
2022-07-03 20:51:13 GMT 39.248337 -0.566751 21,625 196 328 -960
2022-07-03 20:51:08 GMT 39.249123 -0.566467 21,650 196 328 -960
2022-07-03 20:50:59 GMT 39.270630 -0.558750 21,875 196 328 -1024
2022-07-03 20:50:49 GMT 39.276402 -0.556702 21,950 196 328 -1024
2022-07-03 20:50:39 GMT 39.291000 -0.551466 22,125 196 328 -1024
2022-07-03 20:50:36 GMT 39.295441 -0.549913 22,175 196 328 -1024
2022-07-03 20:50:29 GMT 39.305969 -0.546152 22,350 196 328 -960
2022-07-03 20:50:26 GMT 39.310959 -0.544420 22,350 196 328 -960
2022-07-03 20:50:17 GMT 39.323547 -0.539882 22,475 196 328 -768
2022-07-03 20:50:14 GMT 39.327805 -0.538390 22,525 196 328 -768
2022-07-03 20:50:09 GMT 39.335339 -0.535706 22,575 196 328 -704
2022-07-03 20:50:03 GMT 39.343735 -0.532717 22,650 196 327 -768
2022-07-03 20:50:00 GMT 39.349396 -0.530701 24,350 197 336 -960
2022-07-03 20:49:52 GMT 39.359917 -0.526978 22,825 196 328 -1088
2022-07-03 20:49:49 GMT 39.364563 -0.525373 22,900 196 328 -1152
2022-07-03 20:49:39 GMT 39.379944 -0.519940 23,100 196 327 -1152
2022-07-03 20:49:27 GMT 39.405586 -0.510925 23,400 196 326 -896
2022-07-03 20:49:18 GMT 39.409286 -0.509610 23,425 196 325 -896
2022-07-03 20:49:09 GMT 39.426487 -0.503601 23,600 196 326 -960
2022-07-03 20:48:55 GMT 39.450211 -0.495221 23,875 196 329 -1024
2022-07-03 20:48:46 GMT 39.456802 -0.492832 23,950 196 329 -1024
2022-07-03 20:48:43 GMT 39.461449 -0.491150 24,100 197 332 -960
2022-07-03 20:48:38 GMT 39.469688 -0.488037 24,100 197 332 -1024
2022-07-03 20:48:32 GMT 39.477509 -0.485046 24,175 197 333 -1024
2022-07-03 20:48:27 GMT 39.484818 -0.482264 24,250 197 334 -1024
2022-07-03 20:48:21 GMT 39.493988 -0.478760 24,375 197 336 -1024
2022-07-03 20:48:16 GMT 39.501251 -0.475935 24,450 197 337 -960
2022-07-03 20:48:08 GMT 39.517776 -0.469606 24,700 197 338 -960
2022-07-03 20:48:01 GMT 39.524094 -0.467217 24,700 197 338 -960
2022-07-03 20:47:58 GMT 39.538513 -0.461665 24,875 197 340 -1088
2022-07-03 20:47:51 GMT 39.538513 -0.461665 24,850 197 340 -1088
2022-07-03 20:47:47 GMT 39.555862 -0.454977 25,075 197 340 -1088
2022-07-03 20:47:40 GMT 39.555862 -0.454977 25,075 197 340 -1088
2022-07-03 20:47:37 GMT 39.559021 -0.453783 25,100 197 340 -1088
2022-07-03 20:47:34 GMT 39.563629 -0.452026 25,150 197 340 -1088
2022-07-03 20:47:28 GMT 39.574615 -0.447815 25,300 197 339 -1088
2022-07-03 20:47:25 GMT 39.577641 -0.446655 25,325 197 339 -1024
2022-07-03 20:47:17 GMT 39.589653 -0.442017 25,450 197 339 -1024
2022-07-03 20:47:14 GMT 39.594028 -0.440308 25,500 197 338 -960
2022-07-03 20:47:10 GMT 39.600174 -0.437927 25,575 197 338 -896
2022-07-03 20:47:07 GMT 39.604691 -0.436157 25,675 197 338 -896
2022-07-03 20:47:04 GMT 39.609100 -0.434497 25,675 197 338 -896
2022-07-03 20:46:56 GMT 39.638489 -0.423153 25,800 197 338 -896
2022-07-03 20:46:50 GMT 39.638489 -0.423153 25,950 197 338 -896
2022-07-03 20:46:41 GMT 39.652130 -0.417898 26,100 197 338 -896
2022-07-03 20:46:34 GMT 39.654510 -0.416943 26,125 197 338 -896
2022-07-03 20:46:27 GMT 39.665531 -0.412720 26,225 197 338 -960
2022-07-03 20:46:23 GMT 39.670120 -0.410913 26,275 197 338 -960
2022-07-03 20:46:14 GMT 39.685410 -0.405001 26,450 197 339 -1024
2022-07-03 20:46:06 GMT 39.697189 -0.400452 26,575 197 339 -1024
2022-07-03 20:46:03 GMT 39.701237 -0.398865 26,625 197 339 -1024
2022-07-03 20:45:53 GMT 39.716183 -0.393066 26,800 197 340 -960
2022-07-03 20:45:50 GMT 39.720612 -0.391328 26,850 197 340 -896
2022-07-03 20:45:46 GMT 39.726974 -0.388880 26,900 197 340 -896
2022-07-03 20:45:42 GMT 39.732239 -0.386850 26,950 197 341 -832
2022-07-03 20:45:39 GMT 39.737503 -0.384760 27,000 197 341 -832
2022-07-03 20:45:36 GMT 39.742298 -0.382935 27,050 197 341 -832
2022-07-03 20:45:33 GMT 39.747070 -0.381118 27,100 197 342 -896
2022-07-03 20:45:26 GMT 39.755859 -0.377715 27,200 197 343 -896
2022-07-03 20:45:22 GMT 39.763000 -0.374908 27,275 197 343 -960
2022-07-03 20:45:15 GMT 39.773766 -0.370728 27,400 197 345 -960
2022-07-03 20:45:12 GMT 39.778290 -0.368997 27,425 197 346 -960
2022-07-03 20:45:04 GMT 39.789921 -0.364441 27,550 197 349 -960
2022-07-03 20:45:01 GMT 39.795456 -0.362310 27,600 197 350 -960
2022-07-03 20:44:55 GMT 39.804863 -0.358643 27,725 197 354 -960
2022-07-03 20:44:52 GMT 39.810078 -0.356628 27,750 197 355 -960
2022-07-03 20:44:49 GMT 39.814087 -0.355085 27,800 197 357 -960
2022-07-03 20:44:39 GMT 39.838348 -0.345651 28,025 197 364 -960
2022-07-03 20:44:31 GMT 39.843201 -0.343741 28,050 197 366 -960
2022-07-03 20:44:28 GMT 39.847366 -0.342163 28,100 197 369 -960
2022-07-03 20:44:25 GMT 39.853092 -0.339905 28,250 197 374 -1152
2022-07-03 20:44:21 GMT 39.859268 -0.337471 28,200 197 373 -1088
2022-07-03 20:44:16 GMT 39.867920 -0.334128 28,300 197 378 -1088
2022-07-03 20:44:11 GMT 39.876297 -0.330844 28,400 197 380 -1024
2022-07-03 20:44:06 GMT 39.885956 -0.327026 28,500 197 381 -960
2022-07-03 20:44:01 GMT 39.893917 -0.323914 28,600 197 382 -960
2022-07-03 20:43:54 GMT 39.903809 -0.320037 28,775 197 384 -960
2022-07-03 20:43:50 GMT 39.911888 -0.316895 28,750 197 384 -960
2022-07-03 20:43:43 GMT 39.922314 -0.312805 29,350 197 396 -896
2022-07-03 20:43:39 GMT 39.929668 -0.309989 29,025 197 389 -960
2022-07-03 20:43:33 GMT 39.939819 -0.305994 29,350 197 396 -896
2022-07-03 20:43:29 GMT 39.946838 -0.303284 29,100 197 393 -1024
2022-07-03 20:43:23 GMT 39.967609 -0.295195 29,275 197 393 -1024
2022-07-03 20:43:17 GMT 39.967609 -0.295195 29,275 197 393 -1024
2022-07-03 20:43:13 GMT 39.975105 -0.292324 29,350 197 394 -960
2022-07-03 20:43:06 GMT 39.986572 -0.287842 29,450 197 395 -896
2022-07-03 20:43:03 GMT 39.992840 -0.285457 29,500 197 396 -896
2022-07-03 20:42:58 GMT 40.000626 -0.282410 29,575 197 397 -896
2022-07-03 20:42:54 GMT 40.010330 -0.278687 29,750 197 398 -1024
2022-07-03 20:42:49 GMT 40.019165 -0.275208 29,750 197 398 -1024
2022-07-03 20:42:44 GMT 40.026215 -0.272461 29,825 197 399 -1024
2022-07-03 20:42:37 GMT 40.044800 -0.265259 30,000 197 400 -1024
2022-07-03 20:42:33 GMT 40.044800 -0.265259 30,000 197 400 -1024
2022-07-03 20:42:27 GMT 40.055546 -0.261050 30,100 197 400 -960
2022-07-03 20:42:22 GMT 40.064713 -0.257446 30,250 197 400 -896
2022-07-03 20:42:18 GMT 40.073841 -0.253934 30,250 197 400 -896
2022-07-03 20:42:13 GMT 40.081238 -0.251038 30,600 197 399 -896
2022-07-03 20:42:07 GMT 40.092224 -0.246765 30,400 197 399 -896
2022-07-03 20:42:02 GMT 40.101059 -0.243347 30,475 197 399 -960
2022-07-03 20:41:56 GMT 40.110386 -0.239764 30,550 197 399 -960
2022-07-03 20:41:50 GMT 40.121429 -0.235474 30,725 197 400 -1024
2022-07-03 20:41:46 GMT 40.130676 -0.231873 30,725 197 401 -1024
2022-07-03 20:41:39 GMT 40.141022 -0.227905 30,825 197 402 -1088
2022-07-03 20:41:35 GMT 40.148346 -0.225037 30,900 197 403 -896
2022-07-03 20:41:26 GMT 40.164825 -0.218628 30,975 197 403 0
2022-07-03 20:41:16 GMT 40.204887 -0.202873 30,975 197 398 64
2022-07-03 20:41:04 GMT 40.204887 -0.202873 30,975 197 398 64
2022-07-03 20:40:54 GMT 40.220398 -0.196716 31,025 198 393 -128
2022-07-03 20:40:49 GMT 40.230537 -0.192635 31,025 198 393 -128
2022-07-03 20:40:45 GMT 40.237656 -0.189819 31,075 197 386 -320
2022-07-03 20:40:34 GMT 40.256233 -0.182460 31,175 197 378 -960
2022-07-03 20:40:21 GMT 40.286499 -0.170532 31,600 197 377 -1984
2022-07-03 20:40:12 GMT 40.292313 -0.168274 31,650 197 377 -1984
2022-07-03 20:40:04 GMT 40.306229 -0.162720 32,100 197 379 -2048
2022-07-03 20:40:00 GMT 40.312408 -0.160278 32,125 198 379 -2048
2022-07-03 20:39:53 GMT 40.324432 -0.155494 32,375 197 381 -1920
2022-07-03 20:39:48 GMT 40.332321 -0.152405 33,075 197 385 -1920
2022-07-03 20:39:43 GMT 40.341190 -0.148877 32,675 197 383 -1856
2022-07-03 20:39:37 GMT 40.350876 -0.145069 33,075 197 385 -1920
2022-07-03 20:39:32 GMT 40.359146 -0.141785 33,025 197 385 -1920
2022-07-03 20:39:20 GMT 40.388863 -0.130088 33,575 197 389 -1920
2022-07-03 20:39:13 GMT 40.394119 -0.127991 33,650 197 390 -1856
2022-07-03 20:39:09 GMT 40.398605 -0.126221 33,750 197 391 -1792
2022-07-03 20:39:02 GMT 40.411469 -0.121216 33,950 197 393 -1856
2022-07-03 20:38:58 GMT 40.418655 -0.118408 34,075 197 394 -1856
2022-07-03 20:38:52 GMT 40.429504 -0.114136 34,275 197 396 -2112
2022-07-03 20:38:48 GMT 40.436298 -0.111486 34,400 197 397 -2048
2022-07-03 20:38:41 GMT 40.448730 -0.106628 34,625 197 397 -1536
2022-07-03 20:38:31 GMT 40.465439 -0.099976 34,800 197 397 -960
2022-07-03 20:38:19 GMT 40.494965 -0.088196 35,025 198 399 -192
2022-07-03 20:38:11 GMT 40.501831 -0.085449 35,050 198 400 0
2022-07-03 20:37:59 GMT 40.522465 -0.077154 35,025 196 401 64
2022-07-03 20:37:50 GMT 40.538620 -0.071349 35,025 195 403 64
2022-07-03 20:37:46 GMT 40.545696 -0.069102 35,025 189 407 64
2022-07-03 20:37:40 GMT 40.557194 -0.065793 35,025 192 405 64
2022-07-03 20:37:34 GMT 40.567902 -0.063047 35,025 191 405 64
2022-07-03 20:37:29 GMT 40.577454 -0.060913 35,025 189 406 64
2022-07-03 20:37:18 GMT 40.606911 -0.055993 35,025 187 407 64
2022-07-03 20:37:10 GMT 40.614166 -0.054993 35,000 187 409 0
2022-07-03 20:36:59 GMT 40.633633 -0.052185 35,000 187 409 64
2022-07-03 20:36:52 GMT 40.647308 -0.050232 35,000 187 410 0
2022-07-03 20:36:48 GMT 40.653419 -0.049314 35,000 187 410 0
2022-07-03 20:36:41 GMT 40.666763 -0.047424 35,000 187 411 0
2022-07-03 20:36:38 GMT 40.672318 -0.046629 35,000 187 411 0
2022-07-03 20:36:32 GMT 40.684422 -0.044944 35,000 187 411 -64
2022-07-03 20:36:27 GMT 40.694244 -0.043508 35,000 187 411 0
2022-07-03 20:36:21 GMT 40.704758 -0.042053 34,975 187 411 64
2022-07-03 20:36:17 GMT 40.712128 -0.041016 35,000 187 410 64
2022-07-03 20:36:11 GMT 40.724396 -0.039307 34,975 187 410 128
2022-07-03 20:36:07 GMT 40.732418 -0.038140 34,975 187 410 128
2022-07-03 20:36:01 GMT 40.743439 -0.036621 34,975 187 410 64
2022-07-03 20:35:57 GMT 40.751175 -0.035522 34,975 187 410 64
2022-07-03 20:35:48 GMT 40.769611 -0.032834 34,975 187 410 -64
2022-07-03 20:35:37 GMT 40.788940 -0.030029 34,975 187 409 -64
2022-07-03 20:35:31 GMT 40.802124 -0.028137 35,000 187 409 0
2022-07-03 20:35:27 GMT 40.807644 -0.027341 35,000 187 409 -64
2022-07-03 20:35:19 GMT 40.822170 -0.025219 35,000 187 410 -64
2022-07-03 20:35:17 GMT 40.826500 -0.024594 35,000 187 410 -128
2022-07-03 20:35:10 GMT 40.839981 -0.022583 35,025 187 410 -192
2022-07-03 20:35:06 GMT 40.847168 -0.021545 35,025 187 410 -192
2022-07-03 20:35:02 GMT 40.855362 -0.020350 35,050 187 410 -128
2022-07-03 20:35:00 GMT 40.858292 -0.019897 35,050 187 410 -128
2022-07-03 20:34:56 GMT 40.865929 -0.018789 35,050 187 409 -64
2022-07-03 20:34:51 GMT 40.874680 -0.017517 35,050 187 409 0
2022-07-03 20:34:49 GMT 40.877987 -0.017041 35,050 187 409 0
2022-07-03 20:34:45 GMT 40.885803 -0.015869 35,050 187 410 0
2022-07-03 20:34:39 GMT 40.897659 -0.014221 35,050 187 410 0
2022-07-03 20:34:36 GMT 40.904194 -0.013296 35,050 187 410 0
2022-07-03 20:34:30 GMT 40.916439 -0.011548 35,050 187 411 0
2022-07-03 20:34:23 GMT 40.928726 -0.009800 35,050 187 411 0
2022-07-03 20:34:19 GMT 40.935471 -0.008789 35,050 187 412 0
2022-07-03 20:34:15 GMT 40.942108 -0.007874 35,050 187 412 0
2022-07-03 20:34:08 GMT 40.956116 -0.005859 35,050 187 412 0
2022-07-03 20:34:05 GMT 40.961735 -0.005056 35,050 187 413 0
2022-07-03 20:33:59 GMT 40.973602 -0.003357 35,050 187 413 64
2022-07-03 20:33:55 GMT 40.981285 -0.002247 35,025 187 413 64
2022-07-03 20:33:48 GMT 40.993668 -0.000499 35,025 187 414 64
2022-07-03 20:33:44 GMT 41.001488 0.000687 35,025 187 414 64
2022-07-03 20:33:38 GMT 41.013199 0.002319 35,025 187 414 64
2022-07-03 20:33:35 GMT 41.019287 0.003235 35,025 187 414 0
2022-07-03 20:33:28 GMT 41.032837 0.005188 35,000 187 415 0
2022-07-03 20:33:24 GMT 41.040733 0.006305 35,025 187 415 0
2022-07-03 20:33:17 GMT 41.052742 0.008052 35,025 187 415 0
2022-07-03 20:33:14 GMT 41.059708 0.009094 35,025 187 414 64
2022-07-03 20:33:06 GMT 41.073624 0.011108 35,000 187 414 0
2022-07-03 20:33:03 GMT 41.079529 0.011963 35,000 187 414 0
2022-07-03 20:32:57 GMT 41.090683 0.013608 35,000 187 414 0
2022-07-03 20:32:54 GMT 41.098984 0.014832 35,000 187 414 0
2022-07-03 20:32:47 GMT 41.109650 0.016357 35,000 187 414 0
2022-07-03 20:32:43 GMT 41.118523 0.017666 35,000 187 414 0
2022-07-03 20:32:36 GMT 41.131649 0.019601 35,000 187 414 0
2022-07-03 20:32:33 GMT 41.138580 0.020630 35,000 187 413 0
2022-07-03 20:32:28 GMT 41.149429 0.022217 35,000 187 413 64
2022-07-03 20:32:22 GMT 41.158649 0.023533 35,000 187 413 64
2022-07-03 20:32:18 GMT 41.165260 0.024532 35,000 187 413 64
2022-07-03 20:32:12 GMT 41.177830 0.026342 34,975 187 412 64
2022-07-03 20:32:08 GMT 41.184441 0.027341 34,975 187 412 64
2022-07-03 20:32:05 GMT 41.191177 0.028320 34,975 187 412 64
2022-07-03 20:32:01 GMT 41.198547 0.029358 34,975 187 412 64
2022-07-03 20:31:57 GMT 41.205963 0.030457 34,975 187 411 64
2022-07-03 20:31:52 GMT 41.216721 0.032043 34,975 187 411 64
2022-07-03 20:31:48 GMT 41.223907 0.033081 34,975 187 411 128
2022-07-03 20:31:41 GMT 41.236771 0.034912 34,950 187 410 64
2022-07-03 20:31:36 GMT 41.245422 0.036194 34,950 187 411 64
2022-07-03 20:31:33 GMT 41.252609 0.037231 34,950 187 410 0
2022-07-03 20:31:30 GMT 41.256130 0.037766 34,950 187 410 0
2022-07-03 20:31:27 GMT 41.264145 0.038940 34,950 187 410 0
2022-07-03 20:31:20 GMT 41.275452 0.040588 34,950 187 410 -64
2022-07-03 20:31:16 GMT 41.283371 0.041809 34,950 187 409 -64
2022-07-03 20:31:10 GMT 41.300125 0.044312 34,975 187 408 -128
2022-07-03 20:31:07 GMT 41.300125 0.044312 34,975 187 409 -128
2022-07-03 20:31:02 GMT 41.309620 0.045693 34,975 187 408 -64
2022-07-03 20:30:59 GMT 41.315063 0.046505 34,975 187 408 -64
2022-07-03 20:30:56 GMT 41.319489 0.047180 34,975 187 408 -64
2022-07-03 20:30:50 GMT 41.333637 0.049251 35,000 187 408 -64
2022-07-03 20:30:45 GMT 41.340759 0.050312 35,000 187 408 -64
2022-07-03 20:30:39 GMT 41.352310 0.052002 35,025 187 408 -192
2022-07-03 20:30:35 GMT 41.360081 0.053184 35,025 187 408 -128
2022-07-03 20:30:29 GMT 41.371994 0.054871 35,050 187 408 -192
2022-07-03 20:30:24 GMT 41.378769 0.055908 35,050 187 408 -128
2022-07-03 20:30:18 GMT 41.391411 0.057742 35,050 187 408 -64
2022-07-03 20:30:15 GMT 41.397720 0.058677 35,050 187 408 -128
2022-07-03 20:30:08 GMT 41.411892 0.060744 35,050 187 408 0
2022-07-03 20:30:04 GMT 41.417587 0.061548 35,050 187 408 0
2022-07-03 20:29:58 GMT 41.429722 0.063363 35,050 187 409 64
2022-07-03 20:29:55 GMT 41.435356 0.064129 35,050 187 409 128
2022-07-03 20:29:48 GMT 41.450317 0.066355 35,025 187 410 64
2022-07-03 20:29:45 GMT 41.454254 0.066917 35,000 187 410 128
2022-07-03 20:29:38 GMT 41.473343 0.069726 35,000 187 411 64
2022-07-03 20:29:35 GMT 41.473343 0.069726 35,000 187 411 64
2022-07-03 20:29:27 GMT 41.488632 0.071973 35,000 187 411 64
2022-07-03 20:29:24 GMT 41.494125 0.072784 34,975 187 411 64
2022-07-03 20:29:20 GMT 41.502411 0.074033 34,975 187 410 128
2022-07-03 20:29:17 GMT 41.508270 0.074907 34,975 187 410 64
2022-07-03 20:29:12 GMT 41.515823 0.076030 34,975 187 410 0
2022-07-03 20:29:07 GMT 41.525848 0.077466 34,975 187 410 -64
2022-07-03 20:29:04 GMT 41.532074 0.078402 34,975 187 410 -64
2022-07-03 20:28:58 GMT 41.542706 0.079970 34,975 187 410 0
2022-07-03 20:28:55 GMT 41.547405 0.080673 34,975 187 409 0
2022-07-03 20:28:52 GMT 41.553726 0.081648 34,975 187 409 0
2022-07-03 20:28:49 GMT 41.560020 0.082589 34,975 187 409 0
2022-07-03 20:28:46 GMT 41.567005 0.083611 34,975 187 409 0
2022-07-03 20:28:43 GMT 41.570778 0.084122 34,975 187 409 0
2022-07-03 20:28:38 GMT 41.579433 0.085463 34,975 187 409 64
2022-07-03 20:28:35 GMT 41.586185 0.086422 34,975 187 409 0
2022-07-03 20:28:32 GMT 41.590805 0.087142 34,975 187 409 0
2022-07-03 20:28:27 GMT 41.602661 0.088889 34,975 187 409 64
2022-07-03 20:28:23 GMT 41.608765 0.089743 34,975 187 409 64
2022-07-03 20:28:16 GMT 41.621429 0.091636 34,975 187 409 0
2022-07-03 20:28:13 GMT 41.627472 0.092572 34,975 187 409 -64
2022-07-03 20:28:07 GMT 41.637718 0.094086 34,975 187 409 0
2022-07-03 20:28:04 GMT 41.644180 0.095007 34,975 187 408 -64
2022-07-03 20:28:00 GMT 41.652569 0.096258 34,975 187 408 -64
2022-07-03 20:27:56 GMT 41.659317 0.097280 34,975 187 408 -64
2022-07-03 20:27:52 GMT 41.665882 0.098302 34,975 187 408 0
2022-07-03 20:27:48 GMT 41.676216 0.099835 35,000 187 408 0
2022-07-03 20:27:45 GMT 41.679054 0.100218 35,000 187 408 -64
2022-07-03 20:27:42 GMT 41.684418 0.101062 35,000 187 409 -64
2022-07-03 20:27:38 GMT 41.693069 0.102310 35,000 187 409 -64
2022-07-03 20:27:35 GMT 41.697922 0.103059 35,000 187 409 0
2022-07-03 20:27:32 GMT 41.704426 0.104051 35,000 187 409 0
2022-07-03 20:27:25 GMT 41.716808 0.105903 35,000 187 409 0
2022-07-03 20:27:22 GMT 41.722549 0.106742 35,000 187 409 0
2022-07-03 20:27:15 GMT 41.742229 0.109672 35,000 187 410 0
2022-07-03 20:27:12 GMT 41.742229 0.109672 35,000 187 409 0
2022-07-03 20:27:07 GMT 41.752796 0.111269 35,000 187 410 0
2022-07-03 20:27:04 GMT 41.757313 0.111971 35,000 187 410 0
2022-07-03 20:27:02 GMT 41.760525 0.112418 35,000 187 410 0
2022-07-03 20:26:55 GMT 41.774551 0.114545 35,000 187 410 0
2022-07-03 20:26:51 GMT 41.782028 0.115676 35,000 187 410 0
2022-07-03 20:26:45 GMT 41.794273 0.117464 35,000 187 410 0
2022-07-03 20:26:41 GMT 41.800781 0.118478 35,000 187 410 0
2022-07-03 20:26:36 GMT 41.812382 0.120211 35,000 187 410 -64
2022-07-03 20:26:31 GMT 41.819550 0.121297 35,000 187 410 -64
2022-07-03 20:26:25 GMT 41.830765 0.122972 35,000 187 410 0
2022-07-03 20:26:22 GMT 41.836544 0.123852 35,000 187 410 64
2022-07-03 20:26:14 GMT 41.851547 0.126031 35,000 187 411 64
2022-07-03 20:26:11 GMT 41.857304 0.126918 35,000 187 411 0
2022-07-03 20:26:02 GMT 41.876678 0.129776 35,000 187 412 64
2022-07-03 20:25:59 GMT 41.878601 0.130088 35,000 187 412 64
2022-07-03 20:25:55 GMT 41.887192 0.131325 35,000 187 412 64
2022-07-03 20:25:52 GMT 41.892975 0.132210 34,975 187 411 0
2022-07-03 20:25:50 GMT 41.897434 0.132858 34,975 187 411 64
2022-07-03 20:25:45 GMT 41.907166 0.134333 34,975 187 411 0
2022-07-03 20:25:43 GMT 41.910965 0.134895 34,975 187 411 0
2022-07-03 20:25:39 GMT 41.917450 0.135860 34,975 187 411 0
2022-07-03 20:25:35 GMT 41.924850 0.137010 35,000 187 411 -64
2022-07-03 20:25:33 GMT 41.929367 0.137712 35,000 187 409 -128
2022-07-03 20:25:30 GMT 41.935188 0.138543 35,000 187 409 -128
2022-07-03 20:25:27 GMT 41.940075 0.139309 35,025 187 408 -128
2022-07-03 20:25:22 GMT 41.949104 0.140651 35,050 187 406 -64
2022-07-03 20:25:20 GMT 41.953125 0.141262 35,050 187 406 -64
2022-07-03 20:25:13 GMT 41.965393 0.143134 35,075 187 405 -448
2022-07-03 20:25:10 GMT 41.972195 0.144164 35,075 187 405 -640
2022-07-03 20:25:02 GMT 41.986721 0.146335 35,200 187 405 -1024
2022-07-03 20:24:59 GMT 41.991486 0.147067 35,250 187 405 -1024
2022-07-03 20:24:52 GMT 42.005081 0.149189 35,400 187 404 -896
2022-07-03 20:24:48 GMT 42.012230 0.150296 35,425 187 404 -768
2022-07-03 20:24:46 GMT 42.015957 0.150870 35,450 187 403 -768
2022-07-03 20:24:42 GMT 42.024399 0.152248 35,500 187 403 -832
2022-07-03 20:24:38 GMT 42.031082 0.153247 35,550 187 403 -832
2022-07-03 20:24:36 GMT 42.034485 0.153745 35,575 186 403 -896
2022-07-03 20:24:32 GMT 42.042572 0.154870 35,650 185 403 -960
2022-07-03 20:24:30 GMT 42.046539 0.155342 35,675 185 404 -1024
2022-07-03 20:24:27 GMT 42.051193 0.155789 35,700 184 403 -1024
2022-07-03 20:24:21 GMT 42.062897 0.156680 35,825 183 405 -1088
2022-07-03 20:24:17 GMT 42.069538 0.157066 35,875 182 406 -1152
2022-07-03 20:24:11 GMT 42.081070 0.157304 36,000 181 406 -1088
2022-07-03 20:24:08 GMT 42.086994 0.157322 36,050 179 406 -1024
2022-07-03 20:24:01 GMT 42.100494 0.157194 36,200 179 404 -960
2022-07-03 20:23:57 GMT 42.107666 0.157117 36,250 179 403 -832
2022-07-03 20:23:51 GMT 42.119675 0.157066 36,325 179 401 -832
2022-07-03 20:23:46 GMT 42.128193 0.156938 36,375 179 400 -832
2022-07-03 20:23:41 GMT 42.138203 0.156875 36,475 179 400 -896
2022-07-03 20:23:37 GMT 42.144745 0.156805 36,525 179 400 -896
2022-07-03 20:23:34 GMT 42.150398 0.156747 36,575 179 401 -960
2022-07-03 20:23:30 GMT 42.157612 0.156683 36,625 179 401 -1024
2022-07-03 20:23:27 GMT 42.164017 0.156555 36,675 179 401 -1088
2022-07-03 20:23:24 GMT 42.167622 0.156555 36,725 179 402 -1088
2022-07-03 20:23:21 GMT 42.176189 0.156491 36,800 179 402 -1088
2022-07-03 20:23:15 GMT 42.185497 0.156364 36,875 179 403 -832
2022-07-03 20:23:11 GMT 42.194065 0.156300 36,950 179 403 -640
2022-07-03 20:23:09 GMT 42.196857 0.156236 36,975 179 403 -448
2022-07-03 20:23:06 GMT 42.202698 0.156243 36,975 179 403 -320
2022-07-03 20:23:01 GMT 42.212826 0.156172 37,000 179 403 0
2022-07-03 20:22:59 GMT 42.215618 0.156108 37,000 179 402 0
2022-07-03 20:22:55 GMT 42.222881 0.156044 37,000 179 402 64
2022-07-03 20:22:51 GMT 42.231258 0.155980 37,000 179 402 -64
2022-07-03 20:22:49 GMT 42.235168 0.155980 37,000 179 402 -64
2022-07-03 20:22:45 GMT 42.240894 0.155916 37,000 179 402 -64
2022-07-03 20:22:41 GMT 42.250305 0.155806 37,000 179 402 -128
2022-07-03 20:22:39 GMT 42.253830 0.155806 37,025 179 402 -64
2022-07-03 20:22:35 GMT 42.259331 0.155725 37,025 179 402 -64
2022-07-03 20:22:31 GMT 42.268845 0.155619 37,025 179 401 0
2022-07-03 20:22:28 GMT 42.272457 0.155597 37,025 179 401 0
2022-07-03 20:22:24 GMT 42.280563 0.155494 37,025 179 401 64
2022-07-03 20:22:20 GMT 42.287384 0.155369 37,000 179 400 64
2022-07-03 20:22:18 GMT 42.291962 0.155342 37,000 179 401 64
2022-07-03 20:22:15 GMT 42.298061 0.155278 37,000 179 401 64
2022-07-03 20:22:12 GMT 42.302345 0.155214 37,000 179 401 64
2022-07-03 20:22:10 GMT 42.306210 0.155150 37,000 179 401 64
2022-07-03 20:22:08 GMT 42.309998 0.155119 37,000 179 401 64
2022-07-03 20:22:04 GMT 42.316681 0.155057 37,000 179 401 0
2022-07-03 20:21:58 GMT 42.335163 0.154894 37,000 179 402 0
2022-07-03 20:21:55 GMT 42.335163 0.154894 37,000 179 401 0
2022-07-03 20:21:52 GMT 42.339890 0.154870 37,000 179 401 0
2022-07-03 20:21:49 GMT 42.347034 0.154831 37,000 179 401 0
2022-07-03 20:21:45 GMT 42.354252 0.154767 37,000 179 401 0
2022-07-03 20:21:40 GMT 42.362396 0.154703 37,000 179 401 0
2022-07-03 20:21:38 GMT 42.368168 0.154639 37,000 179 400 0
2022-07-03 20:21:33 GMT 42.375385 0.154639 37,000 179 400 -64
2022-07-03 20:21:30 GMT 42.381111 0.154575 37,000 179 400 -64
2022-07-03 20:21:27 GMT 42.386650 0.154575 37,000 179 400 0
2022-07-03 20:21:24 GMT 42.392189 0.154511 37,000 179 400 0
2022-07-03 20:21:20 GMT 42.399406 0.154447 37,000 179 399 0
2022-07-03 20:21:17 GMT 42.404900 0.154447 37,000 179 399 0
2022-07-03 20:21:13 GMT 42.412300 0.154383 37,000 179 399 -64
2022-07-03 20:21:10 GMT 42.417938 0.154370 37,000 179 399 0
2022-07-03 20:21:08 GMT 42.422699 0.154308 37,000 179 399 -64
2022-07-03 20:21:03 GMT 42.436600 0.154256 37,000 179 399 0
2022-07-03 20:21:00 GMT 42.436600 0.154256 37,000 179 398 0
2022-07-03 20:20:57 GMT 42.443161 0.154183 37,000 179 398 0
2022-07-03 20:20:50 GMT 42.454849 0.154128 37,000 179 398 0
2022-07-03 20:20:46 GMT 42.461460 0.154064 37,000 179 398 0
2022-07-03 20:20:43 GMT 42.468750 0.154058 37,000 179 398 0
2022-07-03 20:20:40 GMT 42.473511 0.153996 37,000 179 398 -64
2022-07-03 20:20:37 GMT 42.478317 0.153996 37,000 179 398 -64
2022-07-03 20:20:32 GMT 42.487576 0.153872 37,025 179 398 -64
2022-07-03 20:20:29 GMT 42.492928 0.153872 37,025 179 398 -64
2022-07-03 20:20:26 GMT 42.499283 0.153809 37,025 179 398 -64
2022-07-03 20:20:19 GMT 42.511185 0.153684 37,025 179 397 0
2022-07-03 20:20:16 GMT 42.519287 0.153621 37,025 179 397 0
2022-07-03 20:20:10 GMT 42.526913 0.153553 37,025 179 397 0
2022-07-03 20:20:08 GMT 42.533020 0.153496 37,025 179 397 -64
2022-07-03 20:20:05 GMT 42.537231 0.153434 37,025 179 397 -64
2022-07-03 20:19:59 GMT 42.548325 0.153361 37,025 179 397 -64
2022-07-03 20:19:55 GMT 42.556137 0.153247 37,025 179 397 -64
2022-07-03 20:19:49 GMT 42.566940 0.153122 37,050 179 396 -64
2022-07-03 20:19:46 GMT 42.572433 0.153060 37,050 179 396 0
2022-07-03 20:19:44 GMT 42.575180 0.153060 37,050 179 396 0
2022-07-03 20:19:41 GMT 42.582138 0.152997 37,050 179 396 0
2022-07-03 20:19:38 GMT 42.585896 0.152914 37,025 179 396 64
2022-07-03 20:19:35 GMT 42.593948 0.152850 37,050 179 396 64
2022-07-03 20:19:29 GMT 42.604111 0.152685 37,025 179 395 128
2022-07-03 20:19:26 GMT 42.607727 0.152685 37,025 179 395 64
2022-07-03 20:19:23 GMT 42.613037 0.152623 37,025 179 395 64
2022-07-03 20:19:19 GMT 42.622375 0.152498 37,000 179 396 128
2022-07-03 20:19:16 GMT 42.625931 0.152467 37,000 179 396 64
2022-07-03 20:19:13 GMT 42.631531 0.152373 37,000 179 396 64
2022-07-03 20:19:09 GMT 42.640503 0.152310 37,000 179 396 0
2022-07-03 20:19:07 GMT 42.644085 0.152276 37,000 179 396 0
2022-07-03 20:19:03 GMT 42.649715 0.152212 37,000 179 396 0
2022-07-03 20:18:59 GMT 42.658890 0.152148 37,000 179 396 0
2022-07-03 20:18:54 GMT 42.668385 0.152020 37,000 179 395 0
2022-07-03 20:18:48 GMT 42.677444 0.151936 37,000 179 395 0
2022-07-03 20:18:46 GMT 42.682304 0.151892 37,000 179 395 -64
2022-07-03 20:18:43 GMT 42.687469 0.151874 37,000 179 395 -64
2022-07-03 20:18:38 GMT 42.695618 0.151828 37,000 179 395 0
2022-07-03 20:18:33 GMT 42.705814 0.151701 37,000 179 394 0
2022-07-03 20:18:28 GMT 42.714191 0.151637 37,000 179 394 0
2022-07-03 20:18:25 GMT 42.721642 0.151573 37,000 179 394 0
2022-07-03 20:18:22 GMT 42.725922 0.151561 37,000 179 393 0
2022-07-03 20:18:17 GMT 42.735092 0.151509 37,000 179 393 0
2022-07-03 20:18:13 GMT 42.743362 0.151437 37,000 179 393 -64
2022-07-03 20:18:08 GMT 42.751293 0.151381 37,025 179 393 -64
2022-07-03 20:18:04 GMT 42.758789 0.151312 37,025 179 392 -64
2022-07-03 20:18:01 GMT 42.763260 0.151254 37,025 179 392 -64
2022-07-03 20:17:58 GMT 42.770847 0.151190 37,025 179 391 -64
2022-07-03 20:17:55 GMT 42.775269 0.151187 37,025 179 391 -64
2022-07-03 20:17:51 GMT 42.781631 0.151124 37,025 179 391 -64
2022-07-03 20:17:48 GMT 42.793797 0.151062 37,025 179 391 0
2022-07-03 20:17:45 GMT 42.798870 0.150998 37,025 179 391 0
2022-07-03 20:17:41 GMT 42.806271 0.150934 37,025 179 391 0
2022-07-03 20:17:37 GMT 42.806271 0.150934 37,025 179 391 0
2022-07-03 20:17:34 GMT 42.812851 0.150870 37,025 179 391 0
2022-07-03 20:17:32 GMT 42.818562 0.150866 37,025 179 391 -64
2022-07-03 20:17:28 GMT 42.824066 0.150807 37,025 179 391 -64
2022-07-03 20:17:22 GMT 42.834808 0.150670 37,050 179 391 -64
2022-07-03 20:17:18 GMT 42.841839 0.150604 37,050 179 391 0
2022-07-03 20:17:15 GMT 42.847286 0.150539 37,050 179 390 0
2022-07-03 20:17:12 GMT 42.860001 0.150423 37,025 179 390 0
2022-07-03 20:17:08 GMT 42.860001 0.150423 37,025 179 390 64
2022-07-03 20:17:06 GMT 42.868103 0.150359 37,025 179 390 64
2022-07-03 20:17:03 GMT 42.868103 0.150359 37,025 179 390 64
2022-07-03 20:16:59 GMT 42.875031 0.150277 37,025 179 390 0
2022-07-03 20:16:56 GMT 42.881607 0.150232 37,025 179 390 0
2022-07-03 20:16:51 GMT 42.891541 0.150168 37,025 179 390 64
2022-07-03 20:16:46 GMT 42.900879 0.150040 37,025 179 390 64
2022-07-03 20:16:43 GMT 42.904404 0.150016 37,025 179 390 64
2022-07-03 20:16:40 GMT 42.914566 0.149912 37,025 179 389 64
2022-07-03 20:16:37 GMT 42.914566 0.149912 37,025 179 389 64
2022-07-03 20:16:34 GMT 42.920700 0.149848 37,025 179 389 64
2022-07-03 20:16:31 GMT 42.927704 0.149785 37,025 179 389 0
2022-07-03 20:16:27 GMT 42.933220 0.149754 37,025 179 389 0
2022-07-03 20:16:24 GMT 42.939606 0.149721 37,025 179 389 0
2022-07-03 20:16:22 GMT 42.942204 0.149689 37,025 179 389 0
2022-07-03 20:16:19 GMT 42.947044 0.149623 37,025 179 389 0
2022-07-03 20:16:16 GMT 42.952633 0.149623 37,025 179 389 0
2022-07-03 20:16:13 GMT 42.957661 0.149558 37,025 179 388 0
2022-07-03 20:16:10 GMT 42.965652 0.149465 37,025 179 388 0
2022-07-03 20:16:07 GMT 42.968784 0.149493 37,025 179 387 64
2022-07-03 20:16:04 GMT 42.974884 0.149427 37,000 179 387 64
2022-07-03 20:15:59 GMT 42.984238 0.149337 37,000 179 387 64
2022-07-03 20:15:56 GMT 42.988174 0.149274 37,000 179 387 64
2022-07-03 20:15:54 GMT 42.998566 0.149146 37,000 179 386 0
2022-07-03 20:15:50 GMT 42.998566 0.149146 37,000 179 386 0
2022-07-03 20:15:47 GMT 43.005424 0.149100 37,000 179 386 0
2022-07-03 20:15:43 GMT 43.014404 0.149018 37,000 179 386 0
2022-07-03 20:15:40 GMT 43.016270 0.148969 37,000 179 385 64
2022-07-03 20:15:36 GMT 43.023766 0.148904 37,000 179 385 64
2022-07-03 20:15:33 GMT 43.029556 0.148826 37,000 179 385 64
2022-07-03 20:15:27 GMT 43.040478 0.148708 37,000 179 384 64
2022-07-03 20:15:20 GMT 43.053417 0.148577 37,000 179 384 0
2022-07-03 20:15:17 GMT 43.058670 0.148507 37,000 179 384 0
2022-07-03 20:15:12 GMT 43.067551 0.148379 36,975 179 383 0
2022-07-03 20:15:07 GMT 43.077118 0.148252 36,975 179 383 64
2022-07-03 20:15:01 GMT 43.085266 0.148188 36,975 179 383 64
2022-07-03 20:14:59 GMT 43.090576 0.148124 36,975 179 383 64
2022-07-03 20:14:56 GMT 43.095703 0.148060 36,975 179 382 0
2022-07-03 20:14:50 GMT 43.106209 0.147923 36,975 179 382 64
2022-07-03 20:14:46 GMT 43.119102 0.147792 36,975 179 382 0
2022-07-03 20:14:40 GMT 43.122967 0.147727 36,975 179 382 64
2022-07-03 20:14:36 GMT 43.131252 0.147661 36,950 179 381 64
2022-07-03 20:14:30 GMT 43.141205 0.147549 36,950 179 380 0
2022-07-03 20:14:26 GMT 43.149811 0.147485 36,950 179 380 0
2022-07-03 20:14:19 GMT 43.161282 0.147335 36,950 179 380 0
2022-07-03 20:14:15 GMT 43.167423 0.147269 36,950 179 379 0
2022-07-03 20:14:12 GMT 43.180161 0.147102 36,950 179 379 0
2022-07-03 20:14:08 GMT 43.180161 0.147102 36,950 179 379 0
2022-07-03 20:14:05 GMT 43.185059 0.147038 36,950 179 379 0
2022-07-03 20:14:01 GMT 43.191120 0.147008 36,950 179 379 0
2022-07-03 20:13:58 GMT 43.196640 0.146910 36,950 179 379 0
2022-07-03 20:13:55 GMT 43.204247 0.146811 36,950 179 379 0
2022-07-03 20:13:52 GMT 43.210346 0.146746 36,950 179 379 -64
2022-07-03 20:13:47 GMT 43.216736 0.146655 36,950 179 379 0
2022-07-03 20:13:44 GMT 43.227711 0.146550 36,950 179 378 0
2022-07-03 20:13:40 GMT 43.227711 0.146550 36,950 179 378 0
2022-07-03 20:13:35 GMT 43.239670 0.146463 36,950 179 378 0
2022-07-03 20:13:32 GMT 43.242561 0.146419 36,950 179 378 0
2022-07-03 20:13:30 GMT 43.245255 0.146399 36,950 179 378 -64
2022-07-03 20:13:26 GMT 43.253632 0.146399 36,975 179 378 -64
2022-07-03 20:13:24 GMT 43.257362 0.146419 36,975 180 378 -64
2022-07-03 20:13:16 GMT 43.271942 0.146399 36,975 181 378 -64
2022-07-03 20:13:13 GMT 43.277206 0.146399 36,975 181 378 -64
2022-07-03 20:13:06 GMT 43.289246 0.146463 36,975 181 379 -64
2022-07-03 20:13:04 GMT 43.291950 0.146484 37,000 181 379 -64
2022-07-03 20:13:01 GMT 43.297989 0.146527 36,975 179 379 -64
2022-07-03 20:12:58 GMT 43.302284 0.146484 37,000 178 380 -64
2022-07-03 20:12:53 GMT 43.310387 0.146288 37,000 178 380 -64
2022-07-03 20:12:50 GMT 43.317490 0.145888 37,000 177 381 -64
2022-07-03 20:12:46 GMT 43.324356 0.145377 37,000 175 381 -64
2022-07-03 20:12:44 GMT 43.329437 0.144866 37,000 175 383 0
2022-07-03 20:12:39 GMT 43.334930 0.144227 37,000 173 384 0
2022-07-03 20:12:36 GMT 43.342346 0.143142 37,000 173 384 0
2022-07-03 20:12:33 GMT 43.346325 0.142495 37,000 172 386 0
2022-07-03 20:12:30 GMT 43.351818 0.141514 37,000 171 387 64
2022-07-03 20:12:25 GMT 43.360989 0.139683 37,000 170 387 0
2022-07-03 20:12:23 GMT 43.364529 0.138899 37,000 170 388 0
2022-07-03 20:12:20 GMT 43.382172 0.135040 37,000 170 389 0
2022-07-03 20:12:13 GMT 43.382172 0.135040 37,000 171 390 -64
2022-07-03 20:12:10 GMT 43.388409 0.133667 37,000 171 390 -64
2022-07-03 20:12:08 GMT 43.391247 0.133078 37,000 171 390 -64
2022-07-03 20:12:03 GMT 43.401306 0.130942 37,000 171 390 -64
2022-07-03 20:11:57 GMT 43.410847 0.128893 37,025 171 389 0
2022-07-03 20:11:54 GMT 43.414246 0.128174 37,025 170 389 64
2022-07-03 20:11:52 GMT 43.419846 0.126982 37,000 170 389 64
2022-07-03 20:11:47 GMT 43.427994 0.125193 37,000 170 389 -64
2022-07-03 20:11:45 GMT 43.432030 0.124316 37,000 170 389 64
2022-07-03 20:11:42 GMT 43.444748 0.121552 37,000 170 389 -64
2022-07-03 20:11:38 GMT 43.444748 0.121552 37,000 171 390 0
2022-07-03 20:11:32 GMT 43.454910 0.119317 37,000 170 391 -192
2022-07-03 20:11:29 GMT 43.460266 0.118167 37,025 170 391 -192
2022-07-03 20:11:26 GMT 43.465622 0.117017 37,025 170 391 -192
2022-07-03 20:11:24 GMT 43.469376 0.116187 37,050 170 392 -256
2022-07-03 20:11:21 GMT 43.475040 0.114899 37,050 170 391 -128
2022-07-03 20:11:18 GMT 43.485535 0.112610 37,050 170 392 -64
2022-07-03 20:11:15 GMT 43.490822 0.111433 37,050 170 392 0
2022-07-03 20:11:13 GMT 43.490822 0.111433 37,050 170 392 0
2022-07-03 20:11:09 GMT 43.496548 0.110190 37,050 170 393 0
2022-07-03 20:11:05 GMT 43.503204 0.108686 37,050 170 394 0
2022-07-03 20:11:02 GMT 43.510300 0.107117 37,050 170 394 0
2022-07-03 20:10:57 GMT 43.517532 0.105584 37,050 170 394 64
2022-07-03 20:10:54 GMT 43.524765 0.103987 37,050 170 394 64
2022-07-03 20:10:51 GMT 43.528252 0.103193 37,050 170 394 64
2022-07-03 20:10:47 GMT 43.534653 0.101815 37,050 170 395 -64
2022-07-03 20:10:45 GMT 43.539284 0.100773 37,050 170 395 -128
2022-07-03 20:10:41 GMT 43.545616 0.099400 37,050 170 397 -64
2022-07-03 20:10:38 GMT 43.552597 0.097855 37,050 170 397 -64
2022-07-03 20:10:35 GMT 43.557205 0.096850 37,050 170 397 0
2022-07-03 20:10:31 GMT 43.566330 0.094789 37,050 170 397 0
2022-07-03 20:10:27 GMT 43.572010 0.093515 37,050 170 397 0
2022-07-03 20:10:25 GMT 43.575394 0.092809 37,050 170 397 0
2022-07-03 20:10:23 GMT 43.582626 0.091148 37,050 170 398 64
2022-07-03 20:10:21 GMT 43.588257 0.089871 37,050 170 398 64
2022-07-03 20:10:18 GMT 43.588257 0.089871 37,025 170 398 64
2022-07-03 20:10:12 GMT 43.598602 0.087571 37,025 170 398 64
2022-07-03 20:10:09 GMT 43.603729 0.086422 37,025 170 398 128
2022-07-03 20:10:06 GMT 43.610825 0.084825 37,025 170 399 128
2022-07-03 20:10:04 GMT 43.613628 0.084229 37,025 170 399 128
2022-07-03 20:10:02 GMT 43.616512 0.083575 37,000 170 399 128
2022-07-03 20:10:00 GMT 43.622086 0.082334 37,000 170 399 64
2022-07-03 20:09:55 GMT 43.635090 0.079389 37,000 170 399 64
2022-07-03 20:09:52 GMT 43.635090 0.079389 37,000 170 399 64
2022-07-03 20:09:49 GMT 43.641281 0.078016 37,000 170 399 128
2022-07-03 20:09:46 GMT 43.644836 0.077224 37,000 170 399 64
2022-07-03 20:09:44 GMT 43.649368 0.076202 36,975 170 399 128
2022-07-03 20:09:42 GMT 43.653397 0.075307 36,975 170 399 128
2022-07-03 20:09:39 GMT 43.659668 0.073896 36,975 170 399 64
2022-07-03 20:09:35 GMT 43.665756 0.072497 36,975 170 399 64
2022-07-03 20:09:33 GMT 43.671120 0.071280 36,975 170 399 0
2022-07-03 20:09:30 GMT 43.675869 0.070234 36,975 170 399 -64
2022-07-03 20:09:27 GMT 43.681229 0.069048 36,975 170 399 0
2022-07-03 20:09:25 GMT 43.685623 0.068090 36,975 170 399 0
2022-07-03 20:09:22 GMT 43.690704 0.066940 36,975 170 399 -64
2022-07-03 20:09:20 GMT 43.694550 0.066110 36,975 170 398 0
2022-07-03 20:09:17 GMT 43.701893 0.064479 36,975 170 398 0
2022-07-03 20:09:13 GMT 43.707596 0.063171 36,975 170 397 64
2022-07-03 20:09:09 GMT 43.715298 0.061471 36,975 170 396 64
2022-07-03 20:09:05 GMT 43.721878 0.059978 36,975 170 396 64
2022-07-03 20:09:02 GMT 43.726471 0.058986 36,975 170 395 64
2022-07-03 20:08:58 GMT 43.733414 0.057423 36,950 170 395 64
2022-07-03 20:08:55 GMT 43.739548 0.056081 36,950 170 395 64
2022-07-03 20:08:52 GMT 43.744858 0.054866 36,950 170 395 0
2022-07-03 20:08:49 GMT 43.750305 0.053689 36,950 170 396 0
2022-07-03 20:08:46 GMT 43.755707 0.052447 36,950 170 396 0
2022-07-03 20:08:43 GMT 43.759232 0.051674 36,950 170 396 -64
2022-07-03 20:08:41 GMT 43.762848 0.050908 36,975 170 395 0
2022-07-03 20:08:39 GMT 43.768322 0.049635 36,975 170 396 -64
2022-07-03 20:08:35 GMT 43.775536 0.048065 36,975 170 396 0
2022-07-03 20:08:31 GMT 43.782612 0.046496 36,975 170 395 0
2022-07-03 20:08:29 GMT 43.788013 0.045319 36,975 170 394 0
2022-07-03 20:08:25 GMT 43.799000 0.042899 36,975 170 394 64
2022-07-03 20:08:22 GMT 43.799000 0.042899 36,975 170 394 64
2022-07-03 20:08:20 GMT 43.802631 0.042114 36,975 170 394 64
2022-07-03 20:08:15 GMT 43.810455 0.040368 36,950 170 395 0
2022-07-03 20:08:12 GMT 43.816177 0.039091 36,950 170 395 0
2022-07-03 20:08:07 GMT 43.824646 0.037239 36,950 170 395 0
2022-07-03 20:08:04 GMT 43.831028 0.035771 36,975 170 395 -128
2022-07-03 20:08:02 GMT 43.834396 0.035067 36,975 170 395 -128
2022-07-03 20:07:57 GMT 43.843128 0.033090 36,975 170 396 -128
2022-07-03 20:07:54 GMT 43.848816 0.031873 36,975 170 395 -128
2022-07-03 20:07:52 GMT 43.852303 0.031063 37,000 170 395 -64
2022-07-03 20:07:48 GMT 43.861706 0.028970 36,975 170 395 64
2022-07-03 20:07:44 GMT 43.867172 0.027721 36,975 170 395 64
2022-07-03 20:07:42 GMT 43.870689 0.026943 36,975 170 395 0
2022-07-03 20:07:37 GMT 43.879440 0.025039 36,975 170 395 -64
2022-07-03 20:07:34 GMT 43.885307 0.023738 36,975 170 396 -128
2022-07-03 20:07:31 GMT 43.890656 0.022548 37,000 170 396 -128
2022-07-03 20:07:28 GMT 43.896606 0.021270 37,000 171 396 -128
2022-07-03 20:07:25 GMT 43.906906 0.018971 37,000 171 396 -64
2022-07-03 20:07:22 GMT 43.906906 0.018971 37,000 171 396 -128
2022-07-03 20:07:18 GMT 43.914822 0.017199 37,000 170 397 0
2022-07-03 20:07:14 GMT 43.926228 0.014714 37,000 170 397 -64
2022-07-03 20:07:11 GMT 43.926228 0.014714 37,025 170 397 0
2022-07-03 20:07:09 GMT 43.930664 0.013733 37,000 170 397 0
2022-07-03 20:07:05 GMT 43.937347 0.012264 37,000 170 397 0
2022-07-03 20:07:02 GMT 43.949844 0.009517 37,025 170 399 0
2022-07-03 20:06:58 GMT 43.949844 0.009517 37,025 170 399 0
2022-07-03 20:06:55 GMT 43.957123 0.007920 37,025 170 399 0
2022-07-03 20:06:52 GMT 43.960117 0.007259 37,025 170 399 0
2022-07-03 20:06:48 GMT 43.968704 0.005302 37,025 170 399 0
2022-07-03 20:06:44 GMT 43.975800 0.003769 37,025 170 399 0
2022-07-03 20:06:41 GMT 43.980274 0.002747 37,025 170 399 0
2022-07-03 20:06:39 GMT 43.984974 0.001700 37,000 170 399 0
2022-07-03 20:06:33 GMT 44.009491 -0.003832 37,000 170 400 -64
2022-07-03 20:06:26 GMT 44.009491 -0.003832 37,025 170 400 -128
2022-07-03 20:06:23 GMT 44.013153 -0.004599 37,025 170 400 -64
2022-07-03 20:06:20 GMT 44.018539 -0.005820 37,025 170 400 -64
2022-07-03 20:06:18 GMT 44.022915 -0.006801 37,025 170 402 -64
2022-07-03 20:06:13 GMT 44.038277 -0.010267 37,050 170 401 -64
2022-07-03 20:06:10 GMT 44.051743 -0.013350 37,050 170 401 -64
2022-07-03 20:06:03 GMT 44.051743 -0.013350 37,050 170 401 64
2022-07-03 20:06:00 GMT 44.055454 -0.014191 37,050 170 401 64
2022-07-03 20:05:54 GMT 44.069138 -0.017246 37,050 170 402 -64
2022-07-03 20:05:51 GMT 44.071796 -0.017853 37,050 170 402 0
2022-07-03 20:05:48 GMT 44.078403 -0.019291 37,050 170 402 0
2022-07-03 20:05:45 GMT 44.084015 -0.020567 37,050 170 403 64
2022-07-03 20:05:42 GMT 44.090424 -0.022037 37,050 170 403 64
2022-07-03 20:05:39 GMT 44.104385 -0.025166 37,050 170 403 64
2022-07-03 20:05:35 GMT 44.104385 -0.025166 37,025 170 403 64
2022-07-03 20:05:32 GMT 44.105965 -0.025504 37,025 170 403 64
2022-07-03 20:05:30 GMT 44.110657 -0.026572 37,025 170 404 64
2022-07-03 20:05:27 GMT 44.117184 -0.027989 37,025 170 404 0
2022-07-03 20:05:22 GMT 44.124771 -0.029689 37,025 170 405 0
2022-07-03 20:05:19 GMT 44.131851 -0.031298 37,025 170 405 0
2022-07-03 20:05:16 GMT 44.136292 -0.032256 37,025 170 405 0
2022-07-03 20:05:12 GMT 44.144882 -0.034201 37,025 170 405 0
2022-07-03 20:05:10 GMT 44.147675 -0.034790 37,025 170 405 64
2022-07-03 20:05:07 GMT 44.152908 -0.035961 37,025 170 405 0
2022-07-03 20:05:04 GMT 44.160141 -0.037622 37,025 170 406 0
2022-07-03 20:05:00 GMT 44.166595 -0.039091 37,025 170 406 0
2022-07-03 20:04:57 GMT 44.171448 -0.040177 37,025 170 406 64
2022-07-03 20:04:54 GMT 44.178268 -0.041710 37,025 170 406 0
2022-07-03 20:04:50 GMT 44.185242 -0.043357 37,025 170 406 64
2022-07-03 20:04:47 GMT 44.190674 -0.044584 37,025 170 406 64
2022-07-03 20:04:42 GMT 44.199783 -0.046626 37,000 170 406 64
2022-07-03 20:04:38 GMT 44.208115 -0.048523 37,025 170 407 64
2022-07-03 20:04:32 GMT 44.218201 -0.050778 37,000 170 407 0
2022-07-03 20:04:27 GMT 44.228165 -0.053035 37,000 170 406 64
2022-07-03 20:04:22 GMT 44.236862 -0.054997 37,000 170 406 0
2022-07-03 20:04:19 GMT 44.242500 -0.056271 37,000 170 406 0
2022-07-03 20:04:15 GMT 44.249763 -0.057879 37,000 170 406 64
2022-07-03 20:04:12 GMT 44.255219 -0.059117 37,000 170 406 0
2022-07-03 20:04:09 GMT 44.261448 -0.060492 37,000 170 406 0
2022-07-03 20:04:05 GMT 44.267258 -0.061798 37,000 170 406 0
2022-07-03 20:04:02 GMT 44.274124 -0.063368 37,000 170 406 0
2022-07-03 20:03:57 GMT 44.283188 -0.065460 37,000 170 406 0
2022-07-03 20:03:54 GMT 44.287994 -0.066507 37,000 170 406 0
2022-07-03 20:03:51 GMT 44.293663 -0.067794 37,000 170 406 -64
2022-07-03 20:03:47 GMT 44.302181 -0.069736 37,000 170 406 -64
2022-07-03 20:03:44 GMT 44.306419 -0.070674 37,000 170 406 -64
2022-07-03 20:03:41 GMT 44.311630 -0.071880 37,000 170 405 -64
2022-07-03 20:03:36 GMT 44.321407 -0.074091 37,000 170 405 -64
2022-07-03 20:03:31 GMT 44.330566 -0.076120 37,025 170 405 0
2022-07-03 20:03:27 GMT 44.339333 -0.078110 37,025 170 404 64
2022-07-03 20:03:20 GMT 44.350967 -0.080723 37,000 170 405 64
2022-07-03 20:03:16 GMT 44.358742 -0.082464 37,000 170 405 64
2022-07-03 20:03:10 GMT 44.376892 -0.086517 37,000 170 405 0
2022-07-03 20:03:07 GMT 44.376892 -0.086517 37,000 170 405 64
2022-07-03 20:03:04 GMT 44.381516 -0.087564 37,000 170 405 64
2022-07-03 20:03:01 GMT 44.387699 -0.088962 37,000 170 405 0
2022-07-03 20:02:56 GMT 44.395752 -0.090768 37,000 170 405 0
2022-07-03 20:02:53 GMT 44.408112 -0.093580 37,000 170 405 0
2022-07-03 20:02:49 GMT 44.408112 -0.093580 37,000 170 405 -64
2022-07-03 20:02:46 GMT 44.414654 -0.095059 37,025 170 405 -64
2022-07-03 20:02:43 GMT 44.419739 -0.096196 37,000 170 405 -64
2022-07-03 20:02:40 GMT 44.425545 -0.097537 37,025 170 405 0
2022-07-03 20:02:36 GMT 44.433243 -0.099335 37,000 170 405 -64
2022-07-03 20:02:33 GMT 44.438301 -0.100552 37,025 170 405 -64
2022-07-03 20:02:29 GMT 44.446335 -0.102408 37,025 170 405 0
2022-07-03 20:02:26 GMT 44.451801 -0.103700 37,000 170 405 0
2022-07-03 20:02:22 GMT 44.457642 -0.105089 37,000 170 406 0
2022-07-03 20:02:19 GMT 44.464790 -0.106782 37,000 170 407 0
2022-07-03 20:02:16 GMT 44.470413 -0.108098 37,000 170 407 0
2022-07-03 20:02:10 GMT 44.480755 -0.110600 37,000 170 408 0
2022-07-03 20:02:07 GMT 44.496399 -0.114352 37,000 170 409 0
2022-07-03 20:02:03 GMT 44.496399 -0.114352 37,000 170 409 0
2022-07-03 20:01:58 GMT 44.502914 -0.115892 37,000 170 410 0
2022-07-03 20:01:55 GMT 44.508736 -0.117299 37,000 170 410 0
2022-07-03 20:01:51 GMT 44.516876 -0.119215 37,000 170 410 0
2022-07-03 20:01:48 GMT 44.521729 -0.120392 37,000 170 410 0
2022-07-03 20:01:45 GMT 44.526581 -0.121504 37,000 170 409 0
2022-07-03 20:01:39 GMT 44.540855 -0.124936 37,000 170 407 0
2022-07-03 20:01:36 GMT 44.546173 -0.126212 37,000 170 407 0
2022-07-03 20:01:31 GMT 44.553658 -0.127951 37,000 170 406 0
2022-07-03 20:01:28 GMT 44.559311 -0.129351 37,000 171 403 0
2022-07-03 20:01:25 GMT 44.564896 -0.130659 37,000 170 405 64
2022-07-03 20:01:22 GMT 44.571533 -0.132163 37,000 170 405 0
2022-07-03 20:01:18 GMT 44.578217 -0.133732 37,000 171 403 0
2022-07-03 20:01:15 GMT 44.583450 -0.134917 37,000 170 405 0
2022-07-03 20:01:09 GMT 44.594788 -0.137394 37,000 171 402 0
2022-07-03 20:01:05 GMT 44.601974 -0.138964 37,000 171 402 0
2022-07-03 20:01:01 GMT 44.609985 -0.140612 37,000 171 401 0
2022-07-03 20:00:58 GMT 44.615852 -0.141817 36,975 171 399 128
2022-07-03 20:00:54 GMT 44.622044 -0.143023 37,000 171 399 128
2022-07-03 20:00:47 GMT 44.636169 -0.145830 36,975 171 398 256
2022-07-03 20:00:44 GMT 44.640617 -0.146842 36,975 169 400 64
2022-07-03 20:00:41 GMT 44.646332 -0.148446 36,950 167 400 -64
2022-07-03 20:00:38 GMT 44.651138 -0.150057 36,950 162 404 -64
2022-07-03 20:00:35 GMT 44.656864 -0.152402 36,950 161 406 -64
2022-07-03 20:00:31 GMT 44.663315 -0.155640 36,950 158 408 -128
2022-07-03 20:00:27 GMT 44.669712 -0.159369 36,975 154 411 -128
2022-07-03 20:00:24 GMT 44.675205 -0.163053 36,975 153 413 -128
2022-07-03 20:00:21 GMT 44.681816 -0.167809 36,975 151 414 0
2022-07-03 20:00:18 GMT 44.686798 -0.171596 36,975 151 414 0
2022-07-03 20:00:14 GMT 44.692150 -0.175580 36,975 151 415 -64
2022-07-03 20:00:11 GMT 44.698654 -0.180424 36,975 151 415 0
2022-07-03 20:00:07 GMT 44.703789 -0.184289 36,975 151 415 0
2022-07-03 20:00:04 GMT 44.710648 -0.189449 36,975 151 416 -64
2022-07-03 20:00:00 GMT 44.715729 -0.193307 36,975 151 417 -64
2022-07-03 19:59:57 GMT 44.721573 -0.197687 37,000 151 417 -64
2022-07-03 19:59:54 GMT 44.726505 -0.201438 37,000 151 418 0
2022-07-03 19:59:51 GMT 44.732464 -0.205927 37,000 151 418 0
2022-07-03 19:59:47 GMT 44.738663 -0.210637 37,000 151 418 0
2022-07-03 19:59:44 GMT 44.743824 -0.214568 37,000 151 419 0
2022-07-03 19:59:39 GMT 44.752342 -0.221066 37,000 151 419 -64
2022-07-03 19:59:36 GMT 44.762722 -0.229038 37,000 151 420 -64
2022-07-03 19:59:33 GMT 44.762722 -0.229038 37,000 151 421 0
2022-07-03 19:59:30 GMT 44.766308 -0.231785 37,000 151 421 0
2022-07-03 19:59:27 GMT 44.772823 -0.236742 37,025 151 421 0
2022-07-03 19:59:24 GMT 44.777847 -0.240522 37,000 151 421 0
2022-07-03 19:59:21 GMT 44.783253 -0.244647 37,000 151 421 0
2022-07-03 19:59:18 GMT 44.788422 -0.248532 37,000 151 422 0
2022-07-03 19:59:15 GMT 44.793541 -0.252418 37,000 151 422 0
2022-07-03 19:59:11 GMT 44.798950 -0.256544 37,000 151 426 -64
2022-07-03 19:59:08 GMT 44.805599 -0.261595 37,000 151 424 -64
2022-07-03 19:59:04 GMT 44.812489 -0.266887 37,000 151 426 -64
2022-07-03 19:59:00 GMT 44.818085 -0.271192 37,000 151 427 -64
2022-07-03 19:58:56 GMT 44.826313 -0.277472 37,025 151 428 0
2022-07-03 19:58:51 GMT 44.836975 -0.285645 37,000 151 430 0
2022-07-03 19:58:47 GMT 44.847885 -0.294015 37,000 151 431 0
2022-07-03 19:58:44 GMT 44.847885 -0.294015 37,000 151 432 0
2022-07-03 19:58:39 GMT 44.854752 -0.299247 36,975 153 439 64
2022-07-03 19:58:36 GMT 44.862762 -0.305340 37,000 151 434 64
2022-07-03 19:58:33 GMT 44.865604 -0.307416 37,000 152 436 0
2022-07-03 19:58:30 GMT 44.872101 -0.312260 37,000 152 435 0
2022-07-03 19:58:27 GMT 44.876823 -0.315723 37,000 152 435 0
2022-07-03 19:58:23 GMT 44.883389 -0.320613 37,000 152 436 0
2022-07-03 19:58:20 GMT 44.888855 -0.324620 36,975 152 437 0
2022-07-03 19:58:16 GMT 44.895817 -0.329657 37,000 152 439 -64
2022-07-03 19:58:13 GMT 44.902039 -0.334102 37,000 153 439 -128
2022-07-03 19:58:10 GMT 44.907360 -0.337964 37,025 153 439 0
2022-07-03 19:58:06 GMT 44.914719 -0.343192 37,025 153 439 0
2022-07-03 19:58:03 GMT 44.920071 -0.346940 37,025 153 439 64
2022-07-03 19:58:00 GMT 44.926216 -0.351362 37,025 153 439 64
2022-07-03 19:57:54 GMT 44.936462 -0.358625 37,000 153 439 0
2022-07-03 19:57:50 GMT 44.945210 -0.364960 37,000 153 440 64
2022-07-03 19:57:47 GMT 44.950657 -0.368779 36,975 153 440 0
2022-07-03 19:57:42 GMT 44.957916 -0.373937 36,975 153 440 -64
2022-07-03 19:57:39 GMT 44.963596 -0.377889 37,000 153 440 64
2022-07-03 19:57:36 GMT 44.969276 -0.381775 37,000 153 440 0
2022-07-03 19:57:32 GMT 44.975655 -0.386196 37,000 153 440 0
2022-07-03 19:57:29 GMT 44.981098 -0.390015 37,000 153 437 128
2022-07-03 19:57:26 GMT 44.989292 -0.395709 37,000 153 437 128
2022-07-03 19:57:22 GMT 44.994095 -0.399105 37,000 153 436 192
2022-07-03 19:57:19 GMT 44.999256 -0.402676 36,950 153 435 192
2022-07-03 19:57:16 GMT 45.005310 -0.406887 36,975 153 434 256
2022-07-03 19:57:13 GMT 45.019180 -0.416565 36,950 153 434 192
2022-07-03 19:57:08 GMT 45.019180 -0.416565 36,950 153 433 0
2022-07-03 19:57:04 GMT 45.026627 -0.421768 36,950 153 433 -128
2022-07-03 19:57:00 GMT 45.035339 -0.427813 36,950 153 432 -64
2022-07-03 19:56:55 GMT 45.043396 -0.433437 36,950 153 431 0
2022-07-03 19:56:52 GMT 45.048321 -0.436841 36,950 153 431 64
2022-07-03 19:56:48 GMT 45.055305 -0.441664 36,950 153 431 0
2022-07-03 19:56:45 GMT 45.062984 -0.446956 36,950 153 430 0
2022-07-03 19:56:41 GMT 45.073059 -0.453971 36,950 153 430 -192
2022-07-03 19:56:38 GMT 45.073059 -0.453971 36,950 153 430 -192
2022-07-03 19:56:35 GMT 45.078857 -0.458009 36,950 153 431 -256
2022-07-03 19:56:32 GMT 45.089520 -0.465512 36,975 153 431 -256
2022-07-03 19:56:29 GMT 45.089520 -0.465512 36,975 153 431 -320
2022-07-03 19:56:26 GMT 45.095757 -0.469933 37,050 153 430 -128
2022-07-03 19:56:20 GMT 45.105148 -0.476467 37,025 153 430 -192
2022-07-03 19:56:17 GMT 45.111053 -0.480521 37,025 153 430 -192
2022-07-03 19:56:14 GMT 45.116409 -0.484249 37,025 153 429 -128
2022-07-03 19:56:11 GMT 45.122013 -0.488155 37,050 153 429 -128
2022-07-03 19:56:08 GMT 45.129509 -0.493313 37,050 154 430 -64
2022-07-03 19:56:05 GMT 45.132023 -0.495055 37,050 153 430 0
2022-07-03 19:56:02 GMT 45.142822 -0.502494 37,050 153 430 0
2022-07-03 19:55:59 GMT 45.142822 -0.502494 37,050 153 430 0
2022-07-03 19:55:56 GMT 45.147995 -0.506090 37,050 152 437 256
2022-07-03 19:55:52 GMT 45.156921 -0.512238 37,050 153 431 0
2022-07-03 19:55:49 GMT 45.167076 -0.519305 37,050 153 432 -128
2022-07-03 19:55:45 GMT 45.172428 -0.523056 37,050 153 432 -128
2022-07-03 19:55:42 GMT 45.172428 -0.523056 37,050 153 432 -128
2022-07-03 19:55:39 GMT 45.179459 -0.527947 37,075 153 434 -64
2022-07-03 19:55:35 GMT 45.193863 -0.538265 37,050 153 435 128
2022-07-03 19:55:31 GMT 45.193863 -0.538265 37,050 153 435 128
2022-07-03 19:55:27 GMT 45.200920 -0.543354 37,075 152 436 192
2022-07-03 19:55:24 GMT 45.205673 -0.546766 37,050 153 436 128
2022-07-03 19:55:20 GMT 45.211861 -0.551259 37,025 152 437 256
2022-07-03 19:55:17 GMT 45.218330 -0.555948 37,000 152 438 256
2022-07-03 19:55:14 GMT 45.222931 -0.559256 37,000 152 439 192
2022-07-03 19:55:11 GMT 45.229065 -0.563769 37,000 153 439 64
2022-07-03 19:55:08 GMT 45.234100 -0.567431 37,000 153 439 64
2022-07-03 19:55:03 GMT 45.243607 -0.574304 37,000 153 440 64
2022-07-03 19:55:00 GMT 45.248356 -0.577653 37,000 152 439 64
2022-07-03 19:54:57 GMT 45.254688 -0.582208 37,000 152 440 -64
2022-07-03 19:54:52 GMT 45.263020 -0.588170 37,000 152 440 0
2022-07-03 19:54:48 GMT 45.270676 -0.593785 36,975 152 440 128
2022-07-03 19:54:45 GMT 45.281937 -0.601894 36,975 152 440 128
2022-07-03 19:54:42 GMT 45.288803 -0.606864 36,975 152 440 128
2022-07-03 19:54:38 GMT 45.288803 -0.606864 36,975 152 440 128
2022-07-03 19:54:34 GMT 45.296120 -0.612220 36,975 152 440 0
2022-07-03 19:54:30 GMT 45.304451 -0.618249 36,975 152 440 0
2022-07-03 19:54:27 GMT 45.308640 -0.621263 36,975 153 440 0
2022-07-03 19:54:24 GMT 45.315628 -0.626286 36,975 153 439 -64
2022-07-03 19:54:20 GMT 45.322174 -0.630929 36,975 153 440 0
2022-07-03 19:54:17 GMT 45.334351 -0.639496 36,975 153 439 -64
2022-07-03 19:54:13 GMT 45.334351 -0.639496 36,975 153 439 0
2022-07-03 19:54:08 GMT 45.344112 -0.646251 36,975 154 438 -64
2022-07-03 19:54:03 GMT 45.352493 -0.652079 36,975 154 438 0
2022-07-03 19:54:00 GMT 45.357384 -0.655495 36,975 153 438 -64
2022-07-03 19:53:57 GMT 45.362961 -0.659310 37,000 153 438 -64
2022-07-03 19:53:53 GMT 45.370136 -0.664338 36,975 153 438 -64
2022-07-03 19:53:50 GMT 45.376514 -0.668759 37,000 153 438 -64
2022-07-03 19:53:47 GMT 45.381031 -0.671975 37,000 153 438 -64
2022-07-03 19:53:43 GMT 45.389038 -0.677602 37,000 153 438 0
2022-07-03 19:53:40 GMT 45.394623 -0.681554 37,000 153 438 -64
2022-07-03 19:53:37 GMT 45.399261 -0.684880 37,000 153 438 -64
2022-07-03 19:53:30 GMT 45.412544 -0.694349 37,000 153 437 -64
2022-07-03 19:53:26 GMT 45.418762 -0.698809 37,000 153 438 0
2022-07-03 19:53:22 GMT 45.428009 -0.705414 37,025 153 438 0
2022-07-03 19:53:19 GMT 45.431168 -0.707680 37,000 153 438 0
2022-07-03 19:53:16 GMT 45.438194 -0.712772 37,000 153 438 0
2022-07-03 19:53:13 GMT 45.443596 -0.716657 37,000 153 438 0
2022-07-03 19:53:10 GMT 45.449112 -0.720651 37,000 153 438 -64
2022-07-03 19:53:06 GMT 45.455513 -0.725299 37,025 152 439 -64
2022-07-03 19:53:03 GMT 45.461658 -0.729720 37,025 152 438 0
2022-07-03 19:53:00 GMT 45.467697 -0.734122 37,000 152 438 0
2022-07-03 19:52:55 GMT 45.475204 -0.739634 37,025 152 439 0
2022-07-03 19:52:51 GMT 45.487152 -0.748444 37,025 152 439 0
2022-07-03 19:52:48 GMT 45.487152 -0.748444 37,025 152 439 64
2022-07-03 19:52:45 GMT 45.493652 -0.753217 37,000 152 439 64
2022-07-03 19:52:41 GMT 45.499691 -0.757722 37,025 152 439 128
2022-07-03 19:52:37 GMT 45.512604 -0.767212 37,000 152 440 0
2022-07-03 19:52:31 GMT 45.517941 -0.771120 37,000 152 440 0
2022-07-03 19:52:28 GMT 45.523899 -0.775541 37,000 152 441 0
2022-07-03 19:52:25 GMT 45.528488 -0.778918 37,000 152 441 0
2022-07-03 19:52:22 GMT 45.535904 -0.784476 37,000 152 441 0
2022-07-03 19:52:19 GMT 45.540939 -0.788204 37,000 152 441 0
2022-07-03 19:52:15 GMT 45.547920 -0.793419 37,000 152 441 0
2022-07-03 19:52:11 GMT 45.557007 -0.800193 37,000 152 441 0
2022-07-03 19:52:08 GMT 45.559891 -0.802404 37,000 152 441 0
2022-07-03 19:52:05 GMT 45.564606 -0.805887 37,000 152 441 64
2022-07-03 19:52:02 GMT 45.576969 -0.815186 37,000 152 441 64
2022-07-03 19:51:59 GMT 45.576969 -0.815186 36,975 152 441 64
2022-07-03 19:51:54 GMT 45.585442 -0.821571 36,975 152 441 128
2022-07-03 19:51:50 GMT 45.593029 -0.827202 36,975 152 441 0
2022-07-03 19:51:45 GMT 45.609276 -0.839287 36,975 152 441 -64
2022-07-03 19:51:41 GMT 45.609276 -0.839287 36,975 152 441 -64
2022-07-03 19:51:37 GMT 45.621872 -0.848627 36,975 152 441 0
2022-07-03 19:51:34 GMT 45.621872 -0.848627 36,975 152 441 0
2022-07-03 19:51:31 GMT 45.627384 -0.852745 36,975 152 441 0
2022-07-03 19:51:25 GMT 45.638927 -0.861397 36,975 152 440 0
2022-07-03 19:51:21 GMT 45.646912 -0.867384 36,975 152 440 -64
2022-07-03 19:51:18 GMT 45.650429 -0.870049 36,975 152 441 -64
2022-07-03 19:51:13 GMT 45.659645 -0.876915 37,000 152 441 -64
2022-07-03 19:51:09 GMT 45.665863 -0.881586 37,000 152 440 -64
2022-07-03 19:51:03 GMT 45.676964 -0.889893 37,000 152 440 -64
2022-07-03 19:50:59 GMT 45.684364 -0.895454 37,025 152 440 -64
2022-07-03 19:50:55 GMT 45.692280 -0.901360 37,000 152 440 0
2022-07-03 19:50:51 GMT 45.700287 -0.907377 37,025 152 440 -64
2022-07-03 19:50:47 GMT 45.705963 -0.911659 37,025 152 440 0
2022-07-03 19:50:44 GMT 45.717773 -0.920507 37,000 152 441 0
2022-07-03 19:50:41 GMT 45.717773 -0.920507 37,000 152 441 0
2022-07-03 19:50:38 GMT 45.722443 -0.924057 37,025 152 441 0
2022-07-03 19:50:35 GMT 45.727844 -0.928077 37,000 152 441 0
2022-07-03 19:50:32 GMT 45.733063 -0.932029 37,000 152 441 64
2022-07-03 19:50:29 GMT 45.740368 -0.937546 37,000 152 440 0
2022-07-03 19:50:26 GMT 45.745880 -0.941676 37,000 152 441 -64
2022-07-03 19:50:21 GMT 45.755447 -0.948844 37,000 152 441 -64
2022-07-03 19:50:17 GMT 45.760944 -0.952995 37,000 152 441 -64
2022-07-03 19:50:14 GMT 45.766434 -0.957150 37,025 152 441 0
2022-07-03 19:50:10 GMT 45.778519 -0.966328 37,000 151 442 0
2022-07-03 19:50:07 GMT 45.783100 -0.969818 37,000 151 442 0
2022-07-03 19:50:04 GMT 45.783100 -0.969818 37,000 151 442 0
2022-07-03 19:50:01 GMT 45.788502 -0.973938 37,000 151 442 0
2022-07-03 19:49:58 GMT 45.794220 -0.978252 37,000 151 442 0
2022-07-03 19:49:55 GMT 45.799862 -0.982590 37,000 151 442 0
2022-07-03 19:49:50 GMT 45.809448 -0.989868 37,000 151 442 0
2022-07-03 19:49:47 GMT 45.812943 -0.992521 37,000 151 442 0
2022-07-03 19:49:44 GMT 45.818806 -0.997009 37,000 151 442 0
2022-07-03 19:49:41 GMT 45.824524 -1.001297 37,025 151 442 0
2022-07-03 19:49:38 GMT 45.837940 -1.011566 37,025 151 442 0
2022-07-03 19:49:34 GMT 45.837940 -1.011566 37,025 151 442 0
2022-07-03 19:49:31 GMT 45.843155 -1.015617 37,025 151 442 0
2022-07-03 19:49:28 GMT 45.848511 -1.019652 37,025 151 443 -64
2022-07-03 19:49:21 GMT 45.861404 -1.029488 37,025 152 442 -64
2022-07-03 19:49:18 GMT 45.866913 -1.033586 37,050 156 438 -64
2022-07-03 19:49:13 GMT 45.876717 -1.040543 37,050 154 440 -64
2022-07-03 19:49:10 GMT 45.882111 -1.044304 37,050 155 439 -64
2022-07-03 19:49:07 GMT 45.887833 -1.048056 37,050 155 439 -64
2022-07-03 19:49:04 GMT 45.891541 -1.050467 37,050 156 438 -64
2022-07-03 19:49:01 GMT 45.899689 -1.055558 37,050 157 437 0
2022-07-03 19:48:58 GMT 45.904541 -1.058439 37,050 157 437 -64
2022-07-03 19:48:54 GMT 45.911270 -1.062391 37,050 157 437 -64
2022-07-03 19:48:51 GMT 45.916008 -1.065193 37,050 157 437 64
2022-07-03 19:48:48 GMT 45.924545 -1.070229 37,050 157 437 0
2022-07-03 19:48:44 GMT 45.929764 -1.073311 37,050 157 438 0
2022-07-03 19:48:39 GMT 45.938446 -1.078445 37,050 157 437 64
2022-07-03 19:48:36 GMT 45.945099 -1.082287 37,050 157 437 0
2022-07-03 19:48:34 GMT 45.948624 -1.084431 37,050 157 437 64
2022-07-03 19:48:30 GMT 45.957596 -1.089656 37,050 157 437 0
2022-07-03 19:48:27 GMT 45.962189 -1.092384 37,025 157 437 0
2022-07-03 19:48:23 GMT 45.969311 -1.096573 37,050 157 437 0
2022-07-03 19:48:20 GMT 45.975220 -1.100040 37,050 157 437 0
2022-07-03 19:48:17 GMT 45.986252 -1.106538 37,025 157 437 0
2022-07-03 19:48:14 GMT 45.986252 -1.106538 37,025 157 437 64
2022-07-03 19:48:11 GMT 45.991882 -1.109820 37,025 157 438 0
2022-07-03 19:48:06 GMT 46.001404 -1.115447 37,025 157 438 0
2022-07-03 19:48:03 GMT 46.006851 -1.118663 37,025 157 439 0
2022-07-03 19:47:57 GMT 46.017632 -1.125000 37,025 157 438 0
2022-07-03 19:47:53 GMT 46.025208 -1.129515 37,025 157 438 -64
2022-07-03 19:47:46 GMT 46.045029 -1.141171 37,025 157 437 0
2022-07-03 19:47:42 GMT 46.045029 -1.141171 37,025 157 437 0
2022-07-03 19:47:38 GMT 46.055618 -1.147453 37,025 157 438 64
2022-07-03 19:47:35 GMT 46.058716 -1.149277 37,025 157 438 64
2022-07-03 19:47:32 GMT 46.071808 -1.156981 37,025 157 438 64
2022-07-03 19:47:29 GMT 46.071808 -1.156981 37,025 157 438 64
2022-07-03 19:47:25 GMT 46.078308 -1.160866 37,025 157 438 64
2022-07-03 19:47:22 GMT 46.083023 -1.163613 37,025 157 438 64
2022-07-03 19:47:19 GMT 46.088425 -1.166828 37,025 157 437 64
2022-07-03 19:47:16 GMT 46.096069 -1.171384 37,025 157 437 64
2022-07-03 19:47:13 GMT 46.099823 -1.173594 37,025 157 437 64
2022-07-03 19:47:10 GMT 46.105408 -1.176944 37,025 157 437 64
2022-07-03 19:47:06 GMT 46.113529 -1.181786 37,025 157 437 64
2022-07-03 19:47:03 GMT 46.117252 -1.183983 37,000 157 436 64
2022-07-03 19:47:00 GMT 46.123856 -1.187930 37,000 157 436 0
2022-07-03 19:46:57 GMT 46.129623 -1.191347 37,000 157 436 0
2022-07-03 19:46:54 GMT 46.135437 -1.194763 37,000 157 436 0
2022-07-03 19:46:51 GMT 46.141937 -1.198649 37,000 157 434 0
2022-07-03 19:46:46 GMT 46.151230 -1.204209 37,000 157 436 0
2022-07-03 19:46:43 GMT 46.155899 -1.207022 37,000 157 435 0
2022-07-03 19:46:38 GMT 46.166107 -1.213118 37,000 156 433 64
2022-07-03 19:46:34 GMT 46.173340 -1.217473 37,025 157 434 0
2022-07-03 19:46:29 GMT 46.181030 -1.222160 37,000 156 434 0
2022-07-03 19:46:26 GMT 46.193344 -1.229598 37,000 157 435 0
2022-07-03 19:46:23 GMT 46.193344 -1.229598 37,000 157 435 0
2022-07-03 19:46:17 GMT 46.209705 -1.239601 37,000 156 434 0
2022-07-03 19:46:14 GMT 46.209705 -1.239601 37,000 156 433 0
2022-07-03 19:46:07 GMT 46.222042 -1.247154 37,000 156 434 -64
2022-07-03 19:46:03 GMT 46.229874 -1.252039 37,000 156 433 0
2022-07-03 19:45:57 GMT 46.249191 -1.263964 37,000 156 433 0
2022-07-03 19:45:53 GMT 46.249191 -1.263964 37,000 156 433 0
2022-07-03 19:45:51 GMT 46.252583 -1.266106 37,000 156 433 -64
2022-07-03 19:45:47 GMT 46.259079 -1.270127 37,025 156 432 0
2022-07-03 19:45:42 GMT 46.267616 -1.275444 37,025 156 432 64
2022-07-03 19:45:40 GMT 46.272224 -1.278328 37,000 156 431 0
2022-07-03 19:45:35 GMT 46.281212 -1.283821 37,000 157 431 0
2022-07-03 19:45:31 GMT 46.287506 -1.287678 37,000 157 431 0
2022-07-03 19:45:29 GMT 46.291451 -1.290070 37,000 157 430 0
2022-07-03 19:45:22 GMT 46.304810 -1.297927 37,000 158 429 0
2022-07-03 19:45:17 GMT 46.314869 -1.303528 37,000 159 428 0
2022-07-03 19:45:13 GMT 46.322269 -1.307510 37,000 160 427 0
2022-07-03 19:45:11 GMT 46.325912 -1.309450 37,000 160 427 0
2022-07-03 19:45:08 GMT 46.331581 -1.312386 37,000 160 427 0
2022-07-03 19:45:05 GMT 46.337219 -1.315278 37,000 160 427 0
2022-07-03 19:45:02 GMT 46.344753 -1.319183 37,000 160 425 64
2022-07-03 19:44:56 GMT 46.353645 -1.323784 37,000 160 425 64
2022-07-03 19:44:53 GMT 46.363907 -1.329078 37,000 160 425 64
2022-07-03 19:44:45 GMT 46.375851 -1.335251 37,000 160 425 64
2022-07-03 19:44:42 GMT 46.379017 -1.336830 36,975 160 425 64
2022-07-03 19:44:39 GMT 46.390282 -1.342667 36,975 160 425 0
2022-07-03 19:44:37 GMT 46.390282 -1.342667 37,000 160 424 0
2022-07-03 19:44:34 GMT 46.394009 -1.344589 36,975 160 424 64
2022-07-03 19:44:31 GMT 46.398804 -1.347061 36,975 160 424 64
2022-07-03 19:44:28 GMT 46.404900 -1.350220 36,975 160 424 64
2022-07-03 19:44:24 GMT 46.420589 -1.358322 36,975 160 424 0
2022-07-03 19:44:20 GMT 46.420589 -1.358322 36,975 160 423 64
2022-07-03 19:44:15 GMT 46.429249 -1.362854 36,975 160 423 64
2022-07-03 19:44:12 GMT 46.433945 -1.365252 36,975 160 423 64
2022-07-03 19:44:09 GMT 46.441132 -1.369004 36,975 160 423 0
2022-07-03 19:44:03 GMT 46.451294 -1.374229 36,950 160 423 0
2022-07-03 19:43:59 GMT 46.461411 -1.379454 36,950 160 423 0
2022-07-03 19:43:54 GMT 46.467682 -1.382737 36,950 160 423 0
2022-07-03 19:43:51 GMT 46.474403 -1.386200 36,950 160 423 0
2022-07-03 19:43:48 GMT 46.480728 -1.389436 36,950 160 423 0
2022-07-03 19:43:44 GMT 46.488369 -1.393341 36,950 160 422 0
2022-07-03 19:43:41 GMT 46.493088 -1.395800 36,950 160 422 -64
2022-07-03 19:43:38 GMT 46.496750 -1.397675 36,950 160 422 -64
2022-07-03 19:43:36 GMT 46.500519 -1.399590 36,950 160 422 -64
2022-07-03 19:43:33 GMT 46.506199 -1.402542 36,950 160 422 -64
2022-07-03 19:43:29 GMT 46.514923 -1.407054 36,975 160 421 -64
2022-07-03 19:43:25 GMT 46.521793 -1.410576 36,975 160 421 -64
2022-07-03 19:43:21 GMT 46.529335 -1.414490 36,975 160 421 -64
2022-07-03 19:43:18 GMT 46.533337 -1.416550 36,975 160 421 -64
2022-07-03 19:43:16 GMT 46.538830 -1.419365 36,975 160 421 -64
2022-07-03 19:43:11 GMT 46.546829 -1.423466 37,000 160 421 -64
2022-07-03 19:43:07 GMT 46.553604 -1.427017 36,975 160 421 -64
2022-07-03 19:43:04 GMT 46.558914 -1.429763 37,000 160 420 -64
2022-07-03 19:43:01 GMT 46.565228 -1.433029 37,000 160 420 -64
2022-07-03 19:42:57 GMT 46.571835 -1.436394 37,000 160 420 -64
2022-07-03 19:42:55 GMT 46.578030 -1.439621 37,000 160 420 -64
2022-07-03 19:42:50 GMT 46.587112 -1.444300 37,025 160 420 -64
2022-07-03 19:42:46 GMT 46.593437 -1.447586 37,025 160 420 -64
2022-07-03 19:42:43 GMT 46.599068 -1.450539 37,025 160 421 64
2022-07-03 19:42:40 GMT 46.603817 -1.453011 37,025 160 420 0
2022-07-03 19:42:37 GMT 46.608612 -1.455482 37,025 160 421 64
2022-07-03 19:42:35 GMT 46.613361 -1.458023 37,025 160 421 64
2022-07-03 19:42:30 GMT 46.621307 -1.462186 37,025 160 421 64
2022-07-03 19:42:27 GMT 46.627094 -1.465164 37,000 160 421 0
2022-07-03 19:42:22 GMT 46.637009 -1.470314 37,000 160 421 0
2022-07-03 19:42:19 GMT 46.643875 -1.473910 37,000 160 422 0
2022-07-03 19:42:16 GMT 46.647903 -1.476053 37,000 160 422 64
2022-07-03 19:42:13 GMT 46.654358 -1.479403 37,000 160 422 0
2022-07-03 19:42:11 GMT 46.666672 -1.485901 37,000 160 423 0
2022-07-03 19:42:06 GMT 46.666672 -1.485901 37,000 160 423 0
2022-07-03 19:42:02 GMT 46.674042 -1.489719 37,000 160 423 0
2022-07-03 19:41:58 GMT 46.688919 -1.497557 37,000 160 424 0
2022-07-03 19:41:55 GMT 46.688919 -1.497557 37,000 160 424 0
2022-07-03 19:41:50 GMT 46.696106 -1.501309 37,000 160 424 0
2022-07-03 19:41:46 GMT 46.706882 -1.506912 37,000 160 425 0
2022-07-03 19:41:40 GMT 46.714474 -1.510895 37,000 160 425 0
2022-07-03 19:41:36 GMT 46.722473 -1.515108 37,000 160 425 0
2022-07-03 19:41:33 GMT 46.725815 -1.516783 37,000 160 425 -64
2022-07-03 19:41:29 GMT 46.733513 -1.520851 37,000 160 425 0
2022-07-03 19:41:26 GMT 46.740170 -1.524284 37,000 160 425 0
2022-07-03 19:41:23 GMT 46.745773 -1.527234 37,000 160 425 0
2022-07-03 19:41:20 GMT 46.749947 -1.529434 37,000 160 425 0
2022-07-03 19:41:17 GMT 46.756531 -1.532861 37,000 160 426 -64
2022-07-03 19:41:13 GMT 46.765228 -1.537349 37,000 160 426 0
2022-07-03 19:41:09 GMT 46.770401 -1.540096 37,000 160 426 0
2022-07-03 19:41:05 GMT 46.779552 -1.544884 37,000 160 426 0
2022-07-03 19:41:02 GMT 46.784767 -1.547562 37,000 160 426 0
2022-07-03 19:41:00 GMT 46.789745 -1.550171 37,000 160 426 0
2022-07-03 19:40:57 GMT 46.802547 -1.556900 37,025 160 427 -64
2022-07-03 19:40:52 GMT 46.802547 -1.556900 37,000 160 427 -64
2022-07-03 19:40:49 GMT 46.808323 -1.559921 37,025 160 427 -64
2022-07-03 19:40:46 GMT 46.814529 -1.563140 37,025 160 428 0
2022-07-03 19:40:43 GMT 46.819260 -1.565620 37,025 160 428 64
2022-07-03 19:40:41 GMT 46.822906 -1.567561 37,025 160 428 64
2022-07-03 19:40:37 GMT 46.832016 -1.572318 37,025 160 428 0
2022-07-03 19:40:34 GMT 46.835907 -1.574394 37,025 160 428 0
2022-07-03 19:40:32 GMT 46.839798 -1.576404 37,000 160 428 64
2022-07-03 19:40:29 GMT 46.845566 -1.579419 37,000 160 428 64
2022-07-03 19:40:24 GMT 46.855759 -1.584778 37,000 160 429 64
2022-07-03 19:40:16 GMT 46.870010 -1.592194 37,000 160 431 0
2022-07-03 19:40:13 GMT 46.876373 -1.595558 37,000 160 431 -64
2022-07-03 19:40:09 GMT 46.883549 -1.599285 37,000 160 430 0
2022-07-03 19:40:03 GMT 46.895187 -1.605412 37,000 160 431 -64
2022-07-03 19:40:01 GMT 46.897980 -1.606821 37,000 160 431 -64
2022-07-03 19:39:58 GMT 46.902870 -1.609427 37,000 160 431 -64
2022-07-03 19:39:53 GMT 46.913902 -1.615202 37,000 160 431 -64
2022-07-03 19:39:49 GMT 46.921398 -1.619145 37,000 160 431 0
2022-07-03 19:39:46 GMT 46.928238 -1.622749 37,000 160 431 0
2022-07-03 19:39:42 GMT 46.933037 -1.625272 37,000 159 432 0
2022-07-03 19:39:40 GMT 46.936386 -1.627033 37,000 159 432 0
2022-07-03 19:39:37 GMT 46.941925 -1.629959 37,000 160 431 0
2022-07-03 19:39:32 GMT 46.952454 -1.635590 37,000 160 433 0
2022-07-03 19:39:28 GMT 46.959595 -1.639366 37,000 159 435 0
2022-07-03 19:39:24 GMT 46.968925 -1.644287 37,000 159 435 0
2022-07-03 19:39:21 GMT 46.979645 -1.650009 37,000 160 437 0
2022-07-03 19:39:17 GMT 46.979645 -1.650009 37,025 160 437 0
2022-07-03 19:39:12 GMT 46.990528 -1.655766 37,000 160 437 0
2022-07-03 19:39:07 GMT 47.009521 -1.665837 37,000 160 436 64
2022-07-03 19:39:02 GMT 47.009521 -1.665837 37,000 160 436 64
2022-07-03 19:39:00 GMT 47.011505 -1.666901 37,000 160 436 64
2022-07-03 19:38:55 GMT 47.020752 -1.671776 37,000 160 436 64
2022-07-03 19:38:52 GMT 47.028351 -1.675827 37,000 160 437 64
2022-07-03 19:38:50 GMT 47.032238 -1.677880 37,000 160 437 0
2022-07-03 19:38:45 GMT 47.041550 -1.682810 37,000 160 437 -64
2022-07-03 19:38:42 GMT 47.050255 -1.687458 37,000 160 437 -64
2022-07-03 19:38:38 GMT 47.055748 -1.690416 37,000 160 437 0
2022-07-03 19:38:35 GMT 47.060623 -1.692993 37,000 160 436 64
2022-07-03 19:38:31 GMT 47.068954 -1.697388 37,000 159 435 128
2022-07-03 19:38:27 GMT 47.075546 -1.700890 36,975 160 434 256
2022-07-03 19:38:24 GMT 47.082420 -1.704571 36,975 160 434 256
2022-07-03 19:38:20 GMT 47.088181 -1.707619 36,950 160 434 192
2022-07-03 19:38:17 GMT 47.093922 -1.710698 36,950 160 434 0
2022-07-03 19:38:13 GMT 47.102390 -1.715205 36,950 160 434 0
2022-07-03 19:38:10 GMT 47.108070 -1.718234 36,950 160 434 0
2022-07-03 19:38:07 GMT 47.113037 -1.720871 36,950 160 433 -64
2022-07-03 19:38:03 GMT 47.121059 -1.725135 36,950 160 433 -64
2022-07-03 19:37:59 GMT 47.127811 -1.728727 36,950 160 433 0
2022-07-03 19:37:57 GMT 47.132511 -1.731192 36,950 160 432 0
2022-07-03 19:37:51 GMT 47.142929 -1.736732 36,950 160 431 0
2022-07-03 19:37:49 GMT 47.146866 -1.738792 36,950 160 431 64
2022-07-03 19:37:46 GMT 47.151764 -1.741402 36,950 160 431 64
2022-07-03 19:37:41 GMT 47.164490 -1.748062 36,950 160 431 0
2022-07-03 19:37:38 GMT 47.167511 -1.749641 36,950 160 431 0
2022-07-03 19:37:36 GMT 47.170406 -1.751193 36,950 160 431 -64
2022-07-03 19:37:30 GMT 47.183159 -1.757883 36,950 160 431 0
2022-07-03 19:37:27 GMT 47.189911 -1.761475 36,950 160 430 -64
2022-07-03 19:37:21 GMT 47.205185 -1.769485 36,975 160 431 -128
2022-07-03 19:37:18 GMT 47.205185 -1.769485 36,975 160 431 -128
2022-07-03 19:37:15 GMT 47.209927 -1.772038 36,975 160 431 -128
2022-07-03 19:37:10 GMT 47.222397 -1.778618 36,975 160 431 -64
2022-07-03 19:37:07 GMT 47.225418 -1.780197 36,975 160 431 -64
2022-07-03 19:37:05 GMT 47.231483 -1.783377 37,000 160 431 -64
2022-07-03 19:37:01 GMT 47.237411 -1.786514 37,000 160 431 -128
2022-07-03 19:36:58 GMT 47.244984 -1.790560 37,000 160 431 -64
2022-07-03 19:36:55 GMT 47.247959 -1.792180 37,000 160 431 -64
2022-07-03 19:36:52 GMT 47.253036 -1.794856 37,000 160 431 -64
2022-07-03 19:36:50 GMT 47.258667 -1.797814 37,000 160 432 -64
2022-07-03 19:36:47 GMT 47.263184 -1.800208 37,025 160 432 -64
2022-07-03 19:36:44 GMT 47.267761 -1.802719 37,025 160 433 -64
2022-07-03 19:36:41 GMT 47.274353 -1.806221 37,025 160 434 -128
2022-07-03 19:36:38 GMT 47.279152 -1.808730 37,025 160 434 -128
2022-07-03 19:36:35 GMT 47.285843 -1.812332 37,025 159 434 -64
2022-07-03 19:36:29 GMT 47.296143 -1.817815 37,050 159 434 -128
2022-07-03 19:36:26 GMT 47.301865 -1.820915 37,050 159 434 -64
2022-07-03 19:36:24 GMT 47.305546 -1.822885 37,050 159 435 0
2022-07-03 19:36:20 GMT 47.314812 -1.827886 37,050 159 435 0
2022-07-03 19:36:17 GMT 47.320675 -1.830984 37,050 159 435 0
2022-07-03 19:36:15 GMT 47.328506 -1.835266 37,025 159 436 64
2022-07-03 19:36:12 GMT 47.328506 -1.835266 37,025 159 436 64
2022-07-03 19:36:08 GMT 47.335922 -1.839249 37,025 159 437 0
2022-07-03 19:36:05 GMT 47.343704 -1.843437 37,025 159 438 0
2022-07-03 19:36:02 GMT 47.348515 -1.846055 37,025 159 438 0
2022-07-03 19:35:59 GMT 47.356247 -1.850166 37,025 159 439 0
2022-07-03 19:35:56 GMT 47.363411 -1.854013 37,025 159 439 -64
2022-07-03 19:35:51 GMT 47.371231 -1.858239 37,050 159 440 -64
2022-07-03 19:35:48 GMT 47.375237 -1.860352 37,050 159 440 -64
2022-07-03 19:35:45 GMT 47.381939 -1.863943 37,050 159 440 -64
2022-07-03 19:35:39 GMT 47.391853 -1.869296 37,050 159 440 0
2022-07-03 19:35:35 GMT 47.405865 -1.876831 37,025 159 445 64
2022-07-03 19:35:32 GMT 47.405865 -1.876831 37,025 159 445 64
2022-07-03 19:35:29 GMT 47.410904 -1.879555 37,050 159 441 64
2022-07-03 19:35:26 GMT 47.416759 -1.882676 37,050 159 441 64
2022-07-03 19:35:23 GMT 47.425095 -1.887177 37,025 159 441 64
2022-07-03 19:35:19 GMT 47.430771 -1.890282 37,025 159 443 0
2022-07-03 19:35:14 GMT 47.447670 -1.899367 37,025 159 443 0
2022-07-03 19:35:10 GMT 47.447670 -1.899367 37,050 159 443 0
2022-07-03 19:35:07 GMT 47.453384 -1.902420 37,025 159 444 0
2022-07-03 19:35:04 GMT 47.467255 -1.909904 37,025 159 445 0
2022-07-03 19:35:00 GMT 47.467255 -1.909904 37,025 159 445 0
2022-07-03 19:34:58 GMT 47.470249 -1.911551 37,025 159 444 64
2022-07-03 19:34:54 GMT 47.478535 -1.915987 37,025 159 445 64
2022-07-03 19:34:52 GMT 47.490498 -1.922467 37,025 159 445 64
2022-07-03 19:34:48 GMT 47.490498 -1.922467 37,025 159 445 64
2022-07-03 19:34:44 GMT 47.498596 -1.926833 37,025 159 445 64
2022-07-03 19:34:40 GMT 47.507217 -1.931465 37,000 159 446 64
2022-07-03 19:34:37 GMT 47.510983 -1.933523 37,025 159 446 64
2022-07-03 19:34:32 GMT 47.520851 -1.938876 37,000 159 446 64
2022-07-03 19:34:29 GMT 47.526482 -1.941904 37,000 159 446 0
2022-07-03 19:34:26 GMT 47.534397 -1.946129 37,000 160 446 0
2022-07-03 19:34:23 GMT 47.538261 -1.948242 37,000 160 446 0
2022-07-03 19:34:19 GMT 47.546127 -1.952408 37,000 160 446 0
2022-07-03 19:34:15 GMT 47.553680 -1.956459 37,000 159 447 0
2022-07-03 19:34:12 GMT 47.559208 -1.959440 37,000 160 446 0
2022-07-03 19:34:09 GMT 47.565308 -1.962708 37,000 159 447 0
2022-07-03 19:34:06 GMT 47.571121 -1.965866 37,000 159 447 0
2022-07-03 19:34:02 GMT 47.580414 -1.970879 37,000 159 447 64
2022-07-03 19:33:58 GMT 47.591675 -1.976921 37,000 159 447 0
2022-07-03 19:33:52 GMT 47.597672 -1.980148 37,000 159 447 0
2022-07-03 19:33:49 GMT 47.608337 -1.985916 37,000 159 447 0
2022-07-03 19:33:47 GMT 47.608337 -1.985916 37,000 159 447 0
2022-07-03 19:33:41 GMT 47.618820 -1.991547 37,000 159 446 0
2022-07-03 19:33:39 GMT 47.627930 -1.996490 37,000 159 445 0
2022-07-03 19:33:37 GMT 47.635666 -2.000679 37,000 159 446 0
2022-07-03 19:33:34 GMT 47.635666 -2.000679 37,000 159 445 -64
2022-07-03 19:33:30 GMT 47.641617 -2.003906 37,000 159 444 0
2022-07-03 19:33:28 GMT 47.645279 -2.005898 37,025 159 444 0
2022-07-03 19:33:25 GMT 47.651756 -2.009442 37,000 159 444 0
2022-07-03 19:33:23 GMT 47.654755 -2.011047 37,000 159 443 -64
2022-07-03 19:33:20 GMT 47.661850 -2.014893 37,000 159 443 -64
2022-07-03 19:33:16 GMT 47.667538 -2.018034 37,000 159 443 0
2022-07-03 19:33:13 GMT 47.673866 -2.021484 37,000 159 443 0
2022-07-03 19:33:10 GMT 47.679703 -2.024643 37,000 159 444 64
2022-07-03 19:33:07 GMT 47.686661 -2.028419 37,000 159 444 0
2022-07-03 19:33:03 GMT 47.692905 -2.031837 37,000 159 444 64
2022-07-03 19:32:59 GMT 47.701382 -2.036485 37,000 159 444 0
2022-07-03 19:32:56 GMT 47.706360 -2.039232 37,000 159 444 64
2022-07-03 19:32:53 GMT 47.712250 -2.042427 37,000 159 445 64
2022-07-03 19:32:49 GMT 47.723537 -2.048598 37,000 159 446 0
2022-07-03 19:32:45 GMT 47.728638 -2.051422 37,000 159 447 0
2022-07-03 19:32:40 GMT 47.737457 -2.056134 37,000 159 447 0
2022-07-03 19:32:38 GMT 47.741638 -2.058426 37,000 159 447 0
2022-07-03 19:32:35 GMT 47.747746 -2.061697 37,000 159 447 -64
2022-07-03 19:32:33 GMT 47.751656 -2.063810 37,000 159 446 -64
2022-07-03 19:32:30 GMT 47.761047 -2.068932 37,000 159 447 -64
2022-07-03 19:32:28 GMT 47.761047 -2.068932 37,000 159 446 -64
2022-07-03 19:32:25 GMT 47.767044 -2.072159 37,025 159 446 0
2022-07-03 19:32:22 GMT 47.780594 -2.079506 37,025 159 444 0
2022-07-03 19:32:18 GMT 47.780594 -2.079506 37,025 159 444 64
2022-07-03 19:32:15 GMT 47.785400 -2.082115 37,025 159 444 0
2022-07-03 19:32:11 GMT 47.793228 -2.086416 37,000 159 444 64
2022-07-03 19:32:08 GMT 47.805450 -2.093102 37,000 159 444 64
2022-07-03 19:32:05 GMT 47.805450 -2.093102 37,000 159 444 64
2022-07-03 19:32:02 GMT 47.812180 -2.096809 37,000 159 445 64
2022-07-03 19:31:59 GMT 47.817215 -2.099556 37,000 159 445 64
2022-07-03 19:31:57 GMT 47.820183 -2.101206 37,000 159 445 64
2022-07-03 19:31:54 GMT 47.827538 -2.105220 36,975 159 445 64
2022-07-03 19:31:51 GMT 47.832565 -2.107896 36,975 159 445 64
2022-07-03 19:31:48 GMT 47.837593 -2.110643 36,975 159 445 64
2022-07-03 19:31:45 GMT 47.842667 -2.113426 36,975 159 445 64
2022-07-03 19:31:42 GMT 47.849556 -2.117192 37,000 159 444 0
2022-07-03 19:31:39 GMT 47.855026 -2.120155 36,975 159 442 0
2022-07-03 19:31:37 GMT 47.859467 -2.122559 37,000 159 441 0
2022-07-03 19:31:34 GMT 47.864639 -2.125374 37,000 159 441 0
2022-07-03 19:31:31 GMT 47.869446 -2.127983 37,000 160 441 0
2022-07-03 19:31:28 GMT 47.881073 -2.134300 37,000 159 439 -64
2022-07-03 19:31:26 GMT 47.884140 -2.135948 37,000 159 438 -64
2022-07-03 19:31:24 GMT 47.884140 -2.135948 37,000 159 439 -64
2022-07-03 19:31:21 GMT 47.890045 -2.139175 37,000 159 439 0
2022-07-03 19:31:18 GMT 47.895401 -2.142059 37,025 159 438 -64
2022-07-03 19:31:16 GMT 47.899017 -2.144051 37,000 159 438 -64
2022-07-03 19:31:13 GMT 47.903881 -2.146700 37,000 159 438 0
2022-07-03 19:31:10 GMT 47.911842 -2.150996 37,025 159 437 0
2022-07-03 19:31:07 GMT 47.916218 -2.153391 37,000 159 438 64
2022-07-03 19:31:04 GMT 47.921898 -2.156560 37,000 159 437 64
2022-07-03 19:31:01 GMT 47.928818 -2.160324 37,000 159 438 0
2022-07-03 19:30:57 GMT 47.935318 -2.163895 37,000 159 439 0
2022-07-03 19:30:54 GMT 47.940704 -2.166842 36,975 159 440 0
2022-07-03 19:30:52 GMT 47.944336 -2.168814 37,000 159 441 64
2022-07-03 19:30:48 GMT 47.953133 -2.173673 37,000 159 441 0
2022-07-03 19:30:45 GMT 47.960861 -2.177971 37,000 159 442 -64
2022-07-03 19:30:42 GMT 47.963840 -2.179589 37,000 159 442 -64
2022-07-03 19:30:38 GMT 47.972080 -2.184096 37,000 159 442 -64
2022-07-03 19:30:33 GMT 47.980042 -2.188477 37,025 159 442 0
2022-07-03 19:30:31 GMT 47.984928 -2.191209 37,025 159 442 0
2022-07-03 19:30:28 GMT 47.991261 -2.194660 37,025 159 443 0
2022-07-03 19:30:26 GMT 47.999687 -2.199308 37,000 159 445 0
2022-07-03 19:30:23 GMT 47.999687 -2.199308 37,025 159 443 0
2022-07-03 19:30:21 GMT 48.004295 -2.201914 37,000 159 443 64
2022-07-03 19:30:17 GMT 48.013187 -2.206773 37,000 159 444 64
2022-07-03 19:30:14 GMT 48.018860 -2.209900 37,000 159 445 0
2022-07-03 19:30:11 GMT 48.023613 -2.212548 36,975 159 448 0
2022-07-03 19:30:08 GMT 48.028641 -2.215365 36,975 159 449 0
2022-07-03 19:30:06 GMT 48.032505 -2.217478 36,975 159 450 0
2022-07-03 19:30:02 GMT 48.043167 -2.223289 37,000 159 451 0
2022-07-03 19:29:59 GMT 48.046097 -2.224937 37,000 159 451 0
2022-07-03 19:29:56 GMT 48.052780 -2.228577 37,000 159 451 64
2022-07-03 19:29:53 GMT 48.058716 -2.231844 37,000 159 451 0
2022-07-03 19:29:50 GMT 48.064911 -2.235237 37,000 159 450 -64
2022-07-03 19:29:47 GMT 48.069992 -2.238052 37,000 159 450 -64
2022-07-03 19:29:43 GMT 48.078453 -2.242690 37,000 159 450 0
2022-07-03 19:29:40 GMT 48.084553 -2.246000 37,000 159 450 -64
2022-07-03 19:29:36 GMT 48.099400 -2.254169 37,025 159 450 0
2022-07-03 19:29:32 GMT 48.099400 -2.254169 37,000 159 450 -64
2022-07-03 19:29:30 GMT 48.104057 -2.256775 37,000 159 454 64
2022-07-03 19:29:27 GMT 48.109737 -2.259874 37,000 159 451 0
2022-07-03 19:29:25 GMT 48.115906 -2.263252 37,000 159 451 0
2022-07-03 19:29:22 GMT 48.119743 -2.265367 37,000 159 451 0
2022-07-03 19:29:20 GMT 48.123840 -2.267620 37,000 159 452 -64
2022-07-03 19:29:17 GMT 48.131893 -2.272057 37,000 159 453 64
2022-07-03 19:29:12 GMT 48.139763 -2.276353 37,000 159 454 0
2022-07-03 19:29:09 GMT 48.144562 -2.279045 37,000 159 454 0
2022-07-03 19:29:06 GMT 48.151356 -2.282762 37,000 159 454 0
2022-07-03 19:29:03 GMT 48.155682 -2.285156 37,000 159 454 64
2022-07-03 19:29:00 GMT 48.162460 -2.288889 36,925 159 454 0
2022-07-03 19:28:57 GMT 48.170929 -2.293537 36,925 159 453 640
2022-07-03 19:28:53 GMT 48.182922 -2.300157 36,975 159 454 320
2022-07-03 19:28:50 GMT 48.182922 -2.300157 36,975 159 453 640
2022-07-03 19:28:47 GMT 48.189377 -2.303748 36,950 159 453 640
2022-07-03 19:28:45 GMT 48.192123 -2.305298 36,925 159 454 768
2022-07-03 19:28:41 GMT 48.201965 -2.310721 36,875 159 454 448
2022-07-03 19:28:38 GMT 48.206985 -2.313489 36,850 159 454 960
2022-07-03 19:28:35 GMT 48.217224 -2.319199 36,775 159 453 832
2022-07-03 19:28:32 GMT 48.217224 -2.319199 36,775 159 454 960
2022-07-03 19:28:29 GMT 48.228817 -2.325632 36,725 159 454 1152
2022-07-03 19:28:26 GMT 48.228817 -2.325632 36,700 159 454 1216
2022-07-03 19:28:24 GMT 48.232540 -2.327728 36,650 159 455 1408
2022-07-03 19:28:21 GMT 48.239059 -2.331414 34,325 159 450 1536
2022-07-03 19:28:18 GMT 48.245155 -2.334812 36,425 159 458 1344
2022-07-03 19:28:15 GMT 48.249111 -2.337052 36,450 159 458 1344
2022-07-03 19:28:12 GMT 48.257633 -2.341823 36,375 159 459 1216
2022-07-03 19:28:09 GMT 48.266876 -2.347060 36,275 159 460 832
2022-07-03 19:28:05 GMT 48.269669 -2.348609 36,250 159 460 128
2022-07-03 19:28:02 GMT 48.278824 -2.353750 36,225 159 459 64
2022-07-03 19:27:58 GMT 48.289661 -2.359820 36,225 159 459 0
2022-07-03 19:27:56 GMT 48.289661 -2.359820 36,225 159 457 64
2022-07-03 19:27:53 GMT 48.294708 -2.362694 36,225 159 457 64
2022-07-03 19:27:51 GMT 48.298599 -2.364807 36,225 159 456 0
2022-07-03 19:27:48 GMT 48.305302 -2.368566 36,225 159 455 0
2022-07-03 19:27:45 GMT 48.309174 -2.370723 36,225 159 455 0
2022-07-03 19:27:43 GMT 48.315445 -2.374315 36,225 159 454 192
2022-07-03 19:27:40 GMT 48.326065 -2.380230 36,225 159 453 256
2022-07-03 19:27:37 GMT 48.326065 -2.380230 36,200 159 453 256
2022-07-03 19:27:35 GMT 48.331146 -2.383118 36,200 159 452 192
2022-07-03 19:27:33 GMT 48.334396 -2.384901 36,200 159 451 64
2022-07-03 19:27:29 GMT 48.344101 -2.390371 36,200 159 451 0
2022-07-03 19:27:26 GMT 48.348175 -2.392625 36,200 159 450 -64
2022-07-03 19:27:20 GMT 48.359398 -2.398923 36,200 159 448 -64
2022-07-03 19:27:16 GMT 48.367401 -2.403471 36,200 159 447 192
2022-07-03 19:27:14 GMT 48.370514 -2.405161 36,150 159 446 1024
2022-07-03 19:27:09 GMT 48.387234 -2.414607 36,100 159 446 1088
2022-07-03 19:27:06 GMT 48.387234 -2.414607 36,100 159 446 1088
2022-07-03 19:27:04 GMT 48.390198 -2.416288 35,925 159 447 1408
2022-07-03 19:27:01 GMT 48.404343 -2.424176 35,925 159 448 1472
2022-07-03 19:26:57 GMT 48.404343 -2.424176 35,875 159 448 1536
2022-07-03 19:26:55 GMT 48.408554 -2.426461 35,800 159 448 1536
2022-07-03 19:26:53 GMT 48.411442 -2.428123 35,775 159 448 1536
2022-07-03 19:26:51 GMT 48.415237 -2.430232 35,725 159 450 1472
2022-07-03 19:26:48 GMT 48.420914 -2.433331 35,600 160 452 1216
2022-07-03 19:26:45 GMT 48.436718 -2.441856 35,550 160 451 1024
2022-07-03 19:26:41 GMT 48.436718 -2.441856 35,475 160 452 960
2022-07-03 19:26:38 GMT 48.442291 -2.444881 35,425 160 451 896
2022-07-03 19:26:35 GMT 48.445934 -2.446843 35,425 160 452 832
2022-07-03 19:26:33 GMT 48.457855 -2.453120 35,350 159 451 384
2022-07-03 19:26:29 GMT 48.457855 -2.453120 35,325 160 451 512
2022-07-03 19:26:27 GMT 48.462982 -2.455867 35,325 160 452 448
2022-07-03 19:26:24 GMT 48.469070 -2.459177 35,325 159 451 384
2022-07-03 19:26:22 GMT 48.474426 -2.462311 35,300 157 452 256
2022-07-03 19:26:19 GMT 48.478477 -2.464841 35,300 156 452 256
2022-07-03 19:26:17 GMT 48.481430 -2.466783 35,275 153 453 384
2022-07-03 19:26:14 GMT 48.488205 -2.471783 35,275 152 454 512
2022-07-03 19:26:08 GMT 48.499512 -2.481502 35,025 142 459 1664
2022-07-03 19:26:05 GMT 48.503845 -2.485729 35,100 145 457 1280
2022-07-03 19:26:03 GMT 48.510864 -2.493192 35,075 143 459 1600
2022-07-03 19:26:01 GMT 48.510864 -2.493192 35,000 141 462 1728
2022-07-03 19:25:58 GMT 48.516647 -2.499968 34,950 140 463 1792
2022-07-03 19:25:55 GMT 48.520706 -2.504953 34,775 140 465 1664
2022-07-03 19:25:53 GMT 48.524937 -2.510159 34,775 140 465 1664
2022-07-03 19:25:50 GMT 48.529999 -2.516433 34,675 140 466 1600
2022-07-03 19:25:48 GMT 48.533222 -2.520495 34,600 140 466 1600
2022-07-03 19:25:45 GMT 48.541443 -2.530729 34,500 140 467 1472
2022-07-03 19:25:43 GMT 48.541443 -2.530729 34,525 140 468 960
2022-07-03 19:25:38 GMT 48.550354 -2.541817 34,400 140 468 896
2022-07-03 19:25:35 GMT 48.554871 -2.547383 34,375 140 468 768
2022-07-03 19:25:33 GMT 48.558220 -2.551502 34,350 140 468 640
2022-07-03 19:25:29 GMT 48.564739 -2.559598 34,325 140 467 384
2022-07-03 19:25:26 GMT 48.569904 -2.565958 34,300 140 466 128
2022-07-03 19:25:24 GMT 48.572617 -2.569392 34,300 140 465 64
2022-07-03 19:25:22 GMT 48.575863 -2.573403 34,300 140 464 0
2022-07-03 19:25:20 GMT 48.581032 -2.579763 34,300 140 463 0
2022-07-03 19:25:17 GMT 48.585316 -2.585040 34,300 140 461 64
2022-07-03 19:25:14 GMT 48.589130 -2.589810 34,300 140 462 0
2022-07-03 19:25:11 GMT 48.593739 -2.595520 34,300 140 461 192
2022-07-03 19:25:08 GMT 48.598892 -2.601929 34,300 140 460 256
2022-07-03 19:25:06 GMT 48.603889 -2.608096 34,275 140 459 576
2022-07-03 19:25:03 GMT 48.607334 -2.612361 34,200 140 458 1024
2022-07-03 19:25:01 GMT 48.612408 -2.618649 34,200 140 458 1088
2022-07-03 19:24:58 GMT 48.615784 -2.622845 34,125 140 459 1664
2022-07-03 19:24:55 GMT 48.621323 -2.629747 34,075 140 459 1728
2022-07-03 19:24:52 GMT 48.625443 -2.634817 33,925 140 460 1792
2022-07-03 19:24:50 GMT 48.628555 -2.638691 33,950 140 460 1792
2022-07-03 19:24:48 GMT 48.631989 -2.642916 33,825 140 461 1664
2022-07-03 19:24:45 GMT 48.637115 -2.649184 33,825 140 461 1600
2022-07-03 19:24:43 GMT 48.640339 -2.653198 33,750 140 461 1536
2022-07-03 19:24:41 GMT 48.643318 -2.656812 33,725 140 462 1472
2022-07-03 19:24:39 GMT 48.646729 -2.661015 33,600 140 463 1344
2022-07-03 19:24:36 GMT 48.652767 -2.668449 33,575 140 464 1344
2022-07-03 19:24:34 GMT 48.654373 -2.670382 33,575 140 464 1280
2022-07-03 19:24:31 GMT 48.660004 -2.677354 33,500 140 464 1152
2022-07-03 19:24:28 GMT 48.664627 -2.683129 33,450 140 464 768
2022-07-03 19:24:26 GMT 48.671295 -2.691506 33,400 140 464 512
2022-07-03 19:24:22 GMT 48.676231 -2.697722 33,375 140 463 384
2022-07-03 19:24:18 GMT 48.687469 -2.711933 33,325 139 461 384
2022-07-03 19:24:15 GMT 48.690079 -2.715243 33,350 139 460 576
2022-07-03 19:24:13 GMT 48.690079 -2.715243 33,200 139 460 640
2022-07-03 19:24:10 GMT 48.696014 -2.722802 33,275 140 460 1152
2022-07-03 19:24:07 GMT 48.699188 -2.726793 33,200 139 460 1088
2022-07-03 19:24:04 GMT 48.704441 -2.733572 33,175 140 460 1152
2022-07-03 19:24:01 GMT 48.708675 -2.738921 33,150 140 460 1152
2022-07-03 19:23:58 GMT 48.715164 -2.747005 33,050 140 459 1216
2022-07-03 19:23:55 GMT 48.718277 -2.750878 32,925 141 460 1472
2022-07-03 19:23:53 GMT 48.721710 -2.755174 32,975 140 460 1408
2022-07-03 19:23:51 GMT 48.725109 -2.759303 32,925 141 460 1472
2022-07-03 19:23:49 GMT 48.729034 -2.763977 32,825 141 460 1536
2022-07-03 19:23:46 GMT 48.735031 -2.771160 32,775 142 461 1600
2022-07-03 19:23:44 GMT 48.737595 -2.774048 32,725 143 461 1600
2022-07-03 19:23:41 GMT 48.742847 -2.779830 32,625 146 460 1664
2022-07-03 19:23:36 GMT 48.752335 -2.789401 32,500 148 460 1728
2022-07-03 19:23:33 GMT 48.756065 -2.792768 32,475 149 460 1792
2022-07-03 19:23:30 GMT 48.761421 -2.797394 32,300 152 461 1984
2022-07-03 19:23:28 GMT 48.766251 -2.801162 32,250 158 469 1920
2022-07-03 19:23:26 GMT 48.776550 -2.808525 32,100 155 461 2112
2022-07-03 19:23:23 GMT 48.776550 -2.808525 32,075 156 461 2112
2022-07-03 19:23:20 GMT 48.781670 -2.811705 32,000 158 462 2240
2022-07-03 19:23:16 GMT 48.789211 -2.816331 31,525 158 464 1984
2022-07-03 19:23:13 GMT 48.796280 -2.820599 31,750 158 464 2048
2022-07-03 19:23:10 GMT 48.802231 -2.824191 31,625 158 466 1920
2022-07-03 19:23:07 GMT 48.814770 -2.831798 31,475 158 469 1856
2022-07-03 19:23:04 GMT 48.814770 -2.831798 31,475 158 468 1920
2022-07-03 19:23:01 GMT 48.819077 -2.834332 31,350 158 469 1920
2022-07-03 19:22:58 GMT 48.826355 -2.838698 31,250 158 469 1856
2022-07-03 19:22:56 GMT 48.830383 -2.841163 31,150 158 470 1728
2022-07-03 19:22:53 GMT 48.835236 -2.844050 31,125 158 470 1728
2022-07-03 19:22:50 GMT 48.841816 -2.847989 30,650 158 471 1664
2022-07-03 19:22:46 GMT 48.855698 -2.856234 30,875 158 471 1600
2022-07-03 19:22:43 GMT 48.855698 -2.856234 30,800 158 472 1536
2022-07-03 19:22:41 GMT 48.859646 -2.858614 30,725 158 473 1536
2022-07-03 19:22:38 GMT 48.866161 -2.862444 30,675 158 472 1472
2022-07-03 19:22:35 GMT 48.872261 -2.866058 30,625 158 472 1344
2022-07-03 19:22:33 GMT 48.876846 -2.868699 30,525 158 472 1216
2022-07-03 19:22:29 GMT 48.888474 -2.875531 30,450 158 472 1216
2022-07-03 19:22:24 GMT 48.894608 -2.879122 30,425 158 472 1216
2022-07-03 19:22:21 GMT 48.907013 -2.886376 30,175 158 472 1280
2022-07-03 19:22:18 GMT 48.907013 -2.886376 30,250 158 472 1216
2022-07-03 19:22:15 GMT 48.913227 -2.890055 30,175 158 472 1088
2022-07-03 19:22:12 GMT 48.918411 -2.893066 30,125 158 472 960
2022-07-03 19:22:09 GMT 48.925964 -2.897503 30,125 158 471 704
2022-07-03 19:22:06 GMT 48.930222 -2.900038 30,075 158 471 704
2022-07-03 19:22:04 GMT 48.934593 -2.902631 30,075 158 471 704
2022-07-03 19:22:03 GMT 48.937855 -2.904583 30,050 158 472 576
2022-07-03 19:21:58 GMT 48.947163 -2.910220 30,000 158 471 320
2022-07-03 19:21:56 GMT 48.953705 -2.914264 30,000 157 472 0
2022-07-03 19:21:55 GMT 48.953705 -2.914264 30,000 157 472 0
2022-07-03 19:21:53 GMT 48.957779 -2.916729 30,000 157 472 0
2022-07-03 19:21:52 GMT 48.959793 -2.917997 30,000 157 472 0
2022-07-03 19:21:49 GMT 48.966763 -2.922363 30,000 156 473 0
2022-07-03 19:21:46 GMT 48.972816 -2.926266 30,000 156 473 0
2022-07-03 19:21:44 GMT 48.976913 -2.928913 30,000 156 473 0
2022-07-03 19:21:42 GMT 48.980942 -2.931589 30,000 156 473 0
2022-07-03 19:21:40 GMT 48.984512 -2.933983 30,000 155 474 0
2022-07-03 19:21:38 GMT 48.989807 -2.937614 30,000 155 473 0
2022-07-03 19:21:36 GMT 48.992832 -2.939638 30,000 155 473 0
2022-07-03 19:21:35 GMT 48.994904 -2.941096 30,000 155 474 0
2022-07-03 19:21:33 GMT 49.002686 -2.946519 30,000 155 474 0
2022-07-03 19:21:31 GMT 49.002686 -2.946519 30,000 155 474 0
2022-07-03 19:21:29 GMT 49.010754 -2.952070 30,000 155 474 0
2022-07-03 19:21:27 GMT 49.010754 -2.952070 30,000 155 474 0
2022-07-03 19:21:26 GMT 49.012569 -2.953298 30,000 155 474 0
2022-07-03 19:21:23 GMT 49.020344 -2.958719 30,000 155 474 0
2022-07-03 19:21:20 GMT 49.024532 -2.961683 30,000 155 474 0
2022-07-03 19:21:17 GMT 49.028679 -2.964574 30,000 155 474 0
2022-07-03 19:21:16 GMT 49.030792 -2.966027 30,000 155 474 0
2022-07-03 19:21:14 GMT 49.036743 -2.970182 30,000 155 473 0
2022-07-03 19:21:12 GMT 49.039433 -2.972091 30,000 155 473 0
2022-07-03 19:21:10 GMT 49.044598 -2.975705 30,000 155 474 0
2022-07-03 19:21:08 GMT 49.048920 -2.978633 30,000 155 474 0
2022-07-03 19:21:07 GMT 49.050789 -2.979969 30,000 155 474 0
2022-07-03 19:21:06 GMT 49.054977 -2.982933 30,000 155 474 0
2022-07-03 19:21:04 GMT 49.056839 -2.984197 30,000 155 473 0
2022-07-03 19:21:02 GMT 49.058937 -2.985679 30,000 155 473 0
2022-07-03 19:21:01 GMT 49.063126 -2.988570 30,000 155 473 0
2022-07-03 19:20:58 GMT 49.070667 -2.993919 30,000 155 473 0
2022-07-03 19:20:56 GMT 49.070667 -2.993919 30,000 155 473 0
2022-07-03 19:20:53 GMT 49.076439 -2.997967 30,000 155 473 0
2022-07-03 19:20:51 GMT 49.080505 -3.000817 30,000 155 473 0
2022-07-03 19:20:49 GMT 49.084774 -3.003749 30,000 155 473 0
2022-07-03 19:20:47 GMT 49.088730 -3.006568 30,000 155 473 0
2022-07-03 19:20:45 GMT 49.092499 -3.009170 30,000 155 473 0
2022-07-03 19:20:43 GMT 49.096874 -3.012278 30,000 155 473 0
2022-07-03 19:20:41 GMT 49.100967 -3.015113 30,000 155 473 0
2022-07-03 19:20:40 GMT 49.102936 -3.016522 30,000 155 473 0
2022-07-03 19:20:39 GMT 49.105022 -3.017988 30,000 155 473 0
2022-07-03 19:20:37 GMT 49.108475 -3.020395 30,000 155 473 0
2022-07-03 19:20:35 GMT 49.112640 -3.023283 30,000 155 473 0
2022-07-03 19:20:34 GMT 49.114334 -3.024493 30,000 155 473 0
2022-07-03 19:20:32 GMT 49.119499 -3.028107 30,000 155 473 0
2022-07-03 19:20:29 GMT 49.123764 -3.031100 30,000 155 473 0
2022-07-03 19:20:28 GMT 49.126740 -3.033213 30,000 155 473 0
2022-07-03 19:20:26 GMT 49.135300 -3.039199 30,000 155 473 0
2022-07-03 19:20:24 GMT 49.135300 -3.039199 30,000 155 473 0
2022-07-03 19:20:22 GMT 49.140171 -3.042635 30,000 155 473 0
2022-07-03 19:20:19 GMT 49.144455 -3.045607 30,000 155 473 0
2022-07-03 19:20:18 GMT 49.146606 -3.047157 30,000 155 473 0
2022-07-03 19:20:17 GMT 49.148502 -3.048489 30,000 155 473 0
2022-07-03 19:20:15 GMT 49.152374 -3.051241 30,000 155 473 0
2022-07-03 19:20:13 GMT 49.156952 -3.054410 30,000 155 473 0
2022-07-03 19:20:12 GMT 49.159023 -3.055934 30,000 155 473 -64
2022-07-03 19:20:10 GMT 49.162609 -3.058464 30,000 155 474 -64
2022-07-03 19:20:09 GMT 49.164688 -3.059904 30,000 155 474 0
2022-07-03 19:20:07 GMT 49.168854 -3.062862 30,000 155 474 0
2022-07-03 19:20:05 GMT 49.174713 -3.066993 30,000 155 474 0
2022-07-03 19:20:04 GMT 49.174713 -3.066993 30,000 155 474 0
2022-07-03 19:20:03 GMT 49.176899 -3.068583 30,000 155 474 0
2022-07-03 19:20:01 GMT 49.179977 -3.070749 30,000 155 474 0
2022-07-03 19:19:58 GMT 49.187347 -3.075961 30,000 155 474 0
2022-07-03 19:19:56 GMT 49.194717 -3.081172 30,000 155 474 0
2022-07-03 19:19:54 GMT 49.194717 -3.081172 30,000 155 474 0
2022-07-03 19:19:52 GMT 49.198780 -3.084050 30,000 155 474 0
2022-07-03 19:19:51 GMT 49.200668 -3.085327 30,000 155 474 0
2022-07-03 19:19:50 GMT 49.202866 -3.086806 30,000 155 474 0
2022-07-03 19:19:48 GMT 49.207207 -3.089760 30,000 156 474 0
2022-07-03 19:19:46 GMT 49.211517 -3.092581 30,000 158 473 0
2022-07-03 19:19:44 GMT 49.219437 -3.097440 30,000 158 473 0
2022-07-03 19:19:42 GMT 49.219437 -3.097440 30,000 160 472 0
2022-07-03 19:19:40 GMT 49.223637 -3.099879 30,000 161 473 0
2022-07-03 19:19:38 GMT 49.229736 -3.102933 30,000 163 472 0
2022-07-03 19:19:36 GMT 49.232025 -3.104060 30,000 163 471 0
2022-07-03 19:19:35 GMT 49.234020 -3.104939 30,000 164 470 0
2022-07-03 19:19:32 GMT 49.240116 -3.107396 30,000 165 471 0
2022-07-03 19:19:31 GMT 49.244308 -3.108986 30,000 168 469 0
2022-07-03 19:19:28 GMT 49.247589 -3.110046 30,000 168 469 0
2022-07-03 19:19:26 GMT 49.251942 -3.111371 30,000 170 468 0
2022-07-03 19:19:23 GMT 49.259308 -3.113216 30,000 172 466 64
2022-07-03 19:19:20 GMT 49.264893 -3.114272 30,000 174 465 64
2022-07-03 19:19:17 GMT 49.272171 -3.115258 29,975 179 463 128
2022-07-03 19:19:15 GMT 49.278244 -3.115708 29,975 179 463 128
2022-07-03 19:19:12 GMT 49.282654 -3.115892 29,975 181 463 128
2022-07-03 19:19:10 GMT 49.286041 -3.115892 29,975 181 462 128
2022-07-03 19:19:08 GMT 49.290440 -3.115708 29,975 183 461 128
2022-07-03 19:19:05 GMT 49.296936 -3.115258 29,975 185 461 128
2022-07-03 19:19:03 GMT 49.302429 -3.114554 29,950 186 460 192
2022-07-03 19:19:02 GMT 49.304218 -3.114263 29,950 188 459 256
2022-07-03 19:19:00 GMT 49.308746 -3.113356 29,950 188 459 320
2022-07-03 19:18:59 GMT 49.310669 -3.113004 29,950 189 458 448
2022-07-03 19:18:56 GMT 49.316071 -3.111666 29,925 191 457 576
2022-07-03 19:18:55 GMT 49.321243 -3.110117 29,900 193 454 896
2022-07-03 19:18:52 GMT 49.325592 -3.108708 29,875 194 453 1024
2022-07-03 19:18:50 GMT 49.329254 -3.107370 29,850 195 452 1024
2022-07-03 19:18:49 GMT 49.333282 -3.105750 29,825 197 449 832
2022-07-03 19:18:46 GMT 49.340343 -3.102481 29,775 199 447 704
2022-07-03 19:18:44 GMT 49.342209 -3.101525 29,750 200 447 768
2022-07-03 19:18:41 GMT 49.347141 -3.098867 29,725 201 445 640
2022-07-03 19:18:39 GMT 49.349094 -3.097711 29,700 202 445 576
2022-07-03 19:18:38 GMT 49.352051 -3.095961 29,700 203 444 384
2022-07-03 19:18:37 GMT 49.353790 -3.094905 29,700 203 444 384
2022-07-03 19:18:36 GMT 49.357956 -3.092229 29,675 203 446 192
2022-07-03 19:18:34 GMT 49.359943 -3.090989 29,675 203 446 192
2022-07-03 19:18:32 GMT 49.363861 -3.088496 29,675 203 446 64
2022-07-03 19:18:30 GMT 49.367577 -3.086146 29,675 203 446 0
2022-07-03 19:18:28 GMT 49.371162 -3.083833 29,675 203 446 0
2022-07-03 19:18:26 GMT 49.374794 -3.081520 29,675 203 446 0
2022-07-03 19:18:25 GMT 49.376816 -3.080257 29,675 203 446 0
2022-07-03 19:18:23 GMT 49.382984 -3.076316 29,675 203 447 0
2022-07-03 19:18:21 GMT 49.384781 -3.075186 29,675 203 447 0
2022-07-03 19:18:20 GMT 49.388626 -3.072721 29,700 203 447 -64
2022-07-03 19:18:17 GMT 49.392059 -3.070538 29,700 203 446 -64
2022-07-03 19:18:16 GMT 49.393833 -3.069378 29,700 203 446 -64
2022-07-03 19:18:15 GMT 49.396721 -3.067571 29,700 203 446 -64
2022-07-03 19:18:13 GMT 49.402496 -3.063847 29,725 203 446 -64
2022-07-03 19:18:11 GMT 49.404724 -3.062511 29,725 203 446 -64
2022-07-03 19:18:09 GMT 49.407486 -3.060749 29,725 203 446 0
2022-07-03 19:18:07 GMT 49.410324 -3.058918 29,725 203 446 0
2022-07-03 19:18:06 GMT 49.412128 -3.057741 29,725 203 446 0
2022-07-03 19:18:04 GMT 49.416691 -3.054850 29,725 203 446 64
2022-07-03 19:18:03 GMT 49.418289 -3.053777 29,725 203 447 64
2022-07-03 19:18:01 GMT 49.421997 -3.051453 29,725 203 447 64
2022-07-03 19:17:59 GMT 49.425934 -3.048988 29,700 203 448 -192
2022-07-03 19:17:56 GMT 49.433807 -3.044008 29,725 203 449 -448
2022-07-03 19:17:54 GMT 49.434723 -3.043430 29,725 202 451 -640
2022-07-03 19:17:53 GMT 49.437733 -3.041580 29,725 202 453 -896
2022-07-03 19:17:52 GMT 49.439758 -3.040322 29,750 202 454 -1088
2022-07-03 19:17:51 GMT 49.443878 -3.037864 29,775 201 455 -1472
2022-07-03 19:17:49 GMT 49.446159 -3.036532 29,875 201 456 -1792
2022-07-03 19:17:47 GMT 49.450378 -3.034106 29,875 199 458 -2304
2022-07-03 19:17:46 GMT 49.452393 -3.033022 29,925 199 458 -2624
2022-07-03 19:17:44 GMT 49.456493 -3.030965 30,025 197 460 -3072
2022-07-03 19:17:43 GMT 49.458309 -3.030074 30,075 196 460 -3264
2022-07-03 19:17:40 GMT 49.467384 -3.026362 30,325 194 461 -3904
2022-07-03 19:17:38 GMT 49.469433 -3.025620 30,600 191 460 -4160
2022-07-03 19:17:35 GMT 49.477661 -3.022975 30,750 190 460 -4160
2022-07-03 19:17:32 GMT 49.479675 -3.022428 30,750 190 460 -4160
2022-07-03 19:17:30 GMT 49.485958 -3.020943 31,100 188 460 -4160
2022-07-03 19:17:29 GMT 49.485958 -3.020943 31,100 187 459 -4160
2022-07-03 19:17:27 GMT 49.490524 -3.020156 31,425 177 456 -4608
2022-07-03 19:17:25 GMT 49.495689 -3.019384 31,425 177 456 -4608
2022-07-03 19:17:23 GMT 49.500641 -3.018927 31,500 183 458 -4544
2022-07-03 19:17:20 GMT 49.505081 -3.018638 31,675 178 456 -4544
2022-07-03 19:17:18 GMT 49.509338 -3.018566 31,750 178 456 -4544
2022-07-03 19:17:16 GMT 49.513550 -3.018638 31,900 177 455 -4608
2022-07-03 19:17:14 GMT 49.517662 -3.018939 32,050 175 455 -4608
2022-07-03 19:17:12 GMT 49.524033 -3.019578 32,275 174 454 -4480
2022-07-03 19:17:10 GMT 49.525909 -3.019867 32,350 173 454 -4096
2022-07-03 19:17:08 GMT 49.530186 -3.020572 32,475 171 453 -3840
2022-07-03 19:17:06 GMT 49.536190 -3.021834 32,675 169 453 -3456
2022-07-03 19:17:03 GMT 49.546783 -3.024926 33,075 166 453 -2432
2022-07-03 19:17:01 GMT 49.551182 -3.026511 32,975 166 453 -2496
2022-07-03 19:16:58 GMT 49.551182 -3.026511 33,025 165 453 -2304
2022-07-03 19:16:56 GMT 49.556763 -3.028757 33,100 163 454 -1728
2022-07-03 19:16:53 GMT 49.561981 -3.031070 33,225 162 456 -1344
2022-07-03 19:16:50 GMT 49.568207 -3.034250 33,250 160 456 -1152
2022-07-03 19:16:48 GMT 49.576225 -3.038685 33,300 159 458 -896
2022-07-03 19:16:46 GMT 49.576225 -3.038685 33,300 159 458 -832
2022-07-03 19:16:44 GMT 49.580414 -3.041134 33,375 159 459 -768
2022-07-03 19:16:41 GMT 49.586060 -3.044369 33,375 159 460 -640
2022-07-03 19:16:39 GMT 49.589725 -3.046479 33,400 159 459 -768
2022-07-03 19:16:37 GMT 49.595032 -3.049501 33,425 159 460 -576
2022-07-03 19:16:34 GMT 49.603958 -3.054633 33,450 159 460 -448
2022-07-03 19:16:32 GMT 49.609131 -3.057596 33,475 159 459 192
2022-07-03 19:16:29 GMT 49.609131 -3.057596 33,450 159 459 384
2022-07-03 19:16:27 GMT 49.614304 -3.060560 33,450 159 459 512
2022-07-03 19:16:24 GMT 49.622452 -3.065258 33,400 159 460 1344
2022-07-03 19:16:22 GMT 49.627991 -3.068438 33,150 159 460 1344
2022-07-03 19:16:20 GMT 49.627991 -3.068438 33,325 159 460 1344
2022-07-03 19:16:18 GMT 49.631790 -3.070606 33,275 159 460 1344
2022-07-03 19:16:16 GMT 49.636883 -3.073574 33,200 159 460 1344
2022-07-03 19:16:13 GMT 49.642235 -3.076691 33,150 159 461 1280
2022-07-03 19:16:10 GMT 49.647125 -3.079497 33,100 159 461 1280
2022-07-03 19:16:08 GMT 49.652802 -3.082779 33,050 159 461 1344
2022-07-03 19:16:05 GMT 49.657597 -3.085525 33,000 159 462 1344
2022-07-03 19:16:03 GMT 49.661976 -3.088123 32,950 159 462 1344
2022-07-03 19:16:00 GMT 49.667980 -3.091538 32,850 159 463 1280
2022-07-03 19:15:57 GMT 49.672775 -3.094359 32,825 159 462 1344
2022-07-03 19:15:54 GMT 49.686493 -3.102264 32,700 159 463 1280
2022-07-03 19:15:51 GMT 49.686493 -3.102264 32,675 159 463 1280
2022-07-03 19:15:49 GMT 49.688602 -3.103489 32,675 159 463 1280
2022-07-03 19:15:46 GMT 49.695816 -3.107646 32,575 159 463 1280
2022-07-03 19:15:43 GMT 49.700798 -3.110541 32,550 159 463 1280
2022-07-03 19:15:41 GMT 49.707222 -3.114253 32,450 159 463 1280
2022-07-03 19:15:38 GMT 49.710621 -3.116183 32,325 159 463 1280
2022-07-03 19:15:36 GMT 49.714622 -3.118558 32,325 159 463 1280
2022-07-03 19:15:34 GMT 49.718536 -3.120768 32,325 159 463 1344
2022-07-03 19:15:32 GMT 49.725052 -3.124571 32,300 159 463 1344
2022-07-03 19:15:29 GMT 49.733368 -3.129369 32,200 159 464 1344
2022-07-03 19:15:25 GMT 49.737293 -3.131623 32,125 159 464 1344
2022-07-03 19:15:23 GMT 49.741299 -3.133924 32,025 159 464 1344
2022-07-03 19:15:20 GMT 49.748428 -3.138042 31,975 159 464 1344
2022-07-03 19:15:17 GMT 49.753357 -3.140902 31,950 159 464 1344
2022-07-03 19:15:14 GMT 49.760284 -3.144981 31,875 159 464 1344
2022-07-03 19:15:12 GMT 49.763412 -3.146766 31,850 159 464 1344
2022-07-03 19:15:09 GMT 49.769531 -3.150330 31,725 159 464 1344
2022-07-03 19:15:07 GMT 49.779659 -3.156194 31,625 159 464 1344
2022-07-03 19:15:04 GMT 49.779659 -3.156194 31,600 159 465 1472
2022-07-03 19:15:02 GMT 49.782394 -3.157774 31,650 159 464 1344
2022-07-03 19:15:00 GMT 49.786316 -3.160054 31,500 159 464 1408
2022-07-03 19:14:57 GMT 49.793243 -3.164135 31,500 159 465 1536
2022-07-03 19:14:54 GMT 49.799469 -3.167749 31,025 162 471 1536
2022-07-03 19:14:52 GMT 49.803680 -3.170206 31,225 159 466 1728
2022-07-03 19:14:49 GMT 49.810802 -3.174455 31,275 159 466 1728
2022-07-03 19:14:46 GMT 49.815170 -3.177000 31,225 158 467 1728
2022-07-03 19:14:44 GMT 49.819695 -3.179651 31,150 158 469 1728
2022-07-03 19:14:42 GMT 49.823929 -3.182175 30,925 158 468 1728
2022-07-03 19:14:39 GMT 49.830276 -3.185963 31,000 158 469 1728
2022-07-03 19:14:37 GMT 49.833195 -3.187742 30,950 158 468 1664
2022-07-03 19:14:35 GMT 49.838451 -3.190860 30,900 158 469 1728
2022-07-03 19:14:33 GMT 49.848740 -3.197096 30,800 158 469 1728
2022-07-03 19:14:30 GMT 49.855087 -3.200997 30,700 158 470 1664
2022-07-03 19:14:27 GMT 49.860241 -3.204148 30,575 158 470 1536
2022-07-03 19:14:24 GMT 49.860241 -3.204148 30,575 158 471 1536
2022-07-03 19:14:22 GMT 49.864708 -3.206894 30,500 158 471 1536
2022-07-03 19:14:19 GMT 49.870697 -3.210538 30,450 159 471 1536
2022-07-03 19:14:17 GMT 49.873833 -3.212387 30,350 160 471 1536
2022-07-03 19:14:15 GMT 49.879139 -3.215431 30,350 160 471 1536
2022-07-03 19:14:13 GMT 49.882919 -3.217476 30,100 162 471 1536
2022-07-03 19:14:10 GMT 49.889057 -3.220479 30,100 165 470 1536
2022-07-03 19:14:07 GMT 49.895340 -3.223151 30,125 166 471 1536
2022-07-03 19:14:04 GMT 49.902237 -3.225716 30,075 167 470 1536
2022-07-03 19:14:02 GMT 49.905300 -3.226640 30,025 169 469 1536
2022-07-03 19:14:00 GMT 49.910339 -3.228029 29,975 171 468 1472
2022-07-03 19:13:57 GMT 49.915466 -3.229185 29,900 173 468 1536
2022-07-03 19:13:55 GMT 49.927551 -3.230920 29,800 175 468 1664
2022-07-03 19:13:52 GMT 49.927551 -3.230920 29,750 178 467 1920
2022-07-03 19:13:50 GMT 49.931854 -3.231281 29,700 178 467 1920
2022-07-03 19:13:48 GMT 49.935745 -3.231426 29,650 182 466 2240
2022-07-03 19:13:46 GMT 49.939705 -3.231391 29,525 181 467 2176
2022-07-03 19:13:43 GMT 49.948654 -3.230992 29,225 187 467 2048
2022-07-03 19:13:40 GMT 49.955021 -3.230203 29,300 186 467 2176
2022-07-03 19:13:37 GMT 49.959488 -3.229535 29,175 187 467 2048
2022-07-03 19:13:34 GMT 49.966145 -3.228496 29,125 187 467 1792
2022-07-03 19:13:32 GMT 49.978855 -3.226343 29,025 187 468 1472
2022-07-03 19:13:29 GMT 49.978855 -3.226343 28,900 187 468 1216
2022-07-03 19:13:26 GMT 49.983032 -3.225644 28,925 187 467 1344
2022-07-03 19:13:23 GMT 49.995483 -3.223475 28,825 187 467 1408
2022-07-03 19:13:20 GMT 49.995483 -3.223475 28,650 187 467 1408
2022-07-03 19:13:17 GMT 50.002991 -3.222247 28,725 187 467 1408
2022-07-03 19:13:14 GMT 50.010315 -3.221018 28,500 187 467 1280
2022-07-03 19:13:10 GMT 50.017075 -3.219885 28,500 187 467 1280
2022-07-03 19:13:07 GMT 50.024384 -3.218623 28,500 187 466 1344
2022-07-03 19:13:04 GMT 50.030914 -3.217476 28,450 187 466 1344
2022-07-03 19:13:02 GMT 50.035275 -3.216767 28,300 187 428 1024
2022-07-03 19:13:00 GMT 50.038536 -3.216173 28,300 187 466 1280
2022-07-03 19:12:57 GMT 50.044727 -3.215134 28,250 187 466 1344
2022-07-03 19:12:55 GMT 50.049316 -3.214368 28,250 187 466 1280
2022-07-03 19:12:53 GMT 50.052219 -3.213872 28,225 187 466 1280
2022-07-03 19:12:51 GMT 50.058643 -3.212833 28,000 187 465 1216
2022-07-03 19:12:48 GMT 50.068283 -3.211200 28,075 187 465 1152
2022-07-03 19:12:46 GMT 50.077148 -3.209670 28,025 187 464 1088
2022-07-03 19:12:43 GMT 50.082275 -3.208803 27,775 187 464 1088
2022-07-03 19:12:40 GMT 50.082275 -3.208803 27,925 187 464 1088
2022-07-03 19:12:37 GMT 50.086945 -3.208008 27,875 187 463 1024
2022-07-03 19:12:35 GMT 50.090790 -3.207357 27,875 187 463 960
2022-07-03 19:12:33 GMT 50.095276 -3.206635 27,700 187 462 1024
2022-07-03 19:12:31 GMT 50.099609 -3.205855 27,775 187 462 1024
2022-07-03 19:12:29 GMT 50.105072 -3.204972 27,750 187 462 1024
2022-07-03 19:12:26 GMT 50.111530 -3.203851 27,650 187 461 960
2022-07-03 19:12:23 GMT 50.117569 -3.202876 27,675 187 461 960
2022-07-03 19:12:21 GMT 50.129311 -3.200882 27,125 187 459 1216
2022-07-03 19:12:17 GMT 50.133549 -3.200139 27,550 187 459 1024
2022-07-03 19:12:15 GMT 50.138077 -3.199407 27,450 187 459 1088
2022-07-03 19:12:13 GMT 50.143112 -3.198539 27,450 187 458 1280
2022-07-03 19:12:09 GMT 50.147552 -3.197817 27,425 187 458 1280
2022-07-03 19:12:06 GMT 50.154099 -3.196732 27,325 187 458 1408
2022-07-03 19:12:03 GMT 50.164085 -3.195017 27,200 187 458 1536
2022-07-03 19:12:01 GMT 50.167328 -3.194419 27,200 187 458 1472
2022-07-03 19:11:59 GMT 50.167328 -3.194419 27,050 187 457 1280
2022-07-03 19:11:57 GMT 50.173004 -3.193480 27,100 187 457 1280
2022-07-03 19:11:55 GMT 50.176285 -3.192939 27,075 187 457 1216
2022-07-03 19:11:53 GMT 50.188248 -3.190860 26,975 187 456 1280
2022-07-03 19:11:50 GMT 50.193508 -3.189969 26,925 187 456 1280
2022-07-03 19:11:47 GMT 50.193508 -3.189969 26,900 187 456 1280
2022-07-03 19:11:44 GMT 50.204212 -3.188114 26,800 187 455 1216
2022-07-03 19:11:40 GMT 50.214981 -3.186324 26,725 187 455 1152
2022-07-03 19:11:37 GMT 50.214981 -3.186324 26,700 187 455 1216
2022-07-03 19:11:35 GMT 50.218227 -3.185738 26,650 187 454 1216
2022-07-03 19:11:33 GMT 50.222488 -3.185023 26,625 187 454 1216
2022-07-03 19:11:31 GMT 50.228886 -3.183882 26,575 187 454 1280
2022-07-03 19:11:28 GMT 50.232101 -3.183361 26,425 187 453 1344
2022-07-03 19:11:26 GMT 50.237640 -3.182398 26,400 187 453 1344
2022-07-03 19:11:23 GMT 50.243134 -3.181482 26,400 187 453 1344
2022-07-03 19:11:21 GMT 50.248672 -3.180468 26,325 187 452 1536
2022-07-03 19:11:19 GMT 50.259472 -3.178686 26,275 187 452 1600
2022-07-03 19:11:16 GMT 50.259472 -3.178686 26,100 187 452 1600
2022-07-03 19:11:13 GMT 50.263916 -3.177868 26,125 187 452 1600
2022-07-03 19:11:10 GMT 50.270271 -3.176830 26,050 187 452 1600
2022-07-03 19:11:08 GMT 50.274227 -3.176088 26,000 187 452 1536
2022-07-03 19:11:06 GMT 50.278473 -3.175410 25,875 187 452 1472
2022-07-03 19:11:04 GMT 50.282455 -3.174687 25,900 187 451 1408
2022-07-03 19:11:02 GMT 50.287857 -3.173820 25,850 187 451 1344
2022-07-03 19:11:00 GMT 50.292896 -3.172896 25,800 187 451 1280
2022-07-03 19:10:58 GMT 50.296967 -3.172230 25,625 187 450 960
2022-07-03 19:10:55 GMT 50.301228 -3.171486 25,725 187 450 960
2022-07-03 19:10:53 GMT 50.306488 -3.170640 25,675 187 449 832
2022-07-03 19:10:51 GMT 50.309601 -3.170062 25,675 187 448 704
2022-07-03 19:10:49 GMT 50.321732 -3.168038 25,550 187 445 960
2022-07-03 19:10:46 GMT 50.326859 -3.167170 25,575 187 445 832
2022-07-03 19:10:43 GMT 50.326859 -3.167170 25,550 187 445 960
2022-07-03 19:10:40 GMT 50.332653 -3.166215 25,475 187 444 1216
2022-07-03 19:10:37 GMT 50.341217 -3.164805 25,400 187 443 1472
2022-07-03 19:10:34 GMT 50.345501 -3.164062 25,325 187 443 1600
2022-07-03 19:10:31 GMT 50.350388 -3.163246 25,300 187 442 1664
2022-07-03 19:10:29 GMT 50.356613 -3.162183 25,175 187 442 1856
2022-07-03 19:10:26 GMT 50.361877 -3.161316 25,125 187 442 1856
2022-07-03 19:10:22 GMT 50.374176 -3.159237 24,925 187 443 1920
2022-07-03 19:10:20 GMT 50.374176 -3.159237 24,950 187 443 1984
2022-07-03 19:10:18 GMT 50.379250 -3.158347 24,850 187 443 1984
2022-07-03 19:10:15 GMT 50.386002 -3.157233 24,775 187 443 1920
2022-07-03 19:10:12 GMT 50.395477 -3.155606 24,550 187 443 1856
2022-07-03 19:10:09 GMT 50.395477 -3.155606 24,625 187 443 1792
2022-07-03 19:10:06 GMT 50.401566 -3.154594 24,475 187 443 1664
2022-07-03 19:10:03 GMT 50.408810 -3.153299 24,425 187 443 1472
2022-07-03 19:10:00 GMT 50.414307 -3.152408 24,275 187 442 1216
2022-07-03 19:09:58 GMT 50.418354 -3.151666 24,275 187 438 832
2022-07-03 19:09:55 GMT 50.424133 -3.150691 24,275 187 441 1024
2022-07-03 19:09:53 GMT 50.429031 -3.149824 24,225 187 441 896
2022-07-03 19:09:51 GMT 50.432182 -3.149290 24,200 187 439 832
2022-07-03 19:09:48 GMT 50.439629 -3.147954 24,150 187 438 832
2022-07-03 19:09:45 GMT 50.444550 -3.147149 24,100 187 436 896
2022-07-03 19:09:42 GMT 50.451370 -3.145921 24,075 187 435 1152
2022-07-03 19:09:40 GMT 50.454163 -3.145415 24,050 187 435 1216
2022-07-03 19:09:38 GMT 50.459381 -3.144547 23,950 187 434 1408
2022-07-03 19:09:35 GMT 50.464371 -3.143680 23,925 187 434 1472
2022-07-03 19:09:33 GMT 50.469234 -3.142832 23,775 187 433 1792
2022-07-03 19:09:30 GMT 50.474823 -3.141793 23,775 187 433 1792
2022-07-03 19:09:28 GMT 50.478699 -3.141150 23,750 187 433 1792
2022-07-03 19:09:26 GMT 50.485840 -3.139849 23,625 187 433 1728
2022-07-03 19:09:22 GMT 50.489719 -3.139195 23,475 187 433 1728
2022-07-03 19:09:20 GMT 50.498100 -3.137710 23,400 187 432 1600
2022-07-03 19:09:18 GMT 50.498100 -3.137710 23,400 187 432 1600
2022-07-03 19:09:15 GMT 50.503555 -3.136741 23,300 187 432 1600
2022-07-03 19:09:13 GMT 50.508728 -3.135874 23,250 187 431 1600
2022-07-03 19:09:10 GMT 50.513786 -3.134964 23,225 187 431 1536
2022-07-03 19:09:08 GMT 50.517838 -3.134284 23,075 187 430 1344
2022-07-03 19:09:06 GMT 50.522072 -3.133479 23,125 187 430 1280
2022-07-03 19:09:04 GMT 50.526352 -3.132766 22,925 187 429 1152
2022-07-03 19:09:01 GMT 50.538834 -3.130584 22,900 187 428 1024
2022-07-03 19:08:58 GMT 50.538834 -3.130584 22,975 187 427 960
2022-07-03 19:08:55 GMT 50.543839 -3.129658 22,925 187 425 1088
2022-07-03 19:08:53 GMT 50.547817 -3.128951 22,850 187 423 1344
2022-07-03 19:08:51 GMT 50.550842 -3.128429 22,875 187 424 1280
2022-07-03 19:08:49 GMT 50.555450 -3.127615 22,700 187 423 1472
2022-07-03 19:08:46 GMT 50.562332 -3.126478 22,675 187 422 1600
2022-07-03 19:08:43 GMT 50.568253 -3.125388 22,625 187 421 1728
2022-07-03 19:08:40 GMT 50.576843 -3.123948 22,500 187 421 1792
2022-07-03 19:08:36 GMT 50.580635 -3.123235 22,450 187 421 1792
2022-07-03 19:08:34 GMT 50.586456 -3.122270 22,325 187 420 1728
2022-07-03 19:08:31 GMT 50.590210 -3.121635 21,875 187 417 1664
2022-07-03 19:08:29 GMT 50.594135 -3.120934 22,225 187 419 1664
2022-07-03 19:08:27 GMT 50.597122 -3.120406 22,200 187 419 1600
2022-07-03 19:08:25 GMT 50.601196 -3.119684 22,175 187 419 1600
2022-07-03 19:08:23 GMT 50.606659 -3.118707 22,050 187 418 1664
2022-07-03 19:08:20 GMT 50.612503 -3.117732 21,975 187 417 1664
2022-07-03 19:08:17 GMT 50.617493 -3.116865 21,900 187 416 1728
2022-07-03 19:08:15 GMT 50.620377 -3.116359 21,850 187 416 1728
2022-07-03 19:08:13 GMT 50.624405 -3.115636 21,775 187 416 1728
2022-07-03 19:08:11 GMT 50.629284 -3.114772 21,675 187 416 1728
2022-07-03 19:08:09 GMT 50.631271 -3.114479 21,725 187 416 1664
2022-07-03 19:08:07 GMT 50.637589 -3.113395 21,625 187 415 1536
2022-07-03 19:08:04 GMT 50.641106 -3.112768 21,500 187 414 1536
2022-07-03 19:08:02 GMT 50.650043 -3.111209 21,475 187 413 1472
2022-07-03 19:08:00 GMT 50.650043 -3.111209 21,425 187 413 1472
2022-07-03 19:07:57 GMT 50.660568 -3.109420 21,375 187 412 1536
2022-07-03 19:07:55 GMT 50.664551 -3.108697 21,275 187 411 1600
2022-07-03 19:07:52 GMT 50.668434 -3.108017 21,200 187 410 1600
2022-07-03 19:07:50 GMT 50.668434 -3.108017 21,200 187 410 1600
2022-07-03 19:07:47 GMT 50.673798 -3.107127 21,025 187 409 1600
2022-07-03 19:07:44 GMT 50.684143 -3.105345 21,000 187 408 1536
2022-07-03 19:07:42 GMT 50.684143 -3.105345 20,975 187 408 1536
2022-07-03 19:07:40 GMT 50.694580 -3.103489 20,875 187 405 1536
2022-07-03 19:07:37 GMT 50.694580 -3.103489 20,850 187 406 1472
2022-07-03 19:07:34 GMT 50.700089 -3.102493 20,750 187 405 1536
2022-07-03 19:07:31 GMT 50.703552 -3.101930 20,725 187 404 1664
2022-07-03 19:07:29 GMT 50.707539 -3.101196 20,625 187 403 1728
2022-07-03 19:07:27 GMT 50.712147 -3.100433 20,600 187 403 1728
2022-07-03 19:07:24 GMT 50.716690 -3.099629 20,550 187 403 1856
2022-07-03 19:07:22 GMT 50.721863 -3.098738 20,425 187 402 1984
2022-07-03 19:07:20 GMT 50.725460 -3.098145 20,350 187 402 2112
2022-07-03 19:07:18 GMT 50.729279 -3.097476 20,275 187 402 2176
2022-07-03 19:07:16 GMT 50.732861 -3.096848 20,175 187 402 2432
2022-07-03 19:07:13 GMT 50.738773 -3.095779 20,050 187 402 2560
2022-07-03 19:07:10 GMT 50.745346 -3.094656 19,850 187 402 2560
2022-07-03 19:07:07 GMT 50.747433 -3.094330 19,875 187 403 2560
2022-07-03 19:07:05 GMT 50.752460 -3.093414 19,775 187 403 2368
2022-07-03 19:07:03 GMT 50.756241 -3.092800 19,700 187 403 2240
2022-07-03 19:07:00 GMT 50.761909 -3.091812 19,575 187 403 1984
2022-07-03 19:06:58 GMT 50.765900 -3.091092 19,525 187 403 1792
2022-07-03 19:06:56 GMT 50.769871 -3.090363 19,425 187 402 1536
2022-07-03 19:06:53 GMT 50.775410 -3.089447 19,375 187 401 1472
2022-07-03 19:06:51 GMT 50.778156 -3.088913 19,300 187 400 1472
2022-07-03 19:06:48 GMT 50.784348 -3.087901 19,175 187 392 1856
2022-07-03 19:06:45 GMT 50.790024 -3.086861 19,125 187 397 1600
2022-07-03 19:06:42 GMT 50.799911 -3.085154 19,000 187 397 1600
2022-07-03 19:06:40 GMT 50.799911 -3.085154 19,000 187 396 1600
2022-07-03 19:06:37 GMT 50.803619 -3.084488 18,925 187 395 1664
2022-07-03 19:06:35 GMT 50.808243 -3.083669 18,900 187 394 1664
2022-07-03 19:06:32 GMT 50.812637 -3.082927 18,850 187 394 1664
2022-07-03 19:06:29 GMT 50.817215 -3.082123 18,775 187 393 1664
2022-07-03 19:06:27 GMT 50.821545 -3.081360 18,725 187 392 1728
2022-07-03 19:06:25 GMT 50.826141 -3.080626 18,675 187 392 1792
2022-07-03 19:06:22 GMT 50.830490 -3.079809 18,475 187 391 1984
2022-07-03 19:06:20 GMT 50.834347 -3.079147 18,300 187 390 2048
2022-07-03 19:06:17 GMT 50.840881 -3.078028 18,300 187 390 2048
2022-07-03 19:06:14 GMT 50.846729 -3.077011 18,150 187 389 2048
2022-07-03 19:06:11 GMT 50.850452 -3.076401 18,175 187 389 2112
2022-07-03 19:06:09 GMT 50.859764 -3.074722 18,050 187 388 2112
2022-07-03 19:06:06 GMT 50.864231 -3.073959 17,900 187 388 2048
2022-07-03 19:06:03 GMT 50.868759 -3.073203 17,875 187 387 2048
2022-07-03 19:06:01 GMT 50.868759 -3.073203 17,850 187 387 2048
2022-07-03 19:05:58 GMT 50.874619 -3.072163 17,775 187 387 2048
2022-07-03 19:05:56 GMT 50.878006 -3.071569 17,650 187 386 2176
2022-07-03 19:05:52 GMT 50.884666 -3.070450 17,500 187 386 2368
2022-07-03 19:05:50 GMT 50.888020 -3.069839 17,375 187 386 2560
2022-07-03 19:05:47 GMT 50.893326 -3.068924 17,250 187 386 2496
2022-07-03 19:05:45 GMT 50.896271 -3.068452 17,125 187 386 2560
2022-07-03 19:05:42 GMT 50.906891 -3.066596 16,950 187 386 2560
2022-07-03 19:05:40 GMT 50.906891 -3.066596 16,950 187 386 2560
2022-07-03 19:05:37 GMT 50.911331 -3.065854 16,875 187 386 2560
2022-07-03 19:05:34 GMT 50.917488 -3.064804 16,650 187 386 2496
2022-07-03 19:05:31 GMT 50.922283 -3.063965 16,625 187 386 2432
2022-07-03 19:05:29 GMT 50.926620 -3.063256 16,425 187 386 2368
2022-07-03 19:05:26 GMT 50.930695 -3.062513 16,350 187 386 2368
2022-07-03 19:05:24 GMT 50.935135 -3.061771 16,250 187 386 2304
2022-07-03 19:05:21 GMT 50.939758 -3.060954 16,250 187 386 2304
2022-07-03 19:05:19 GMT 50.943371 -3.060303 16,125 187 383 2112
2022-07-03 19:05:16 GMT 50.948490 -3.059464 16,050 187 385 2112
2022-07-03 19:05:14 GMT 50.955940 -3.058167 15,900 187 383 2112
2022-07-03 19:05:12 GMT 50.955940 -3.058167 15,900 187 383 2112
2022-07-03 19:05:10 GMT 50.958664 -3.057688 15,875 187 383 2112
2022-07-03 19:05:07 GMT 50.964798 -3.056575 15,725 187 382 2240
2022-07-03 19:05:04 GMT 50.975006 -3.054793 15,575 187 382 2240
2022-07-03 19:05:01 GMT 50.975006 -3.054793 15,525 187 381 2176
2022-07-03 19:04:59 GMT 50.978851 -3.054125 15,450 187 380 1856
2022-07-03 19:04:56 GMT 50.983383 -3.053308 15,325 187 380 1856
2022-07-03 19:04:53 GMT 50.988525 -3.052444 15,175 187 379 1600
2022-07-03 19:04:50 GMT 50.993317 -3.051527 15,075 187 376 1216
2022-07-03 19:04:48 GMT 50.997044 -3.050919 15,150 187 376 1216
2022-07-03 19:04:46 GMT 51.000488 -3.050308 15,100 187 374 1024
2022-07-03 19:04:44 GMT 51.004822 -3.049469 15,075 187 372 832
2022-07-03 19:04:41 GMT 51.009102 -3.048782 15,050 187 370 768
2022-07-03 19:04:39 GMT 51.018227 -3.047104 14,975 187 365 832
2022-07-03 19:04:36 GMT 51.018227 -3.047104 14,975 187 364 896
2022-07-03 19:04:33 GMT 51.024994 -3.045959 14,900 187 362 1152
2022-07-03 19:04:30 GMT 51.027466 -3.045514 14,825 187 359 1408
2022-07-03 19:04:28 GMT 51.030842 -3.044968 14,800 187 359 1536
2022-07-03 19:04:26 GMT 51.034985 -3.044205 14,775 187 358 1664
2022-07-03 19:04:23 GMT 51.040787 -3.043213 14,625 187 356 2240
2022-07-03 19:04:20 GMT 51.043831 -3.042755 14,575 187 356 2240
2022-07-03 19:04:18 GMT 51.047150 -3.042174 14,450 186 354 2624
2022-07-03 19:04:16 GMT 51.055161 -3.040837 14,300 186 354 2880
2022-07-03 19:04:13 GMT 51.055161 -3.040837 14,000 186 355 3200
2022-07-03 19:04:11 GMT 51.060265 -3.039932 13,550 186 354 3136
2022-07-03 19:04:08 GMT 51.063709 -3.039398 13,975 186 355 3200
2022-07-03 19:04:06 GMT 51.066742 -3.038907 13,800 186 355 3200
2022-07-03 19:04:04 GMT 51.073288 -3.037794 13,650 186 356 3200
2022-07-03 19:04:00 GMT 51.075996 -3.037338 13,550 187 357 3200
2022-07-03 19:03:58 GMT 51.080093 -3.036652 13,475 187 358 3072
2022-07-03 19:03:56 GMT 51.084274 -3.035938 13,300 186 357 2816
2022-07-03 19:03:53 GMT 51.088577 -3.035196 13,125 186 357 2752
2022-07-03 19:03:50 GMT 51.092430 -3.034592 13,125 186 357 2752
2022-07-03 19:03:48 GMT 51.097038 -3.033829 12,950 186 356 2688
2022-07-03 19:03:46 GMT 51.100624 -3.033218 12,850 186 356 2816
2022-07-03 19:03:43 GMT 51.104004 -3.032672 12,750 186 356 2688
2022-07-03 19:03:40 GMT 51.108948 -3.031855 12,525 186 356 2496
2022-07-03 19:03:38 GMT 51.112961 -3.031158 11,700 186 354 2176
2022-07-03 19:03:36 GMT 51.117279 -3.030445 12,425 186 354 2176
2022-07-03 19:03:34 GMT 51.119804 -3.030014 12,350 187 352 2304
2022-07-03 19:03:32 GMT 51.123901 -3.029327 12,275 187 352 2304
2022-07-03 19:03:30 GMT 51.129318 -3.028441 12,225 187 352 2304
2022-07-03 19:03:28 GMT 51.129318 -3.028441 12,150 187 351 2368
2022-07-03 19:03:26 GMT 51.133446 -3.027725 12,050 187 351 2688
2022-07-03 19:03:24 GMT 51.136051 -3.027267 11,975 187 351 2752
2022-07-03 19:03:21 GMT 51.140945 -3.026436 11,700 187 350 2816
2022-07-03 19:03:18 GMT 51.146198 -3.025513 11,700 187 350 2752
2022-07-03 19:03:16 GMT 51.149410 -3.024902 11,600 187 350 2688
2022-07-03 19:03:14 GMT 51.152622 -3.024368 11,500 187 350 2496
2022-07-03 19:03:11 GMT 51.160816 -3.022842 11,350 187 348 2176
2022-07-03 19:03:09 GMT 51.160816 -3.022842 11,300 187 347 1984
2022-07-03 19:03:06 GMT 51.165344 -3.021983 11,200 187 346 1984
2022-07-03 19:03:03 GMT 51.175571 -3.019943 11,100 188 344 1728
2022-07-03 19:03:00 GMT 51.175571 -3.019943 11,000 187 342 1472
2022-07-03 19:02:57 GMT 51.184387 -3.018271 10,975 187 340 1280
2022-07-03 19:02:54 GMT 51.184387 -3.018271 10,800 187 329 896
2022-07-03 19:02:50 GMT 51.190937 -3.017044 10,825 187 332 960
2022-07-03 19:02:47 GMT 51.194099 -3.016434 10,800 187 329 896
2022-07-03 19:02:45 GMT 51.197205 -3.015896 10,775 187 325 896
2022-07-03 19:02:43 GMT 51.205124 -3.014411 10,650 187 315 896
2022-07-03 19:02:40 GMT 51.205124 -3.014411 10,700 187 318 832
2022-07-03 19:02:38 GMT 51.212303 -3.013153 10,650 187 315 896
2022-07-03 19:02:35 GMT 51.216522 -3.012407 10,475 187 310 1152
2022-07-03 19:02:32 GMT 51.216522 -3.012407 10,550 188 299 2816
2022-07-03 19:02:29 GMT 51.220230 -3.011813 10,475 188 299 2816
2022-07-03 19:02:27 GMT 51.223755 -3.011219 10,425 187 304 1984
2022-07-03 19:02:25 GMT 51.225723 -3.010922 10,350 187 302 2240
2022-07-03 19:02:23 GMT 51.228550 -3.010406 10,225 186 301 2688
2022-07-03 19:02:20 GMT 51.237720 -3.008881 10,075 187 301 3008
2022-07-03 19:02:18 GMT 51.237720 -3.008881 9,950 187 301 2944
2022-07-03 19:02:15 GMT 51.240417 -3.008398 9,900 187 300 2880
2022-07-03 19:02:12 GMT 51.245216 -3.007584 9,725 187 300 2880
2022-07-03 19:02:09 GMT 51.250568 -3.006592 9,450 187 300 2880
2022-07-03 19:02:05 GMT 51.259048 -3.004983 9,375 187 299 2880
2022-07-03 19:02:02 GMT 51.259048 -3.004983 9,250 188 299 2752
2022-07-03 19:01:59 GMT 51.262619 -3.004241 9,175 188 297 2496
2022-07-03 19:01:57 GMT 51.265652 -3.003616 9,025 189 296 2240
2022-07-03 19:01:53 GMT 51.270027 -3.002548 8,875 191 292 1792
2022-07-03 19:01:50 GMT 51.275520 -3.001099 8,725 191 290 1664
2022-07-03 19:01:47 GMT 51.278175 -3.000336 8,675 198 279 1024
2022-07-03 19:01:45 GMT 51.280922 -2.999496 8,675 193 286 1344
2022-07-03 19:01:42 GMT 51.285297 -2.997894 8,575 198 279 1024
2022-07-03 19:01:39 GMT 51.290771 -2.995111 7,900 210 267 1920
2022-07-03 19:01:37 GMT 51.290771 -2.995111 8,550 208 268 1728
2022-07-03 19:01:35 GMT 51.293655 -2.993106 8,475 208 268 1728
2022-07-03 19:01:32 GMT 51.296471 -2.990723 8,375 210 267 1920
2022-07-03 19:01:29 GMT 51.300156 -2.987019 8,150 218 261 2752
2022-07-03 19:01:26 GMT 51.302242 -2.984543 8,150 218 261 2752
2022-07-03 19:01:24 GMT 51.305080 -2.981033 8,050 219 260 3008
2022-07-03 19:01:22 GMT 51.305878 -2.979967 7,975 219 260 3072
2022-07-03 19:01:19 GMT 51.309036 -2.975885 7,725 219 260 3072
2022-07-03 19:01:17 GMT 51.311050 -2.973435 7,675 218 260 2944
2022-07-03 19:01:15 GMT 51.313087 -2.970886 7,550 218 260 2944
2022-07-03 19:01:13 GMT 51.317696 -2.965317 7,425 217 260 2816
2022-07-03 19:01:10 GMT 51.320526 -2.961929 7,250 217 259 2752
2022-07-03 19:01:07 GMT 51.320526 -2.961929 7,025 216 258 2688
2022-07-03 19:01:04 GMT 51.324097 -2.957772 7,050 216 258 2688
2022-07-03 19:01:02 GMT 51.325974 -2.955693 6,850 215 256 2752
2022-07-03 19:00:59 GMT 51.328358 -2.953033 6,825 215 256 2752
2022-07-03 19:00:57 GMT 51.333481 -2.947454 6,500 214 254 2752
2022-07-03 19:00:54 GMT 51.333481 -2.947454 6,625 215 254 2752
2022-07-03 19:00:52 GMT 51.335014 -2.945786 6,600 214 254 2752
2022-07-03 19:00:49 GMT 51.337948 -2.942657 6,400 214 253 2944
2022-07-03 19:00:47 GMT 51.340462 -2.939987 6,200 214 252 3136
2022-07-03 19:00:44 GMT 51.342510 -2.937775 6,100 215 252 3392
2022-07-03 19:00:42 GMT 51.348175 -2.931717 5,975 215 252 3584
2022-07-03 19:00:39 GMT 51.351562 -2.928005 5,725 215 252 3904
2022-07-03 19:00:36 GMT 51.351562 -2.928005 5,625 216 254 4160
2022-07-03 19:00:33 GMT 51.356598 -2.922141 5,425 217 255 4352
2022-07-03 19:00:30 GMT 51.359070 -2.919171 4,875 219 259 4608
2022-07-03 19:00:27 GMT 51.359070 -2.919171 5,025 220 260 4544
2022-07-03 19:00:24 GMT 51.364948 -2.910919 4,625 224 263 4160
2022-07-03 19:00:21 GMT 51.364948 -2.910919 4,550 225 264 4032
2022-07-03 19:00:17 GMT 51.370583 -2.900848 4,225 236 266 3136
2022-07-03 19:00:14 GMT 51.370583 -2.900848 4,100 236 266 3136
2022-07-03 19:00:11 GMT 51.373375 -2.894135 3,700 250 262 2624
2022-07-03 19:00:08 GMT 51.374771 -2.889924 3,525 266 255 2368
2022-07-03 19:00:05 GMT 51.376007 -2.885247 3,625 254 262 2560
2022-07-03 19:00:02 GMT 51.377060 -2.880125 3,525 259 259 2496
2022-07-03 18:59:59 GMT 51.377983 -2.873611 3,375 264 257 2432
2022-07-03 18:59:56 GMT 51.378353 -2.868729 3,250 267 255 2368
2022-07-03 18:59:53 GMT 51.378635 -2.862854 3,175 268 252 2176
2022-07-03 18:59:50 GMT 51.378799 -2.857188 3,100 268 251 2048
2022-07-03 18:59:46 GMT 51.379028 -2.849987 2,925 268 242 1536
2022-07-03 18:59:43 GMT 51.379166 -2.844346 2,850 268 242 1536
2022-07-03 18:59:40 GMT 51.379440 -2.832543 2,775 269 236 1408
2022-07-03 18:59:36 GMT 51.379440 -2.832543 2,650 269 230 1408
2022-07-03 18:59:33 GMT 51.379532 -2.826901 2,625 269 227 1472
2022-07-03 18:59:30 GMT 51.379623 -2.822076 2,575 269 222 1344
2022-07-03 18:59:27 GMT 51.379715 -2.816805 2,500 269 217 768
2022-07-03 18:59:24 GMT 51.379852 -2.807304 2,475 269 209 384
2022-07-03 18:59:21 GMT 51.379852 -2.807304 2,450 269 204 448
2022-07-03 18:59:17 GMT 51.379986 -2.801132 2,400 269 199 1024
2022-07-03 18:59:13 GMT 51.380077 -2.795486 2,300 269 190 1152
2022-07-03 18:59:10 GMT 51.380127 -2.791270 2,275 269 189 1152
2022-07-03 18:59:07 GMT 51.380169 -2.787628 2,200 269 182 1088
2022-07-03 18:59:04 GMT 51.380264 -2.783475 2,150 269 178 1088
2022-07-03 18:59:01 GMT 51.380356 -2.778428 2,100 269 176 1024
2022-07-03 18:58:56 GMT 51.380447 -2.773306 2,025 268 168 1024
2022-07-03 18:58:53 GMT 51.380585 -2.768258 1,925 268 163 1216
2022-07-03 18:58:50 GMT 51.380676 -2.765437 1,900 267 161 1408
2022-07-03 18:58:46 GMT 51.380814 -2.761503 1,800 267 158 1856
2022-07-03 18:58:43 GMT 51.380997 -2.757346 1,650 266 156 2176
2022-07-03 18:58:40 GMT 51.381149 -2.753830 1,575 266 155 2880
2022-07-03 18:58:35 GMT 51.381454 -2.747918 1,250 266 154 3392
2022-07-03 18:58:32 GMT 51.381592 -2.744800 1,100 267 159 2112
2022-07-03 18:58:29 GMT 51.381775 -2.741831 975 266 155 3200
2022-07-03 18:58:25 GMT 51.381985 -2.736511 675 267 159 2624
2022-07-03 18:58:22 GMT 51.382172 -2.732925 575 267 159 2624
2022-07-03 18:58:13 GMT 51.382500 -2.723083 400 267 148 256
2022-07-03 18:58:09 GMT 51.382683 -2.719421 425 267 136 256
2022-07-03 18:58:01 GMT 51.382919 -2.712584 400 267 93 0
2022-07-03 18:57:48 GMT 51.383186 -2.706242 0 267 24
2022-07-03 18:57:42 GMT 51.383205 -2.705606 0 264 10
2022-07-03 18:57:32 GMT 51.383251 -2.704956 0 202 9
2022-07-03 18:55:27 GMT 51.384739 -2.706478 0 87 5
2022-07-03 18:55:12 GMT 51.384727 -2.706794 0 87 0
2022-07-03 18:54:58 GMT 51.384731 -2.706795 0 87 0
2022-07-03 18:54:13 GMT 51.384727 -2.706812 0 87 0
2022-07-03 18:54:03 GMT 51.384731 -2.706814 0 87 0
2022-07-03 18:53:27 GMT 51.384739 -2.706812 0 87 0
2022-07-03 18:53:16 GMT 51.384731 -2.706738 0 87 2
2022-07-03 18:53:02 GMT 51.384750 -2.706590 0 84 3
2022-07-03 18:52:52 GMT 51.384796 -2.706478 0 67 3
2022-07-03 18:52:43 GMT 51.384911 -2.706367 0 42 3
2022-07-03 18:52:36 GMT 51.384975 -2.706337 0 30 3
2022-07-03 18:52:31 GMT 51.385048 -2.706318 0 25 3
2022-07-03 18:52:28 GMT 51.385082 -2.706299 0 19 3
2022-07-03 18:52:21 GMT 51.385258 -2.706318 0 0 4
2022-07-03 18:52:13 GMT 51.385292 -2.706337 0 0 3
2022-07-03 18:52:07 GMT 51.385437 -2.706348 0 357 3
2022-07-03 18:51:55 GMT 51.385506 -2.706348 0 357 3
2022-07-03 18:51:51 GMT 51.385620 -2.706367 0 357 3
2022-07-03 18:51:36 GMT 51.385746 -2.706385 0 354 3
2022-07-03 18:51:26 GMT 51.385872 -2.706413 0 354 3

Making use of Plane Finder data

You are free to use the raw flight data, aircraft information and images provided in this report for your own purposes provided the data is correctly attributed to Plane Finder. We ask that you please credit Plane Finder and link to planefinder.net in close proximity to the content.

Optionally one of the following logos (no smaller then 150x24px) can be used and must link to planefinder.net

Embedding the Plane Finder map

You are welcome to embed the Plane Finder playback map on your website to offer visitors a more interactive experience. We suggest using the following HTML code:

<iframe src="//planefinder.net/data/report/U26075-G-EZTR-7700-squawk-2022-07-03/map" width="800" height="600" seamless="seamless"></iframe>

Where our data comes from

Plane Finder has a global network of data feeds and antenna radars that receive data broadcast directly from aircraft. The primary technologies used are ADS-B and MLAT. We also show feeds from the FAA and a FLARM glider feed.

Click here to find out more about the Plane Finder network.

How we collect our data